
Distance (Route):
Temperature : -31.2°C
Humidity : 67.3%
Pressure : 377.3hPa| Receiver | Frames | First received | Last received |
|---|---|---|---|
| DL1XH-west | 325 | 2026-09-02 23:59:14 | 2026-09-03 00:57:11 |
| DM0DOS-11 | 199 | 2026-09-03 00:10:12 | 2026-09-03 00:54:55 |
| BIOWL1-15 | 119 | 2026-09-03 00:18:53 | 2026-09-03 00:52:09 |
| DJ2DS-15 | 88 | 2026-09-02 23:54:06 | 2026-09-03 00:58:18 |
| GOEST3-10 | 30 | 2026-09-03 00:35:42 | 2026-09-03 00:49:26 |
| DL1XH-15 | 19 | 2026-09-03 00:34:01 | 2026-09-03 00:39:16 |
| BIOWL9-15 | 13 | 2026-09-03 00:19:26 | 2026-09-03 00:51:31 |
| Receiver | Date | Latitude | Longitude | Direction | Speed | Altitude | Climb | Temperature | Humidity | Pressure | Voltage | Killtimer | Uptime | BKT | XDATA |
|---|---|---|---|---|---|---|---|---|---|---|---|---|---|---|---|
| DJ2DS-15 | 2026-09-03 00:58:18 | 56.42860 | 5.04634 | 104° | 78km/h | 7729m | -17.9m/s | -31.2°C | 67.3% | 377.3hPa | 2.5V | 00:00:00 | 02:01:46 | 00:00:00 | |
| DJ2DS-15 | 2026-09-03 00:57:58 | 56.42958 | 5.03937 | 105° | 80km/h | 8069m | -18.0m/s | -33.8°C | 74.1% | 359.4hPa | 2.4V | 00:00:00 | 02:01:26 | 00:00:00 | |
| DJ2DS-15 | 2026-09-03 00:57:38 | 56.43048 | 5.03218 | 101° | 82km/h | 8433m | -19.4m/s | -36.9°C | 69.2% | 341.1hPa | 2.4V | 00:00:00 | 02:01:06 | 00:00:00 | |
| DL1XH-west | 2026-09-03 00:57:11 | 56.43155 | 5.02153 | 101° | 91km/h | 8925m | -18.5m/s | -41.5°C | 82.5% | 317.5hPa | 2.4V | 08:22:22 | 02:00:38 | 00:00:00 | |
| DL1XH-west | 2026-09-03 00:57:00 | 56.43208 | 5.01678 | 101° | 102km/h | 9119m | -18.4m/s | -42.9°C | 71.2% | 308.6hPa | 2.4V | 08:22:22 | 02:00:27 | 00:00:00 | |
| DL1XH-west | 2026-09-03 00:56:49 | 56.43270 | 5.01162 | 103° | 108km/h | 9314m | -18.9m/s | -44.6°C | 69.3% | 299.7hPa | 2.4V | 08:22:22 | 02:00:16 | 00:00:00 | |
| DL1XH-west | 2026-09-03 00:56:39 | 56.43342 | 5.00609 | 103° | 119km/h | 9515m | -19.9m/s | -46.2°C | 63.9% | 290.8hPa | 2.5V | 08:22:22 | 02:00:05 | 00:00:00 | |
| DL1XH-west | 2026-09-03 00:56:28 | 56.43396 | 5.00115 | 100° | 122km/h | 9697m | -21.1m/s | -47.5°C | 65.3% | 283hPa | 2.4V | 08:22:22 | 01:59:56 | 00:00:00 | |
| DL1XH-west | 2026-09-03 00:56:17 | 56.43439 | 4.99510 | 96° | 119km/h | 9920m | -22m/s | -49.2°C | 61.9% | 273.5hPa | 2.4V | 08:23:13 | 01:59:45 | 00:00:00 | |
| DL1XH-west | 2026-09-03 00:56:07 | 56.43486 | 4.98827 | 98° | 117km/h | 10193m | -22m/s | -51.3°C | 39.7% | 262.4hPa | 2.5V | 08:23:13 | 01:59:32 | 00:00:00 | |
| DL1XH-west | 2026-09-03 00:55:54 | 56.43540 | 4.98237 | 100° | 122km/h | 10427m | -22.5m/s | -53°C | 32.5% | 253hPa | 2.5V | 08:23:13 | 01:59:21 | 00:00:00 | |
| DL1XH-west | 2026-09-03 00:55:44 | 56.43589 | 4.97682 | 98° | 122km/h | 10649m | -22.3m/s | -54°C | 26.9% | 244.5hPa | 2.4V | 08:23:13 | 01:59:11 | 00:00:00 | |
| DL1XH-west | 2026-09-03 00:55:33 | 56.43636 | 4.97067 | 99° | 126km/h | 10866m | -20.6m/s | -55.1°C | 24% | 236.2hPa | 2.4V | 08:23:13 | 01:59:00 | 00:00:00 | |
| DL1XH-west | 2026-09-03 00:55:22 | 56.43704 | 4.96441 | 101° | 128km/h | 11087m | -21.6m/s | -55.5°C | 18.2% | 228.2hPa | 2.5V | 08:24:04 | 01:58:49 | 00:00:00 | |
| DL1XH-west | 2026-09-03 00:55:12 | 56.43762 | 4.95859 | 99° | 130km/h | 11296m | -21.4m/s | -55.2°C | 10.9% | 220.8hPa | 2.5V | 08:24:04 | 01:58:39 | 00:00:00 | |
| DL1XH-west | 2026-09-03 00:55:01 | 56.43817 | 4.95205 | 99° | 133km/h | 11531m | -22.6m/s | -54.4°C | 6.8% | 212.9hPa | 2.5V | 08:24:04 | 01:58:28 | 00:00:00 | |
| DJ2DS-15 | 2026-09-03 00:54:58 | 56.43827 | 4.95084 | 99° | 133km/h | 11572m | -21.8m/s | -53.6°C | 9.1% | 211.5hPa | 2.4V | 00:00:00 | 01:58:26 | 00:00:00 | |
| DM0DOS-11 | 2026-09-03 00:54:55 | 56.43872 | 4.94604 | 101° | 135km/h | 11753m | -24.8m/s | -52.2°C | 7.1% | 205.7hPa | 2.4V | 08:23:55 | 01:58:18 | 00:00:00 | |
| DL1XH-west | 2026-09-03 00:54:52 | 56.43872 | 4.94604 | 101° | 135km/h | 11753m | -24.8m/s | -52.2°C | 4.9% | 205.7hPa | 2.4V | 08:24:04 | 01:58:18 | 00:00:00 | |
| DM0DOS-11 | 2026-09-03 00:54:45 | 56.43948 | 4.93950 | 101° | 133km/h | 11991m | -22m/s | -51°C | 6.3% | 198.2hPa | 2.4V | 08:24:06 | 01:58:07 | 00:00:00 | |
| DL1XH-west | 2026-09-03 00:54:40 | 56.43948 | 4.93950 | 101° | 133km/h | 11991m | -22m/s | -51°C | 4.1% | 198.3hPa | 2.4V | 08:24:55 | 01:58:07 | 00:00:00 | |
| DJ2DS-15 | 2026-09-03 00:54:39 | 56.43954 | 4.93891 | 101° | 131km/h | 12012m | -21.5m/s | -51.1°C | 3.4% | 197.6hPa | 2.4V | 00:00:00 | 00:00:00 | 00:00:00 | |
| DJ2DS-15 | 2026-09-03 00:54:38 | 56.43954 | 4.93890 | 102° | 130km/h | 12012m | -21.5m/s | -51.1°C | 6.3% | 197.6hPa | 2.4V | 00:00:00 | 01:58:06 | 00:00:00 | |
| DM0DOS-11 | 2026-09-03 00:54:34 | 56.44022 | 4.93343 | 104° | 137km/h | 12199m | -21.1m/s | -52°C | 6.1% | 192hPa | 2.4V | 08:24:16 | 01:57:57 | 00:00:00 | |
| DL1XH-west | 2026-09-03 00:54:30 | 56.44022 | 4.93343 | 104° | 137km/h | 12199m | -21.1m/s | -52°C | 3.4% | 192hPa | 2.4V | 08:24:55 | 01:57:57 | 00:00:00 | |
| DM0DOS-11 | 2026-09-03 00:54:24 | 56.44116 | 4.92799 | 107° | 113km/h | 12407m | -22.4m/s | -51.7°C | 5% | 186hPa | 2.4V | 08:24:26 | 01:57:47 | 00:00:00 | |
| DL1XH-west | 2026-09-03 00:54:19 | 56.44116 | 4.92799 | 108° | 113km/h | 12407m | -22.4m/s | -51.7°C | 2% | 186hPa | 2.4V | 08:24:55 | 01:57:47 | 00:00:00 | |
| DJ2DS-15 | 2026-09-03 00:54:18 | 56.44124 | 4.92751 | 107° | 104km/h | 12428m | -21.9m/s | -51.7°C | 5.0% | 185.3hPa | 2.5V | 08:24:00 | 01:57:46 | 00:00:00 | |
| DM0DOS-11 | 2026-09-03 00:54:14 | 56.44176 | 4.92342 | 95° | 97km/h | 12617m | -22.6m/s | -52.4°C | 4.9% | 179.9hPa | 2.4V | 08:24:36 | 01:57:37 | 00:00:00 | |
| DL1XH-west | 2026-09-03 00:54:09 | 56.44176 | 4.92342 | 96° | 97km/h | 12617m | -22.7m/s | -52.4°C | 1.5% | 179.9hPa | 2.4V | 08:24:55 | 01:57:37 | 00:00:00 | |
| DM0DOS-11 | 2026-09-03 00:54:03 | 56.44198 | 4.91859 | 92° | 113km/h | 12837m | -23.2m/s | -51.5°C | 4.4% | 173.9hPa | 2.4V | 08:24:46 | 01:57:27 | 00:00:00 | |
| DL1XH-west | 2026-09-03 00:53:58 | 56.44200 | 4.91808 | 93° | 113km/h | 12860m | -23.3m/s | -51.6°C | 1.1% | 173.3hPa | 2.5V | 08:24:55 | 01:57:26 | 00:00:00 | |
| DJ2DS-15 | 2026-09-03 00:53:58 | 56.44199 | 4.91808 | 94° | 108km/h | 12860m | -23.2m/s | -51.5°C | 4.4% | 173.2hPa | 2.4V | 00:00:00 | 01:57:26 | 00:00:00 | |
| DM0DOS-11 | 2026-09-03 00:53:52 | 56.44232 | 4.91338 | 98° | 115km/h | 13068m | -22.4m/s | -51.1°C | 4.2% | 167.8hPa | 2.4V | 08:24:56 | 01:57:17 | 00:00:00 | |
| DL1XH-west | 2026-09-03 00:53:48 | 56.44242 | 4.91237 | 102° | 110km/h | 13112m | -22.4m/s | -50.7°C | 0.7% | 166.8hPa | 2.5V | 08:25:46 | 01:57:15 | 00:00:00 | |
| DM0DOS-11 | 2026-09-03 00:53:42 | 56.44287 | 4.90881 | 100° | 91km/h | 13291m | -24.3m/s | -50.2°C | 4% | 162.2hPa | 2.4V | 08:25:06 | 01:57:07 | 00:00:00 | |
| DL1XH-west | 2026-09-03 00:53:37 | 56.44298 | 4.90757 | 97° | 93km/h | 13360m | -23.9m/s | -50.4°C | 0.7% | 160.5hPa | 2.5V | 08:25:46 | 01:57:04 | 00:00:00 | |
| DL1XH-west | 2026-09-03 00:53:25 | 56.44340 | 4.90231 | 104° | 100km/h | 13650m | -27.7m/s | -49°C | 0.3% | 153.6hPa | 2.5V | 08:25:46 | 01:56:52 | 00:00:00 | |
| DM0DOS-11 | 2026-09-03 00:53:25 | 56.44380 | 4.89971 | 107° | 97km/h | 13798m | -24.9m/s | -49°C | 3.5% | 150.1hPa | 2.4V | 08:25:27 | 01:56:46 | 00:00:00 | |
| DL1XH-west | 2026-09-03 00:53:13 | 56.44420 | 4.89773 | 111° | 88km/h | 13919m | -26m/s | -49.3°C | 0.4% | 147.4hPa | 2.4V | 08:25:46 | 01:56:41 | 00:00:00 | |
| DM0DOS-11 | 2026-09-03 00:53:13 | 56.44450 | 4.89627 | 108° | 84km/h | 14018m | -25.8m/s | -49.9°C | 3.7% | 145.2hPa | 2.5V | 08:25:36 | 01:56:37 | 00:00:00 | |
| DL1XH-west | 2026-09-03 00:53:03 | 56.44493 | 4.89392 | 106° | 73km/h | 14192m | -25.7m/s | -50.2°C | 0.5% | 141.4hPa | 2.4V | 08:25:46 | 01:56:30 | 00:00:00 | |
| DM0DOS-11 | 2026-09-03 00:53:03 | 56.44505 | 4.89296 | 100° | 71km/h | 14264m | -25.4m/s | -50.5°C | 3.8% | 139.8hPa | 2.5V | 08:25:46 | 01:56:27 | 00:00:00 | |
| DL1XH-west | 2026-09-03 00:52:51 | 56.44521 | 4.89018 | 97° | 84km/h | 14464m | -27m/s | -50.9°C | 0.6% | 135.5hPa | 2.4V | 08:26:37 | 01:56:19 | 00:00:00 | |
| DM0DOS-11 | 2026-09-03 00:52:51 | 56.44526 | 4.88942 | 96° | 86km/h | 14516m | -27.1m/s | -50.9°C | 4% | 134.6hPa | 2.5V | 08:25:56 | 01:56:17 | 00:00:00 | |
| DM0DOS-11 | 2026-09-03 00:52:45 | 56.44578 | 4.88489 | 101° | 75km/h | 14827m | -29.7m/s | -50.6°C | 3.7% | 128.3hPa | 2.5V | 08:26:08 | 01:56:05 | 00:00:00 | |
| DL1XH-west | 2026-09-03 00:52:41 | 56.44564 | 4.88591 | 105° | 80km/h | 14747m | -27.1m/s | -50.9°C | 0.5% | 129.8hPa | 2.4V | 08:26:37 | 01:56:08 | 00:00:00 | |
| DJ2DS-15 | 2026-09-03 00:52:38 | 56.44574 | 4.88522 | 103° | 68km/h | 14800m | -28.4m/s | -50.5°C | 3.7% | 128.7hPa | 2.4V | 00:00:00 | 01:56:06 | 00:00:00 | |
| DM0DOS-11 | 2026-09-03 00:52:32 | 56.44607 | 4.88202 | 98° | 66km/h | 15079m | -28.6m/s | -50.2°C | 3.7% | 123.4hPa | 2.4V | 08:26:17 | 01:55:56 | 00:00:00 | |
| DL1XH-west | 2026-09-03 00:52:30 | 56.44604 | 4.88233 | 98° | 68km/h | 15052m | -27.9m/s | -50.1°C | 0.3% | 123.9hPa | 2.4V | 08:26:37 | 01:55:57 | 00:00:00 | |
| DM0DOS-11 | 2026-09-03 00:52:21 | 56.44621 | 4.87907 | 94° | 66km/h | 15370m | -31.3m/s | -50.7°C | 3.7% | 118hPa | 2.4V | 08:26:27 | 01:55:46 | 00:00:00 | |
| DL1XH-west | 2026-09-03 00:52:18 | 56.44621 | 4.87907 | 94° | 66km/h | 15370m | -31.3m/s | -50.7°C | 0.3% | 118hPa | 2.4V | 08:26:37 | 01:55:46 | 00:00:00 | |
| DJ2DS-15 | 2026-09-03 00:52:18 | 56.44621 | 4.87907 | 95° | 62km/h | 15370m | -31.3m/s | -50.6°C | 3.7% | 118.0hPa | 2.4V | 00:00:00 | 01:55:46 | 00:00:00 | |
| DM0DOS-11 | 2026-09-03 00:52:15 | 56.44641 | 4.87597 | 94° | 62km/h | 15690m | -30.3m/s | -50.6°C | 3.7% | 112.3hPa | 2.4V | 08:26:38 | 01:55:35 | 00:00:00 | |
| BIOWL1-15 | 2026-09-03 00:52:09 | 56.44647 | 4.87481 | 94° | 64km/h | 15810m | -30.5m/s | -50.8°C | 0.4% | 110.3hPa | 2.4V | 08:27:28 | 01:55:31 | 00:00:00 | |
| DL1XH-west | 2026-09-03 00:52:08 | 56.44639 | 4.87625 | 96° | 62km/h | 15662m | -29.8m/s | -50.4°C | 0.4% | 112.8hPa | 2.4V | 08:26:37 | 01:55:36 | 00:00:00 | |
| DM0DOS-11 | 2026-09-03 00:52:02 | 56.44653 | 4.87308 | 91° | 64km/h | 15987m | -30.7m/s | -49.9°C | 3.6% | 107.3hPa | 2.4V | 08:26:48 | 01:55:25 | 00:00:00 | |
| DL1XH-west | 2026-09-03 00:51:57 | 56.44653 | 4.87308 | 91° | 64km/h | 15987m | -30.7m/s | -49.9°C | 0.3% | 107.3hPa | 2.4V | 08:27:28 | 01:55:25 | 00:00:00 | |
| DM0DOS-11 | 2026-09-03 00:51:52 | 56.44669 | 4.87008 | 97° | 66km/h | 16281m | -31.9m/s | -49.5°C | 3.4% | 102.7hPa | 2.4V | 08:26:58 | 01:55:15 | 00:00:00 | |
| BIOWL1-15 | 2026-09-03 00:51:50 | 56.44666 | 4.87038 | 100° | 66km/h | 16251m | -31.1m/s | -49.4°C | 0.2% | 103.1hPa | 2.5V | 08:27:28 | 01:55:16 | 00:00:00 | |
| DL1XH-west | 2026-09-03 00:51:46 | 56.44674 | 4.86950 | 101° | 64km/h | 16342m | -32.5m/s | -49.6°C | 0.1% | 101.7hPa | 2.4V | 08:27:28 | 01:55:13 | 00:00:00 | |
| BIOWL1-15 | 2026-09-03 00:51:40 | 56.44692 | 4.86776 | 98° | 68km/h | 16527m | -32.1m/s | -50.3°C | 0.2% | 98.8hPa | 2.5V | 08:27:28 | 01:55:07 | 00:00:00 | |
| DM0DOS-11 | 2026-09-03 00:51:40 | 56.44697 | 4.86715 | 100° | 69km/h | 16589m | -31m/s | -49.9°C | 3.5% | 97.9hPa | 2.4V | 08:27:08 | 01:55:05 | 00:00:00 | |
| DL1XH-west | 2026-09-03 00:51:35 | 56.44709 | 4.86626 | 105° | 62km/h | 16679m | -33.5m/s | -49.5°C | 0.1% | 96.6hPa | 2.4V | 08:27:28 | 01:55:02 | 00:00:00 | |
| BIOWL9-15 | 2026-09-03 00:51:31 | 56.44721 | 4.86545 | 105° | 58km/h | 16774m | -32.3m/s | -49.7°C | 1.0% | 95.1hPa | 2.4V | 00:00:00 | 00:00:00 | 00:00:00 | |
| DM0DOS-11 | 2026-09-03 00:51:29 | 56.44736 | 4.86442 | 102° | 58km/h | 16897m | -32.8m/s | -50.3°C | 3.7% | 93.3hPa | 2.4V | 08:27:18 | 01:54:55 | 00:00:00 | |
| BIOWL1-15 | 2026-09-03 00:51:29 | 56.44768 | 4.86265 | 112° | 53km/h | 17115m | -31.8m/s | -50.2°C | 0.3% | 90.4hPa | 2.5V | 08:27:28 | 01:54:48 | 00:00:00 | |
| DL1XH-west | 2026-09-03 00:51:24 | 56.44752 | 4.86338 | 107° | 58km/h | 17021m | -31.8m/s | -50.3°C | 0.3% | 91.6hPa | 2.4V | 08:27:28 | 01:54:51 | 00:00:00 | |
| BIOWL1-15 | 2026-09-03 00:51:14 | 56.44806 | 4.86065 | 95° | 44km/h | 17430m | -34m/s | -50°C | 0.2% | 86hPa | 2.5V | 18:12:15 | 01:54:38 | 00:00:00 | |
| DL1XH-west | 2026-09-03 00:51:12 | 56.44803 | 4.86103 | 99° | 40km/h | 17365m | -32.9m/s | -50.2°C | 0.3% | 86.9hPa | 2.4V | 08:28:19 | 01:54:40 | 00:00:00 | |
| DM0DOS-11 | 2026-09-03 00:51:07 | 56.44811 | 4.85964 | 94° | 44km/h | 17597m | -33.7m/s | -49.9°C | 3.5% | 83.9hPa | 2.5V | 08:27:40 | 01:54:33 | 00:00:00 | |
| BIOWL1-15 | 2026-09-03 00:51:03 | 56.44814 | 4.85924 | 99° | 42km/h | 17663m | -34.6m/s | -49.8°C | 0.1% | 83hPa | 2.4V | 18:12:15 | 01:54:31 | 00:00:00 | |
| DL1XH-west | 2026-09-03 00:51:01 | 56.44818 | 4.85886 | 102° | 40km/h | 17732m | -36.4m/s | -49.8°C | 0.1% | 82.2hPa | 2.4V | 08:28:19 | 01:54:29 | 00:00:00 | |
| BIOWL1-15 | 2026-09-03 00:50:53 | 56.44834 | 4.85735 | 108° | 40km/h | 18014m | -36.3m/s | -50.3°C | 0.2% | 78.7hPa | 2.5V | 18:12:15 | 01:54:21 | 00:00:00 | |
| DL1XH-west | 2026-09-03 00:50:50 | 56.44842 | 4.85683 | 105° | 38km/h | 18119m | -37.5m/s | -50.8°C | 0.3% | 77.5hPa | 2.4V | 08:28:19 | 01:54:18 | 00:00:00 | |
| DL1XH-west | 2026-09-03 00:50:40 | 56.44849 | 4.85481 | 93° | 46km/h | 18505m | -36.8m/s | -51.6°C | 0.5% | 73hPa | 2.4V | 08:28:19 | 01:54:07 | 00:00:00 | |
| DL1XH-west | 2026-09-03 00:50:29 | 56.44855 | 4.85262 | 100° | 38km/h | 18909m | -38.5m/s | -51°C | 0.5% | 68.6hPa | 2.4V | 08:28:19 | 01:53:56 | 00:00:00 | |
| DJ2DS-15 | 2026-09-03 00:50:27 | 56.44859 | 4.85225 | 101° | 38km/h | 18984m | -38.4m/s | -50.9°C | 1.1% | 67.8hPa | 2.4V | 00:00:00 | 00:00:00 | 00:00:00 | |
| DM0DOS-11 | 2026-09-03 00:50:22 | 56.44883 | 4.85077 | 109° | 35km/h | 19323m | -40.5m/s | -51°C | 3.9% | 64.3hPa | 2.4V | 08:28:28 | 01:53:45 | 00:00:00 | |
| BIOWL1-15 | 2026-09-03 00:50:20 | 56.44873 | 4.85123 | 109° | 37km/h | 19205m | -40.2m/s | -50.7°C | 0.4% | 65.5hPa | 2.5V | 18:12:15 | 01:53:48 | 00:00:00 | |
| DL1XH-west | 2026-09-03 00:50:19 | 56.44880 | 4.85092 | 111° | 35km/h | 19283m | -41.1m/s | -51°C | 0.4% | 64.7hPa | 2.4V | 08:29:10 | 01:53:46 | 00:00:00 | |
| DJ2DS-15 | 2026-09-03 00:50:18 | 56.44880 | 4.85092 | 112° | 31km/h | 19283m | -41.0m/s | -50.9°C | 3.9% | 64.7hPa | 2.4V | 00:00:00 | 01:53:46 | 00:00:00 | |
| DM0DOS-11 | 2026-09-03 00:50:12 | 56.44908 | 4.84908 | 101° | 27km/h | 19760m | -40.4m/s | -49.9°C | 3.6% | 60.1hPa | 2.4V | 08:28:39 | 01:53:34 | 00:00:00 | |
| BIOWL1-15 | 2026-09-03 00:50:12 | 56.44894 | 4.84732 | 83° | 40km/h | 20230m | -41.1m/s | -50.9°C | 0.4% | 56hPa | 2.4V | 18:12:15 | 01:53:22 | 00:00:00 | |
| DL1XH-west | 2026-09-03 00:50:08 | 56.44906 | 4.84921 | 102° | 31km/h | 19722m | -40.2m/s | -49.9°C | 0.3% | 60.5hPa | 2.4V | 08:29:10 | 01:53:35 | 00:00:00 | |
| BIOWL1-15 | 2026-09-03 00:50:02 | 56.44893 | 4.84714 | 87° | 40km/h | 20269m | -41.4m/s | -51°C | 0.4% | 55.6hPa | 2.4V | 18:12:15 | 01:53:21 | 00:00:00 | |
| DM0DOS-11 | 2026-09-03 00:50:01 | 56.44898 | 4.84786 | 77° | 38km/h | 20112m | -40m/s | -51°C | 3.9% | 57hPa | 2.5V | 08:28:48 | 01:53:25 | 00:00:00 | |
| BIOWL9-15 | 2026-09-03 00:49:59 | 56.44901 | 4.84803 | 75° | 35km/h | 20074m | -40.0m/s | -50.9°C | 1.0% | 57.3hPa | 2.5V | 00:00:00 | 00:00:00 | 00:00:00 | |
| DJ2DS-15 | 2026-09-03 00:49:58 | 56.44901 | 4.84803 | 76° | 35km/h | 20074m | -39.9m/s | -50.9°C | 3.9% | 57.2hPa | 2.5V | 00:00:00 | 01:53:26 | 00:00:00 | |
| DL1XH-west | 2026-09-03 00:49:58 | 56.44898 | 4.84786 | 77° | 38km/h | 20112m | -40m/s | -51.1°C | 0.5% | 57hPa | 2.5V | 08:29:10 | 01:53:25 | 00:00:00 | |
| DM0DOS-11 | 2026-09-03 00:49:50 | 56.44896 | 4.84612 | 97° | 31km/h | 20510m | -42m/s | -50.7°C | 3.8% | 53.6hPa | 2.5V | 08:28:58 | 01:53:15 | 00:00:00 | |
| DL1XH-west | 2026-09-03 00:49:47 | 56.44895 | 4.84612 | 97° | 31km/h | 20510m | -42m/s | -50.7°C | 0.3% | 53.6hPa | 2.5V | 08:29:10 | 01:53:15 | 00:00:00 | |
| BIOWL1-15 | 2026-09-03 00:49:45 | 56.44898 | 4.84582 | 99° | 31km/h | 20594m | -43.6m/s | -50.9°C | 0.4% | 53hPa | 2.4V | 18:12:15 | 01:53:13 | 00:00:00 | |
| DM0DOS-11 | 2026-09-03 00:49:40 | 56.44915 | 4.84455 | 111° | 24km/h | 20970m | -46.8m/s | -49.2°C | 3.3% | 50hPa | 2.4V | 08:29:09 | 01:53:04 | 00:00:00 | |
| DL1XH-west | 2026-09-03 00:49:37 | 56.44913 | 4.84467 | 110° | 27km/h | 20926m | -44.7m/s | -49.7°C | 0.2% | 50.3hPa | 2.4V | 08:29:10 | 01:53:05 | 00:00:00 | |
| DM0DOS-11 | 2026-09-03 00:49:30 | 56.44929 | 4.84348 | 107° | 20km/h | 21429m | -46.3m/s | -50.3°C | 3.6% | 46.6hPa | 2.4V | 08:30:00 | 01:52:54 | 00:00:00 | |
| DL1XH-west | 2026-09-03 00:49:27 | 56.44928 | 4.84357 | 107° | 24km/h | 21385m | -46.2m/s | -50.3°C | 0.3% | 46.9hPa | 2.4V | 18:12:15 | 01:52:55 | 00:00:00 | |
| GOEST3-10 | 2026-09-03 00:49:26 | 56.44929 | 4.84347 | 108° | 20km/h | 21429m | -46.3m/s | -50.3°C | 3.6% | 46.5hPa | 2.5V | 00:00:00 | 01:52:54 | 00:00:00 | |
| GOEST3-10 | 2026-09-03 00:49:20 | 56.44935 | 4.84293 | 96° | 16km/h | 21695m | -45.5m/s | -50.7°C | 3.8% | 44.6hPa | 2.5V | 00:00:00 | 00:00:00 | 00:00:00 | |
| DM0DOS-11 | 2026-09-03 00:49:19 | 56.44938 | 4.84262 | 97° | 16km/h | 21872m | -45.7m/s | -50.7°C | 3.8% | 43.5hPa | 2.5V | 08:30:00 | 01:52:44 | 00:00:00 | |
| BIOWL1-15 | 2026-09-03 00:49:16 | 56.44938 | 4.84262 | 97° | 16km/h | 21872m | -45.7m/s | -50.7°C | 0.4% | 43.5hPa | 2.5V | 18:12:15 | 01:52:44 | 00:00:00 | |
| GOEST3-10 | 2026-09-03 00:49:15 | 56.44938 | 4.84254 | 91° | 22km/h | 21918m | -46.0m/s | -50.5°C | 3.8% | 43.2hPa | 2.4V | 00:00:00 | 01:52:43 | 08:30:00 | |
| GOEST3-10 | 2026-09-03 00:49:10 | 56.44941 | 4.84203 | 99° | 24km/h | 22146m | -47.5m/s | -51.1°C | 3.9% | 41.7hPa | 2.5V | 00:00:00 | 00:00:00 | 00:00:00 | |
| DM0DOS-11 | 2026-09-03 00:49:08 | 56.44946 | 4.84160 | 104° | 20km/h | 22336m | -49.5m/s | -50.5°C | 3.8% | 40.5hPa | 2.5V | 08:30:00 | 01:52:34 | 00:00:00 | |
| BIOWL1-15 | 2026-09-03 00:49:06 | 56.44951 | 4.84126 | 105° | 18km/h | 22525m | -47.4m/s | -50°C | 0.3% | 39.3hPa | 2.4V | 18:12:15 | 01:52:30 | 00:00:00 | |
| DL1XH-west | 2026-09-03 00:49:05 | 56.44948 | 4.84151 | 105° | 22km/h | 22385m | -48.6m/s | -50.4°C | 0.3% | 40.2hPa | 2.5V | 18:12:15 | 01:52:33 | 00:00:00 | |
| GOEST3-10 | 2026-09-03 00:49:05 | 56.44947 | 4.84151 | 106° | 20km/h | 22385m | -48.6m/s | -50.3°C | 3.7% | 40.1hPa | 2.5V | 00:00:00 | 01:52:33 | 00:00:00 | |
| GOEST3-10 | 2026-09-03 00:49:00 | 56.44952 | 4.84111 | 95° | 16km/h | 22617m | -47.3m/s | -50.0°C | 3.7% | 38.7hPa | 2.5V | 00:00:00 | 00:00:00 | 00:00:00 | |
| DM0DOS-11 | 2026-09-03 00:48:58 | 56.44955 | 4.84081 | 102° | 18km/h | 22804m | -47.8m/s | -51°C | 4% | 37.7hPa | 2.4V | 08:30:00 | 01:52:24 | 00:00:00 | |
| DL1XH-west | 2026-09-03 00:48:54 | 56.44958 | 4.84064 | 109° | 22km/h | 22898m | -48.4m/s | -50.9°C | 0.5% | 37.1hPa | 2.4V | 18:12:15 | 01:52:22 | 00:00:00 | |
| DM0DOS-11 | 2026-09-03 00:48:51 | 56.44983 | 4.83991 | 133° | 22km/h | 23287m | -50.9m/s | -49.2°C | 3.5% | 35hPa | 2.4V | 08:30:00 | 01:52:14 | 00:00:00 | |
| BIOWL1-15 | 2026-09-03 00:48:51 | 56.44965 | 4.84035 | 118° | 24km/h | 23040m | -49.1m/s | -50.5°C | 0.4% | 36.3hPa | 2.4V | 18:12:15 | 01:52:19 | 00:00:00 | |
| DL1XH-west | 2026-09-03 00:48:44 | 56.44991 | 4.83977 | 141° | 18km/h | 23386m | -51.4m/s | -49.3°C | 0.3% | 34.4hPa | 2.4V | 18:12:15 | 01:52:12 | 00:00:00 | |
| BIOWL1-15 | 2026-09-03 00:48:43 | 56.45000 | 4.83963 | 144° | 13km/h | 23538m | -51.9m/s | -49.2°C | 0.3% | 33.6hPa | 2.5V | 18:12:15 | 01:52:09 | 00:00:00 | |
| DM0DOS-11 | 2026-09-03 00:48:41 | 56.45011 | 4.83944 | 129° | 11km/h | 23795m | -52.3m/s | -49.7°C | 3.6% | 32.3hPa | 2.4V | 08:30:00 | 01:52:04 | 00:00:00 | |
| DL1XH-west | 2026-09-03 00:48:33 | 56.45016 | 4.83931 | 118° | 13km/h | 23946m | -50.5m/s | -49.9°C | 0.3% | 31.6hPa | 2.4V | 18:12:15 | 01:52:01 | 00:00:00 | |
| BIOWL1-15 | 2026-09-03 00:48:31 | 56.45033 | 4.83886 | 128° | 22km/h | 24240m | -45.7m/s | -49.3°C | 0.2% | 30.1hPa | 2.4V | 18:12:15 | 01:51:55 | 00:00:00 | |
| DL1XH-west | 2026-09-03 00:48:23 | 56.45048 | 4.83853 | 130° | 26km/h | 24410m | -40.2m/s | -49°C | 0.1% | 29.4hPa | 2.5V | 18:12:15 | 01:51:51 | 00:00:00 | |
| BIOWL1-15 | 2026-09-03 00:48:16 | 56.45125 | 4.83770 | 147° | 38km/h | 24589m | 4.6m/s | -48.8°C | 0.2% | 28.5hPa | 2.4V | 18:12:15 | 01:51:38 | 00:00:00 | |
| DL1XH-west | 2026-09-03 00:48:12 | 56.45110 | 4.83786 | 155° | 31km/h | 24599m | 5.4m/s | -48.8°C | 0.2% | 28.5hPa | 2.5V | 18:12:15 | 01:51:40 | 00:00:00 | |
| GOEST3-10 | 2026-09-03 00:48:10 | 56.45125 | 4.83770 | 147° | 37km/h | 24589m | 4.5m/s | -48.7°C | 3.4% | 28.5hPa | 2.5V | 00:00:00 | 00:00:00 | 00:00:00 | |
| DM0DOS-11 | 2026-09-03 00:48:09 | 56.45162 | 4.83720 | 134° | 37km/h | 24564m | 5.6m/s | -49°C | 3.4% | 28.6hPa | 2.5V | 08:30:00 | 01:51:33 | 00:00:00 | |
| DL1XH-west | 2026-09-03 00:48:02 | 56.45179 | 4.83685 | 131° | 29km/h | 24550m | 5.5m/s | -49.2°C | 0.2% | 28.7hPa | 2.4V | 18:12:15 | 01:51:30 | 00:00:00 | |
| BIOWL1-15 | 2026-09-03 00:48:00 | 56.45189 | 4.83666 | 136° | 29km/h | 24539m | 5.2m/s | -49.3°C | 0.2% | 28.7hPa | 2.4V | 18:12:15 | 01:51:28 | 00:00:00 | |
| GOEST3-10 | 2026-09-03 00:48:00 | 56.45189 | 4.83666 | 136° | 33km/h | 24540m | 5.2m/s | -49.2°C | 3.5% | 28.7hPa | 2.4V | 00:00:00 | 00:00:00 | 00:00:00 | |
| DM0DOS-11 | 2026-09-03 00:47:58 | 56.45224 | 4.83622 | 154° | 33km/h | 24515m | 4.4m/s | -49.5°C | 3.5% | 28.8hPa | 2.4V | 08:30:00 | 01:51:23 | 00:00:00 | |
| DL1XH-west | 2026-09-03 00:47:51 | 56.45251 | 4.83592 | 138° | 33km/h | 24496m | 4.3m/s | -49.6°C | 0.3% | 28.9hPa | 2.5V | 18:12:15 | 01:51:19 | 00:00:00 | |
| BIOWL1-15 | 2026-09-03 00:47:50 | 56.45257 | 4.83582 | 135° | 31km/h | 24491m | 4.8m/s | -49.6°C | 0.3% | 28.9hPa | 2.4V | 18:12:15 | 01:51:18 | 00:00:00 | |
| GOEST3-10 | 2026-09-03 00:47:50 | 56.45256 | 4.83582 | 135° | 29km/h | 24492m | 4.8m/s | -49.5°C | 3.6% | 28.9hPa | 2.5V | 00:00:00 | 00:00:00 | 00:00:00 | |
| DM0DOS-11 | 2026-09-03 00:47:48 | 56.45280 | 4.83527 | 120° | 33km/h | 24467m | 3.7m/s | -49.6°C | 3.5% | 29.1hPa | 2.5V | 08:30:00 | 01:51:13 | 00:00:00 | |
| BIOWL1-15 | 2026-09-03 00:47:42 | 56.45303 | 4.83475 | 135° | 29km/h | 24443m | 5.6m/s | -49.7°C | 0.2% | 29.2hPa | 2.5V | 18:12:15 | 01:51:08 | 00:00:00 | |
| DL1XH-west | 2026-09-03 00:47:42 | 56.45298 | 4.83485 | 136° | 29km/h | 24448m | 4.4m/s | -49.7°C | 0.3% | 29.1hPa | 2.5V | 18:12:15 | 01:51:09 | 00:00:00 | |
| GOEST3-10 | 2026-09-03 00:47:40 | 56.45303 | 4.83475 | 135° | 29km/h | 24443m | 5.6m/s | -49.6°C | 3.5% | 29.1hPa | 2.4V | 00:00:00 | 00:00:00 | 00:00:00 | |
| DJ2DS-15 | 2026-09-03 00:47:38 | 56.45314 | 4.83455 | 133° | 24km/h | 24434m | 4.3m/s | -49.6°C | 3.6% | 29.2hPa | 2.4V | 00:00:00 | 01:51:06 | 00:00:00 | |
| DM0DOS-11 | 2026-09-03 00:47:37 | 56.45342 | 4.83391 | 119° | 26km/h | 24400m | 5m/s | -49.7°C | 3.5% | 29.4hPa | 2.4V | 08:30:00 | 01:50:59 | 00:00:00 | |
| DL1XH-west | 2026-09-03 00:47:31 | 56.45345 | 4.83382 | 123° | 22km/h | 24395m | 4.9m/s | -49.7°C | 0.2% | 29.4hPa | 2.4V | 18:12:15 | 01:50:58 | 00:00:00 | |
| GOEST3-10 | 2026-09-03 00:47:30 | 56.45345 | 4.83382 | 123° | 24km/h | 24395m | 4.8m/s | -49.7°C | 3.5% | 29.3hPa | 2.4V | 00:00:00 | 00:00:00 | 00:00:00 | |
| DJ2DS-15 | 2026-09-03 00:47:26 | 56.45359 | 4.83345 | 123° | 27km/h | 24375m | 4.6m/s | -49.9°C | 0.9% | 29.5hPa | 2.4V | 00:00:00 | 00:00:00 | 00:00:00 | |
| GOEST3-10 | 2026-09-03 00:47:25 | 56.45363 | 4.83335 | 125° | 22km/h | 24371m | 5.2m/s | -49.8°C | 3.6% | 29.4hPa | 2.4V | 00:00:00 | 01:50:53 | 00:00:00 | |
| BIOWL9-15 | 2026-09-03 00:47:23 | 56.45370 | 4.83317 | 119° | 20km/h | 24361m | 4.3m/s | -49.9°C | 0.9% | 29.5hPa | 2.4V | 00:00:00 | 00:00:00 | 00:00:00 | |
| DM0DOS-11 | 2026-09-03 00:47:20 | 56.45377 | 4.83284 | 104° | 15km/h | 24343m | 4.3m/s | -49.9°C | 3.6% | 29.6hPa | 2.4V | 08:30:00 | 01:50:47 | 00:00:00 | |
| DL1XH-west | 2026-09-03 00:47:19 | 56.45376 | 4.83284 | 104° | 15km/h | 24343m | 4.3m/s | -49.9°C | 0.2% | 29.6hPa | 2.4V | 18:12:15 | 01:50:47 | 00:00:00 | |
| DJ2DS-15 | 2026-09-03 00:47:18 | 56.45377 | 4.83278 | 112° | 18km/h | 24337m | 5.6m/s | -49.9°C | 3.6% | 29.6hPa | 2.4V | 00:00:00 | 01:50:46 | 00:00:00 | |
| DM0DOS-11 | 2026-09-03 00:47:15 | 56.45409 | 4.83221 | 110° | 24km/h | 24286m | 4.9m/s | -50°C | 3.5% | 29.9hPa | 2.4V | 08:30:00 | 01:50:36 | 00:00:00 | |
| BIOWL1-15 | 2026-09-03 00:47:10 | 56.45412 | 4.83202 | 98° | 18km/h | 24275m | 5m/s | -50°C | 0.2% | 29.9hPa | 2.4V | 18:12:15 | 01:50:34 | 00:00:00 | |
| DL1XH-west | 2026-09-03 00:47:10 | 56.45409 | 4.83221 | 110° | 24km/h | 24286m | 4.9m/s | -50°C | 0.2% | 29.9hPa | 2.4V | 18:12:15 | 01:50:36 | 00:00:00 | |
| GOEST3-10 | 2026-09-03 00:47:05 | 56.45412 | 4.83194 | 101° | 18km/h | 24271m | 4.3m/s | -50.0°C | 3.6% | 29.9hPa | 2.5V | 00:00:00 | 01:50:33 | 00:00:00 | |
| DM0DOS-11 | 2026-09-03 00:47:02 | 56.45427 | 4.83151 | 142° | 24km/h | 24241m | 4.3m/s | -50.3°C | 3.8% | 30.1hPa | 2.5V | 08:30:00 | 01:50:27 | 00:00:00 | |
| DL1XH-west | 2026-09-03 00:46:57 | 56.45436 | 4.83135 | 127° | 29km/h | 24230m | 4.3m/s | -50.2°C | 0.3% | 30.1hPa | 2.5V | 18:12:15 | 01:50:25 | 00:00:00 | |
| BIOWL1-15 | 2026-09-03 00:46:57 | 56.45440 | 4.83124 | 121° | 29km/h | 24226m | 4m/s | -50.2°C | 0.3% | 30.1hPa | 2.4V | 18:12:15 | 01:50:24 | 00:00:00 | |
| BIOWL9-15 | 2026-09-03 00:46:53 | 56.45450 | 4.83076 | 96° | 20km/h | 24201m | 5.6m/s | -50.1°C | 0.9% | 30.3hPa | 2.4V | 00:00:00 | 00:00:00 | 00:00:00 | |
| DM0DOS-11 | 2026-09-03 00:46:52 | 56.45452 | 4.83045 | 105° | 22km/h | 24186m | 5.7m/s | -50.2°C | 3.5% | 30.3hPa | 2.4V | 08:30:00 | 01:50:16 | 00:00:00 | |
| BIOWL1-15 | 2026-09-03 00:46:50 | 56.45458 | 4.83027 | 127° | 24km/h | 24176m | 4.4m/s | -50.3°C | 0.4% | 30.4hPa | 2.5V | 18:12:15 | 01:50:14 | 00:00:00 | |
| DL1XH-west | 2026-09-03 00:46:46 | 56.45461 | 4.83018 | 131° | 26km/h | 24171m | 5.7m/s | -50.4°C | 0.3% | 30.4hPa | 2.5V | 18:12:15 | 01:50:13 | 00:00:00 | |
| GOEST3-10 | 2026-09-03 00:46:45 | 56.45461 | 4.83018 | 131° | 24km/h | 24171m | 5.7m/s | -50.3°C | 3.6% | 30.3hPa | 2.5V | 00:00:00 | 01:50:13 | 00:00:00 | |
| DM0DOS-11 | 2026-09-03 00:46:41 | 56.45479 | 4.82959 | 89° | 22km/h | 24136m | 4.5m/s | -50.6°C | 3.7% | 30.6hPa | 2.5V | 08:30:00 | 01:50:06 | 00:00:00 | |
| BIOWL1-15 | 2026-09-03 00:46:36 | 56.45480 | 4.82931 | 107° | 16km/h | 24122m | 5.1m/s | -50.6°C | 0.3% | 30.6hPa | 2.4V | 18:12:15 | 01:50:03 | 00:00:00 | |
| DL1XH-west | 2026-09-03 00:46:35 | 56.45482 | 4.82924 | 123° | 16km/h | 24117m | 4.9m/s | -50.6°C | 0.3% | 30.7hPa | 2.5V | 18:12:15 | 01:50:02 | 00:00:00 | |
| BIOWL1-15 | 2026-09-03 00:46:26 | 56.45493 | 4.82847 | 97° | 11km/h | 24054m | 4.3m/s | -50.7°C | 0.4% | 30.9hPa | 2.5V | 18:12:15 | 01:49:49 | 00:00:00 | |
| DL1XH-west | 2026-09-03 00:46:24 | 56.45494 | 4.82859 | 78° | 16km/h | 24064m | 5.5m/s | -50.8°C | 0.4% | 30.9hPa | 2.4V | 18:12:15 | 01:49:51 | 00:00:00 | |
| BIOWL1-15 | 2026-09-03 00:46:13 | 56.45502 | 4.82806 | 128° | 4km/h | 23979m | 4m/s | -50.7°C | 0.4% | 31.3hPa | 2.4V | 18:12:15 | 01:49:34 | 00:00:00 | |
| DL1XH-west | 2026-09-03 00:46:13 | 56.45505 | 4.82816 | 101° | 5km/h | 24009m | 4.4m/s | -50.8°C | 0.4% | 31.1hPa | 2.4V | 18:12:15 | 01:49:40 | 00:00:00 | |
| DL1XH-west | 2026-09-03 00:46:03 | 56.45507 | 4.82809 | 211° | 5km/h | 23960m | 4.8m/s | -50.9°C | 0.5% | 31.4hPa | 2.5V | 18:12:15 | 01:49:30 | 00:00:00 | |
| BIOWL1-15 | 2026-09-03 00:46:02 | 56.45511 | 4.82807 | 144° | 4km/h | 23940m | 5.1m/s | -50.9°C | 0.4% | 31.5hPa | 2.5V | 18:12:15 | 01:49:26 | 00:00:00 | |
| DL1XH-west | 2026-09-03 00:45:52 | 56.45518 | 4.82795 | 115° | 9km/h | 23910m | 5.5m/s | -50.7°C | 0.4% | 31.7hPa | 2.5V | 18:12:15 | 01:49:20 | 00:00:00 | |
| BIOWL9-15 | 2026-09-03 00:45:51 | 56.45520 | 4.82786 | 107° | 7km/h | 23894m | 5.7m/s | -50.7°C | 0.9% | 31.7hPa | 2.4V | 00:00:00 | 00:00:00 | 00:00:00 | |
| BIOWL1-15 | 2026-09-03 00:45:42 | 56.45531 | 4.82772 | 171° | 11km/h | 23859m | 4.8m/s | -50.8°C | 0.4% | 31.9hPa | 2.4V | 18:12:15 | 01:49:10 | 00:00:00 | |
| DL1XH-west | 2026-09-03 00:45:41 | 56.45533 | 4.82772 | 173° | 11km/h | 23854m | 4.7m/s | -50.8°C | 0.4% | 31.9hPa | 2.4V | 18:12:15 | 01:49:09 | 00:00:00 | |
| DM0DOS-11 | 2026-09-03 00:45:40 | 56.45543 | 4.82773 | 182° | 7km/h | 23833m | 5.7m/s | -50.7°C | 3.8% | 32hPa | 2.4V | 08:30:00 | 01:49:05 | 00:00:00 | |
| BIOWL1-15 | 2026-09-03 00:45:34 | 56.45553 | 4.82773 | 176° | 11km/h | 23808m | 4.9m/s | -50.6°C | 0.4% | 32.1hPa | 2.5V | 18:12:15 | 01:49:00 | 00:00:00 | |
| DL1XH-west | 2026-09-03 00:45:31 | 56.45555 | 4.82772 | 167° | 13km/h | 23803m | 5.3m/s | -50.6°C | 0.4% | 32.2hPa | 2.4V | 18:12:15 | 01:48:59 | 00:00:00 | |
| DM0DOS-11 | 2026-09-03 00:45:30 | 56.45571 | 4.82766 | 171° | 15km/h | 23783m | 4.5m/s | -50.5°C | 3.8% | 32.3hPa | 2.5V | 08:30:00 | 01:48:55 | 00:00:00 | |
| BIOWL1-15 | 2026-09-03 00:45:22 | 56.45607 | 4.82754 | 146° | 15km/h | 23724m | 4.6m/s | -50.2°C | 0.5% | 32.6hPa | 2.5V | 18:12:15 | 01:48:44 | 00:00:00 | |
| DL1XH-west | 2026-09-03 00:45:21 | 56.45596 | 4.82760 | 175° | 13km/h | 23745m | 5.2m/s | -50.3°C | 0.4% | 32.5hPa | 2.4V | 18:12:15 | 01:48:48 | 00:00:00 | |
| DM0DOS-11 | 2026-09-03 00:45:19 | 56.45605 | 4.82757 | 153° | 11km/h | 23729m | 4.8m/s | -50.2°C | 3.8% | 32.5hPa | 2.4V | 08:30:00 | 01:48:45 | 00:00:00 | |
| DL1XH-west | 2026-09-03 00:45:10 | 56.45628 | 4.82726 | 145° | 13km/h | 23695m | 3.5m/s | -50.1°C | 0.4% | 32.7hPa | 2.4V | 18:12:15 | 01:48:38 | 00:00:00 | |
| DM0DOS-11 | 2026-09-03 00:45:09 | 56.45638 | 4.82717 | 160° | 18km/h | 23680m | 5.2m/s | -50.1°C | 3.6% | 32.8hPa | 2.4V | 08:30:00 | 01:48:35 | 00:00:00 | |
| BIOWL1-15 | 2026-09-03 00:45:08 | 56.45658 | 4.82706 | 157° | 18km/h | 23654m | 4.8m/s | -50.1°C | 0.3% | 32.9hPa | 2.5V | 18:12:15 | 01:48:30 | 00:00:00 | |
| GOEST3-10 | 2026-09-03 00:45:04 | 56.45650 | 4.82711 | 163° | 16km/h | 23665m | 4.1m/s | -50.0°C | 3.7% | 32.8hPa | 2.4V | 00:00:00 | 01:48:32 | 00:00:00 | |
| DM0DOS-11 | 2026-09-03 00:45:03 | 56.45679 | 4.82681 | 143° | 20km/h | 23622m | 4.8m/s | -50°C | 3.7% | 33.1hPa | 2.5V | 08:30:00 | 01:48:24 | 00:00:00 | |
| DL1XH-west | 2026-09-03 00:44:59 | 56.45669 | 4.82695 | 144° | 15km/h | 23638m | 4.7m/s | -50°C | 0.3% | 33hPa | 2.4V | 18:12:15 | 01:48:27 | 00:00:00 | |
| BIOWL1-15 | 2026-09-03 00:44:56 | 56.45686 | 4.82671 | 144° | 16km/h | 23612m | 5m/s | -49.9°C | 0.3% | 33.1hPa | 2.4V | 18:12:15 | 01:48:22 | 00:00:00 | |
| GOEST3-10 | 2026-09-03 00:44:54 | 56.45686 | 4.82671 | 144° | 16km/h | 23612m | 5.0m/s | -49.9°C | 3.6% | 33.1hPa | 2.4V | 00:00:00 | 01:48:22 | 00:00:00 | |
| DM0DOS-11 | 2026-09-03 00:44:51 | 56.45716 | 4.82637 | 149° | 22km/h | 23571m | 5.1m/s | -50.1°C | 3.7% | 33.3hPa | 2.4V | 08:30:00 | 01:48:14 | 00:00:00 | |
| DL1XH-west | 2026-09-03 00:44:49 | 56.45705 | 4.82650 | 148° | 16km/h | 23585m | 5.6m/s | -50°C | 0.3% | 33.3hPa | 2.4V | 18:12:15 | 01:48:17 | 00:00:00 | |
| BIOWL9-15 | 2026-09-03 00:44:48 | 56.45712 | 4.82642 | 146° | 18km/h | 23577m | 4.6m/s | -50.0°C | 0.9% | 33.3hPa | 2.5V | 00:00:00 | 00:00:00 | 00:00:00 | |
| BIOWL1-15 | 2026-09-03 00:44:43 | 56.45757 | 4.82593 | 149° | 16km/h | 23527m | 5.9m/s | -50.3°C | 0.4% | 33.6hPa | 2.5V | 18:12:15 | 01:48:05 | 00:00:00 | |
| DM0DOS-11 | 2026-09-03 00:44:40 | 56.45767 | 4.82578 | 137° | 22km/h | 23512m | 5m/s | -50.3°C | 3.7% | 33.6hPa | 2.4V | 08:30:00 | 01:48:02 | 00:00:00 | |
| DL1XH-west | 2026-09-03 00:44:39 | 56.45748 | 4.82601 | 152° | 20km/h | 23537m | 4.5m/s | -50.3°C | 0.4% | 33.5hPa | 2.4V | 18:12:15 | 01:48:07 | 00:00:00 | |
| BIOWL1-15 | 2026-09-03 00:44:32 | 56.45799 | 4.82527 | 146° | 29km/h | 23477m | 4.3m/s | -50.3°C | 0.4% | 33.8hPa | 2.4V | 18:12:15 | 01:47:55 | 00:00:00 | |
| DM0DOS-11 | 2026-09-03 00:44:29 | 56.45811 | 4.82512 | 142° | 27km/h | 23467m | 5.6m/s | -50.2°C | 3.7% | 33.9hPa | 2.5V | 08:30:00 | 01:47:53 | 00:00:00 | |
| DL1XH-west | 2026-09-03 00:44:29 | 56.45794 | 4.82534 | 144° | 26km/h | 23482m | 5.9m/s | -50.3°C | 0.3% | 33.8hPa | 2.4V | 18:12:15 | 01:47:56 | 00:00:00 | |
| BIOWL1-15 | 2026-09-03 00:44:21 | 56.45830 | 4.82478 | 132° | 27km/h | 23447m | 5.1m/s | -50.2°C | 0.4% | 34hPa | 2.4V | 18:12:15 | 01:47:49 | 00:00:00 | |
| GOEST3-10 | 2026-09-03 00:44:19 | 56.45840 | 4.82458 | 131° | 29km/h | 23437m | 6.0m/s | -50.1°C | 3.7% | 34.0hPa | 2.5V | 00:00:00 | 00:00:00 | 00:00:00 | |
| DM0DOS-11 | 2026-09-03 00:44:18 | 56.45859 | 4.82419 | 134° | 33km/h | 23415m | 4.1m/s | -50.2°C | 3.7% | 34.1hPa | 2.4V | 08:30:00 | 01:47:43 | 00:00:00 | |
| DL1XH-west | 2026-09-03 00:44:18 | 56.45849 | 4.82439 | 131° | 27km/h | 23426m | 5.2m/s | -50.2°C | 0.3% | 34.1hPa | 2.4V | 18:12:15 | 01:47:45 | 00:00:00 | |
| BIOWL1-15 | 2026-09-03 00:44:10 | 56.45883 | 4.82370 | 128° | 26km/h | 23391m | 5.6m/s | -50.2°C | 0.3% | 34.3hPa | 2.4V | 18:12:15 | 01:47:38 | 00:00:00 | |
| DL1XH-west | 2026-09-03 00:44:07 | 56.45899 | 4.82333 | 128° | 24km/h | 23371m | 4.6m/s | -50.2°C | 0.3% | 34.4hPa | 2.5V | 18:12:15 | 01:47:34 | 00:00:00 | |
| BIOWL1-15 | 2026-09-03 00:43:59 | 56.45947 | 4.82226 | 120° | 33km/h | 23326m | 4.5m/s | -50.3°C | 0.3% | 34.6hPa | 2.4V | 18:12:15 | 01:47:25 | 00:00:00 | |
| DJ2DS-15 | 2026-09-03 00:43:58 | 56.45942 | 4.82240 | 123° | 33km/h | 23331m | 4.8m/s | -50.2°C | 3.6% | 34.6hPa | 2.5V | 00:00:00 | 01:47:26 | 00:00:00 | |
| DM0DOS-11 | 2026-09-03 00:43:57 | 56.45956 | 4.82192 | 111° | 24km/h | 23310m | 5.3m/s | -50.2°C | 3.5% | 34.7hPa | 2.5V | 08:30:00 | 01:47:22 | 00:00:00 | |
| DL1XH-west | 2026-09-03 00:43:56 | 56.45950 | 4.82214 | 116° | 29km/h | 23321m | 6.2m/s | -50.3°C | 0.3% | 34.7hPa | 2.5V | 18:12:15 | 01:47:24 | 00:00:00 | |
| BIOWL1-15 | 2026-09-03 00:43:51 | 56.45972 | 4.82138 | 121° | 29km/h | 23286m | 4.6m/s | -50.5°C | 0.4% | 34.9hPa | 2.5V | 18:12:15 | 01:47:17 | 00:00:00 | |
| DL1XH-west | 2026-09-03 00:43:46 | 56.45986 | 4.82100 | 125° | 40km/h | 23271m | 5.6m/s | -50.6°C | 0.3% | 34.9hPa | 2.4V | 18:12:15 | 01:47:14 | 00:00:00 | |
| BIOWL9-15 | 2026-09-03 00:43:46 | 56.45992 | 4.82085 | 124° | 40km/h | 23266m | 4.5m/s | -50.7°C | 0.9% | 35.0hPa | 2.4V | 00:00:00 | 00:00:00 | 00:00:00 | |
| BIOWL1-15 | 2026-09-03 00:43:41 | 56.46020 | 4.82000 | 117° | 31km/h | 23236m | 5.4m/s | -51°C | 0.4% | 35.1hPa | 2.4V | 18:12:15 | 01:47:07 | 00:00:00 | |
| DJ2DS-15 | 2026-09-03 00:43:38 | 56.46023 | 4.81988 | 116° | 31km/h | 23231m | 5.1m/s | -50.9°C | 3.7% | 35.1hPa | 2.4V | 00:00:00 | 01:47:06 | 00:00:00 | |
| DM0DOS-11 | 2026-09-03 00:43:37 | 56.46040 | 4.81943 | 131° | 35km/h | 23211m | 4.1m/s | -51.1°C | 3.7% | 35.2hPa | 2.4V | 08:30:00 | 01:47:02 | 00:00:00 | |
| DL1XH-west | 2026-09-03 00:43:36 | 56.46030 | 4.81966 | 122° | 27km/h | 23220m | 5.7m/s | -51.1°C | 0.4% | 35.2hPa | 2.5V | 18:12:15 | 01:47:04 | 00:00:00 | |
| BIOWL1-15 | 2026-09-03 00:43:29 | 56.46067 | 4.81871 | 113° | 33km/h | 23181m | 4.3m/s | -51.4°C | 0.3% | 35.4hPa | 2.4V | 18:12:15 | 01:46:56 | 00:00:00 | |
| DL1XH-west | 2026-09-03 00:43:25 | 56.46075 | 4.81832 | 110° | 29km/h | 23166m | 5.1m/s | -51.5°C | 0.3% | 35.5hPa | 2.5V | 18:12:15 | 01:46:53 | 00:00:00 | |
| BIOWL1-15 | 2026-09-03 00:43:19 | 56.46116 | 4.81642 | 106° | 31km/h | 23092m | 4.2m/s | -51.6°C | 0.5% | 0hPa | 2.4V | 18:12:15 | 01:46:38 | 00:00:00 | |
| DJ2DS-15 | 2026-09-03 00:43:18 | 56.46097 | 4.81748 | 113° | 27km/h | 23131m | 5.6m/s | -51.6°C | 3.9% | 35.6hPa | 2.5V | 00:00:00 | 01:46:46 | 00:00:00 | |
| DM0DOS-11 | 2026-09-03 00:43:16 | 56.46108 | 4.81694 | 106° | 29km/h | 23111m | 5m/s | -51.6°C | 4% | 35.8hPa | 2.4V | 08:30:00 | 01:46:42 | 00:00:00 | |
| DL1XH-west | 2026-09-03 00:43:15 | 56.46106 | 4.81707 | 110° | 33km/h | 23116m | 4.8m/s | -51.7°C | 0.4% | 35.8hPa | 2.4V | 18:12:15 | 01:46:43 | 00:00:00 | |
| BIOWL1-15 | 2026-09-03 00:43:10 | 56.46120 | 4.81617 | 106° | 26km/h | 23081m | 4.9m/s | -51.6°C | 0.5% | 0hPa | 2.5V | 18:12:15 | 01:46:36 | 00:00:00 | |
| GOEST3-10 | 2026-09-03 00:43:08 | 56.46120 | 4.81617 | 106° | 26km/h | 23082m | 4.9m/s | -51.5°C | 3.9% | 35.9hPa | 2.4V | 00:00:00 | 00:00:00 | 00:00:00 | |
| DM0DOS-11 | 2026-09-03 00:43:06 | 56.46127 | 4.81571 | 101° | 26km/h | 23061m | 5m/s | -51.5°C | 3.9% | 36.1hPa | 2.4V | 08:30:00 | 01:46:32 | 00:00:00 | |
| DL1XH-west | 2026-09-03 00:43:04 | 56.46128 | 4.81560 | 96° | 24km/h | 23056m | 5.2m/s | -51.5°C | 0.5% | 36.1hPa | 2.4V | 18:12:15 | 01:46:31 | 00:00:00 | |
| BIOWL1-15 | 2026-09-03 00:42:57 | 56.46128 | 4.81490 | 96° | 22km/h | 23026m | 5.1m/s | -51.6°C | 0.4% | 0hPa | 2.4V | 18:12:15 | 01:46:25 | 00:00:00 | |
| DM0DOS-11 | 2026-09-03 00:42:55 | 56.46132 | 4.81463 | 111° | 22km/h | 23012m | 4.7m/s | -51.8°C | 4% | 36.3hPa | 2.5V | 08:30:00 | 01:46:22 | 00:00:00 | |
| DL1XH-west | 2026-09-03 00:42:54 | 56.46135 | 4.81442 | 96° | 24km/h | 23003m | 4.6m/s | -51.8°C | 0.5% | 36.4hPa | 2.4V | 18:12:15 | 01:46:20 | 00:00:00 | |
| GOEST3-10 | 2026-09-03 00:42:53 | 56.46134 | 4.81453 | 106° | 24km/h | 23008m | 4.1m/s | -51.7°C | 3.8% | 36.3hPa | 2.5V | 00:00:00 | 01:46:21 | 00:00:00 | |
| DM0DOS-11 | 2026-09-03 00:42:50 | 56.46126 | 4.81340 | 84° | 24km/h | 22959m | 3.8m/s | -51.9°C | 3.9% | 36.6hPa | 2.5V | 08:30:00 | 01:46:11 | 00:00:00 | |
| BIOWL1-15 | 2026-09-03 00:42:47 | 56.46129 | 4.81374 | 79° | 29km/h | 22973m | 4.3m/s | -51.8°C | 0.4% | 0hPa | 2.4V | 18:12:15 | 01:46:14 | 00:00:00 | |
| DL1XH-west | 2026-09-03 00:42:43 | 56.46126 | 4.81329 | 89° | 24km/h | 22954m | 5.6m/s | -52°C | 0.6% | 36.7hPa | 2.5V | 18:12:15 | 01:46:10 | 00:00:00 | |
| DM0DOS-11 | 2026-09-03 00:42:38 | 56.46126 | 4.81247 | 62° | 9km/h | 22904m | 4.9m/s | -52.1°C | 4.1% | 37hPa | 2.5V | 08:30:00 | 01:46:00 | 00:00:00 | |
| BIOWL1-15 | 2026-09-03 00:42:37 | 56.46123 | 4.81218 | 99° | 16km/h | 22880m | 5.5m/s | -52.1°C | 0.7% | 0hPa | 2.4V | 18:12:15 | 01:45:55 | 00:00:00 | |
| DL1XH-west | 2026-09-03 00:42:33 | 56.46126 | 4.81247 | 63° | 9km/h | 22904m | 4.9m/s | -52.1°C | 0.6% | 37hPa | 2.5V | 18:12:15 | 01:46:00 | 00:00:00 | |
| BIOWL1-15 | 2026-09-03 00:42:31 | 56.46128 | 4.81189 | 104° | 15km/h | 22859m | 4.6m/s | -52°C | 0.5% | 0hPa | 2.4V | 18:12:15 | 01:45:51 | 00:00:00 | |
| GOEST3-10 | 2026-09-03 00:42:31 | 56.46125 | 4.81243 | 64° | 13km/h | 22900m | 4.1m/s | -52.0°C | 4.1% | 36.9hPa | 2.5V | 00:00:00 | 01:45:59 | 00:00:00 | |
| DM0DOS-11 | 2026-09-03 00:42:26 | 56.46128 | 4.81189 | 103° | 15km/h | 22859m | 4.6m/s | -52°C | 4% | 37.2hPa | 2.4V | 08:30:00 | 01:45:51 | 00:00:00 | |
| DL1XH-west | 2026-09-03 00:42:22 | 56.46128 | 4.81177 | 50° | 5km/h | 22844m | 3.4m/s | -52°C | 0.6% | 37.3hPa | 2.4V | 18:12:15 | 01:45:48 | 00:00:00 | |
| BIOWL1-15 | 2026-09-03 00:42:16 | 56.46122 | 4.81161 | 75° | 13km/h | 22825m | 5m/s | -51.9°C | 0.6% | 0hPa | 2.4V | 18:12:15 | 01:45:44 | 00:00:00 | |
| GOEST3-10 | 2026-09-03 00:42:16 | 56.46122 | 4.81161 | 76° | 15km/h | 22825m | 5.0m/s | -51.8°C | 4.1% | 37.4hPa | 2.4V | 00:00:00 | 00:00:00 | 08:30:00 | |
| DM0DOS-11 | 2026-09-03 00:42:14 | 56.46123 | 4.81143 | 105° | 16km/h | 22810m | 6m/s | -51.8°C | 4.1% | 37.5hPa | 2.5V | 08:30:00 | 01:45:41 | 00:00:00 | |
| DL1XH-west | 2026-09-03 00:42:10 | 56.46127 | 4.81120 | 107° | 15km/h | 22795m | 4.8m/s | -51.8°C | 0.6% | 37.6hPa | 2.4V | 18:12:15 | 01:45:38 | 00:00:00 | |
| BIOWL1-15 | 2026-09-03 00:42:06 | 56.46127 | 4.81098 | 68° | 11km/h | 22770m | 4.6m/s | -51.6°C | 0.5% | 0hPa | 2.4V | 18:12:15 | 01:45:33 | 00:00:00 | |
| DL1XH-west | 2026-09-03 00:42:00 | 56.46124 | 4.81056 | 94° | 20km/h | 22741m | 5.2m/s | -51.4°C | 0.4% | 37.9hPa | 2.4V | 18:12:15 | 01:45:27 | 00:00:00 | |
| BIOWL1-15 | 2026-09-03 00:41:55 | 56.46127 | 4.81029 | 93° | 13km/h | 22720m | 5.5m/s | 0°C | 0% | 0hPa | 2.5V | 18:12:15 | 01:45:23 | 00:00:00 | |
| GOEST3-10 | 2026-09-03 00:41:55 | 56.46127 | 4.81029 | 94° | 13km/h | 22720m | 5.5m/s | 0°C | 0% | 0hPa | 2.4V | 00:00:00 | 00:00:00 | 00:00:00 | |
| DM0DOS-11 | 2026-09-03 00:41:54 | 56.46127 | 4.81016 | 92° | 13km/h | 22710m | 4.7m/s | -51.2°C | 3.9% | 38.1hPa | 2.4V | 08:30:00 | 01:45:21 | 00:00:00 | |
| DL1XH-west | 2026-09-03 00:41:49 | 56.46128 | 4.80980 | 100° | 16km/h | 22680m | 5.9m/s | -51.1°C | 0.4% | 38.3hPa | 2.4V | 18:12:15 | 01:45:15 | 00:00:00 | |
| DM0DOS-11 | 2026-09-03 00:41:49 | 56.46133 | 4.80949 | 99° | 22km/h | 22660m | 4.7m/s | -51.1°C | 3.9% | 38.4hPa | 2.5V | 08:30:00 | 01:45:11 | 00:00:00 | |
| DL1XH-west | 2026-09-03 00:41:39 | 56.46136 | 4.80910 | 99° | 11km/h | 22635m | 4.7m/s | -51.2°C | 0.5% | 38.5hPa | 2.5V | 18:12:15 | 01:45:06 | 00:00:00 | |
| DL1XH-west | 2026-09-03 00:41:28 | 56.46156 | 4.80814 | 115° | 26km/h | 22584m | 4.3m/s | -51°C | 0.4% | 38.9hPa | 2.4V | 18:12:15 | 01:44:56 | 00:00:00 | |
| DM0DOS-11 | 2026-09-03 00:41:26 | 56.46167 | 4.80763 | 112° | 20km/h | 22559m | 5.4m/s | -51.1°C | 3.8% | 39hPa | 2.4V | 08:30:00 | 01:44:51 | 00:00:00 | |
| DL1XH-west | 2026-09-03 00:41:18 | 56.46178 | 4.80706 | 110° | 20km/h | 22529m | 4.4m/s | -51.3°C | 0.5% | 39.2hPa | 2.4V | 18:12:15 | 01:44:45 | 00:00:00 | |
| DJ2DS-15 | 2026-09-03 00:41:18 | 56.46176 | 4.80715 | 114° | 24km/h | 22534m | 5.1m/s | -51.2°C | 3.9% | 39.1hPa | 2.4V | 00:00:00 | 01:44:46 | 00:00:00 | |
| DM0DOS-11 | 2026-09-03 00:41:14 | 56.46182 | 4.80667 | 98° | 22km/h | 22509m | 5.1m/s | -51.3°C | 3.8% | 39.3hPa | 2.4V | 08:30:00 | 01:44:41 | 00:00:00 | |
| DL1XH-west | 2026-09-03 00:41:08 | 56.46190 | 4.80621 | 107° | 22km/h | 22484m | 3.9m/s | -51.3°C | 0.6% | 39.4hPa | 2.5V | 18:12:15 | 01:44:36 | 00:00:00 | |
| DM0DOS-11 | 2026-09-03 00:40:59 | 56.46221 | 4.80443 | 113° | 27km/h | 22410m | 5.5m/s | -51.4°C | 3.9% | 39.9hPa | 2.4V | 08:30:00 | 01:44:21 | 00:00:00 | |
| DL1XH-west | 2026-09-03 00:40:58 | 56.46204 | 4.80510 | 110° | 37km/h | 22435m | 5.6m/s | -51.4°C | 0.5% | 39.7hPa | 2.4V | 18:12:15 | 01:44:26 | 00:00:00 | |
| DJ2DS-15 | 2026-09-03 00:40:58 | 56.46204 | 4.80510 | 111° | 31km/h | 22435m | 5.5m/s | -51.3°C | 3.9% | 39.7hPa | 2.4V | 00:00:00 | 01:44:26 | 00:00:00 | |
| DM0DOS-11 | 2026-09-03 00:40:48 | 56.46243 | 4.80309 | 113° | 35km/h | 22359m | 4.2m/s | -51.7°C | 3.9% | 40.2hPa | 2.4V | 08:30:00 | 01:44:11 | 00:00:00 | |
| DL1XH-west | 2026-09-03 00:40:47 | 56.46233 | 4.80370 | 102° | 33km/h | 22380m | 4.9m/s | -51.5°C | 0.5% | 40.1hPa | 2.4V | 18:12:15 | 01:44:15 | 00:00:00 | |
| DL1XH-west | 2026-09-03 00:40:37 | 56.46263 | 4.80218 | 104° | 27km/h | 22324m | 5m/s | -52.1°C | 0.5% | 40.4hPa | 2.4V | 18:12:15 | 01:44:04 | 00:00:00 | |
| DM0DOS-11 | 2026-09-03 00:40:37 | 56.46267 | 4.80180 | 99° | 27km/h | 22310m | 5.7m/s | -52.2°C | 4% | 40.5hPa | 2.5V | 08:30:00 | 01:44:01 | 00:00:00 | |
| DM0DOS-11 | 2026-09-03 00:40:26 | 56.46288 | 4.80028 | 102° | 40km/h | 22261m | 3.6m/s | -52.5°C | 4.2% | 40.9hPa | 2.5V | 08:30:00 | 01:43:51 | 00:00:00 | |
| DL1XH-west | 2026-09-03 00:40:26 | 56.46285 | 4.80046 | 106° | 40km/h | 22266m | 5.1m/s | -52.5°C | 0.7% | 40.8hPa | 2.4V | 18:12:15 | 01:43:52 | 00:00:00 | |
| DJ2DS-15 | 2026-09-03 00:40:18 | 56.46292 | 4.79946 | 88° | 29km/h | 22237m | 4.7m/s | -52.4°C | 4.2% | 40.9hPa | 2.4V | 00:00:00 | 01:43:46 | 00:00:00 | |
| DM0DOS-11 | 2026-09-03 00:40:16 | 56.46289 | 4.79871 | 86° | 33km/h | 22213m | 5.2m/s | -52.4°C | 4.2% | 41.1hPa | 2.4V | 08:30:00 | 01:43:41 | 00:00:00 | |
| DL1XH-west | 2026-09-03 00:40:14 | 56.46289 | 4.79871 | 87° | 33km/h | 22213m | 5.2m/s | -52.4°C | 0.7% | 41.1hPa | 2.4V | 18:12:15 | 01:43:41 | 00:00:00 | |
| BIOWL1-15 | 2026-09-03 00:40:11 | 56.46286 | 4.79767 | 90° | 24km/h | 22172m | 5.8m/s | -52.1°C | 0.7% | 41.4hPa | 2.5V | 18:12:15 | 01:43:33 | 00:00:00 | |
| DL1XH-west | 2026-09-03 00:40:02 | 56.46287 | 4.79735 | 93° | 26km/h | 22157m | 5.2m/s | -52.1°C | 0.7% | 41.5hPa | 2.4V | 18:12:15 | 01:43:30 | 00:00:00 | |
| BIOWL1-15 | 2026-09-03 00:40:00 | 56.46287 | 4.79712 | 91° | 26km/h | 22147m | 5.6m/s | -52°C | 0.6% | 41.5hPa | 2.5V | 18:12:15 | 01:43:28 | 00:00:00 | |
| DL1XH-west | 2026-09-03 00:39:52 | 56.46287 | 4.79626 | 93° | 18km/h | 22103m | 5.5m/s | -51.6°C | 0.6% | 41.9hPa | 2.4V | 18:12:15 | 01:43:19 | 00:00:00 | |
| BIOWL1-15 | 2026-09-03 00:39:49 | 56.46288 | 4.79567 | 90° | 18km/h | 22068m | 4.5m/s | -51.4°C | 0.6% | 42hPa | 2.4V | 18:12:15 | 01:43:12 | 00:00:00 | |
| DL1XH-west | 2026-09-03 00:39:41 | 56.46283 | 4.79533 | 61° | 22km/h | 22050m | 3.7m/s | -51.4°C | 0.5% | 42.2hPa | 2.4V | 18:12:15 | 01:43:08 | 00:00:00 | |
| BIOWL1-15 | 2026-09-03 00:39:38 | 56.46279 | 4.79514 | 73° | 24km/h | 22039m | 4.7m/s | -51.3°C | 0.5% | 42.2hPa | 2.5V | 18:12:15 | 01:43:06 | 00:00:00 | |
| DL1XH-west | 2026-09-03 00:39:31 | 56.46281 | 4.79444 | 109° | 13km/h | 22000m | 5.5m/s | -51.2°C | 0.5% | 42.5hPa | 2.5V | 18:12:15 | 01:42:58 | 00:00:00 | |
| BIOWL1-15 | 2026-09-03 00:39:28 | 56.46280 | 4.79434 | 73° | 13km/h | 21991m | 4.5m/s | -51.2°C | 0.4% | 42.6hPa | 2.4V | 18:12:15 | 01:42:56 | 00:00:00 | |
| BIOWL1-15 | 2026-09-03 00:39:23 | 56.46274 | 4.79361 | 95° | 11km/h | 21944m | 5.6m/s | -51.3°C | 0.4% | 42.9hPa | 2.4V | 18:12:15 | 01:42:46 | 00:00:00 | |
| DM0DOS-11 | 2026-09-03 00:39:22 | 56.46274 | 4.79361 | 94° | 11km/h | 21944m | 5.5m/s | -51.3°C | 3.9% | 42.9hPa | 2.4V | 08:30:00 | 01:42:46 | 00:00:00 | |
| DL1XH-west | 2026-09-03 00:39:21 | 56.46274 | 4.79374 | 89° | 16km/h | 21953m | 3.9m/s | -51.3°C | 0.5% | 42.8hPa | 2.5V | 18:12:15 | 01:42:48 | 00:00:00 | |
| DJ2DS-15 | 2026-09-03 00:39:18 | 56.46274 | 4.79361 | 95° | 9km/h | 21944m | 5.5m/s | -51.2°C | 3.9% | 42.8hPa | 2.4V | 00:00:00 | 01:42:46 | 08:30:00 | |
| DL1XH-15 | 2026-09-03 00:39:16 | 56.46277 | 4.79335 | 86° | 7km/h | 21909m | 4.3m/s | -51.3°C | 3.9% | 43.1hPa | 2.4V | 08:30:00 | 01:42:39 | 00:00:00 | |
| DL1XH-west | 2026-09-03 00:39:10 | 56.46277 | 4.79326 | 96° | 11km/h | 21899m | 4.1m/s | -51.3°C | 0.6% | 43.2hPa | 2.5V | 18:12:15 | 01:42:37 | 00:00:00 | |
| BIOWL1-15 | 2026-09-03 00:39:10 | 56.46278 | 4.79322 | 97° | 11km/h | 21895m | 4.4m/s | -51.3°C | 0.5% | 43.2hPa | 2.5V | 18:12:15 | 01:42:36 | 00:00:00 | |
| DM0DOS-11 | 2026-09-03 00:39:10 | 56.46278 | 4.79322 | 96° | 11km/h | 21894m | 4.4m/s | -51.3°C | 3.9% | 43.2hPa | 2.5V | 08:30:00 | 01:42:36 | 00:00:00 | |
| BIOWL9-15 | 2026-09-03 00:39:06 | 56.46277 | 4.79313 | 77° | 7km/h | 21885m | 3.8m/s | -51.3°C | 1.0% | 43.3hPa | 2.5V | 00:00:00 | 00:00:00 | 00:00:00 | |
| DM0DOS-11 | 2026-09-03 00:39:03 | 56.46291 | 4.79277 | 139° | 16km/h | 21842m | 4.6m/s | -51.3°C | 4% | 43.5hPa | 2.5V | 08:30:00 | 01:42:25 | 00:00:00 | |
| DL1XH-west | 2026-09-03 00:39:00 | 56.46286 | 4.79285 | 135° | 11km/h | 21852m | 4.5m/s | -51.3°C | 0.6% | 43.5hPa | 2.4V | 18:12:15 | 01:42:27 | 00:00:00 | |
| BIOWL1-15 | 2026-09-03 00:38:58 | 56.46305 | 4.79252 | 129° | 15km/h | 21815m | 4.6m/s | -51.2°C | 0.5% | 43.7hPa | 2.5V | 18:12:15 | 01:42:19 | 00:00:00 | |
| GOEST3-10 | 2026-09-03 00:38:56 | 56.46294 | 4.79272 | 141° | 16km/h | 21838m | 3.7m/s | 0°C | 0% | 0hPa | 2.4V | 00:00:00 | 01:42:24 | 00:00:00 | |
| DM0DOS-11 | 2026-09-03 00:38:52 | 56.46312 | 4.79231 | 115° | 18km/h | 21800m | 4.6m/s | -51.1°C | 3.9% | 43.9hPa | 2.4V | 08:30:00 | 01:42:16 | 00:00:00 | |
| DL1XH-west | 2026-09-03 00:38:48 | 56.46312 | 4.79231 | 115° | 18km/h | 21800m | 4.6m/s | -51.2°C | 0.5% | 43.9hPa | 2.4V | 18:12:15 | 01:42:16 | 00:00:00 | |
| BIOWL1-15 | 2026-09-03 00:38:45 | 56.46323 | 4.79191 | 111° | 18km/h | 21777m | 5.5m/s | -51.1°C | 0.5% | 44hPa | 2.4V | 18:12:15 | 01:42:11 | 00:00:00 | |
| DL1XH-15 | 2026-09-03 00:38:40 | 56.46332 | 4.79155 | 118° | 20km/h | 21754m | 4m/s | -51.1°C | 3.8% | 44.2hPa | 2.4V | 08:30:00 | 01:42:06 | 00:00:00 | |
| DL1XH-west | 2026-09-03 00:38:38 | 56.46332 | 4.79155 | 119° | 20km/h | 21754m | 4m/s | -51.2°C | 0.4% | 44.2hPa | 2.4V | 18:12:15 | 01:42:06 | 00:00:00 | |
| BIOWL1-15 | 2026-09-03 00:38:34 | 56.46340 | 4.79121 | 115° | 22km/h | 21734m | 5.6m/s | -51.3°C | 0.5% | 44.3hPa | 2.5V | 18:12:15 | 01:42:02 | 00:00:00 | |
| DM0DOS-11 | 2026-09-03 00:38:33 | 56.46354 | 4.79047 | 106° | 27km/h | 21700m | 3.9m/s | -51.3°C | 3.9% | 44.5hPa | 2.4V | 08:30:00 | 01:41:55 | 00:00:00 | |
| DL1XH-west | 2026-09-03 00:38:28 | 56.46354 | 4.79047 | 106° | 27km/h | 21700m | 3.9m/s | -51.3°C | 0.5% | 44.5hPa | 2.4V | 18:12:15 | 01:41:55 | 00:00:00 | |
| BIOWL1-15 | 2026-09-03 00:38:24 | 56.46357 | 4.79014 | 92° | 22km/h | 21686m | 3.7m/s | -51.4°C | 0.5% | 44.6hPa | 2.5V | 18:12:15 | 01:41:52 | 00:00:00 | |
| DL1XH-15 | 2026-09-03 00:38:22 | 56.46364 | 4.78945 | 107° | 22km/h | 21652m | 5.7m/s | -51.4°C | 3.9% | 44.8hPa | 2.4V | 08:30:00 | 01:41:45 | 00:00:00 | |
| DL1XH-west | 2026-09-03 00:38:17 | 56.46364 | 4.78945 | 108° | 22km/h | 21652m | 5.7m/s | -51.4°C | 0.5% | 44.9hPa | 2.4V | 18:12:15 | 01:41:45 | 00:00:00 | |
| BIOWL1-15 | 2026-09-03 00:38:14 | 56.46372 | 4.78883 | 103° | 26km/h | 21624m | 4.5m/s | -51.5°C | 0.6% | 45hPa | 2.5V | 18:12:15 | 01:41:39 | 00:00:00 | |
| GOEST3-10 | 2026-09-03 00:38:12 | 56.46370 | 4.78894 | 99° | 26km/h | 21629m | 5.3m/s | 0°C | 0% | 0hPa | 2.5V | 00:00:00 | 00:00:00 | 00:00:00 | |
| DL1XH-15 | 2026-09-03 00:38:11 | 56.46377 | 4.78830 | 104° | 26km/h | 21601m | 5m/s | -51.5°C | 4% | 45.2hPa | 2.5V | 08:30:00 | 01:41:34 | 00:00:00 | |
| DM0DOS-11 | 2026-09-03 00:38:10 | 56.46375 | 4.78851 | 97° | 22km/h | 21610m | 3.8m/s | -51.5°C | 4.1% | 45.1hPa | 2.4V | 08:30:00 | 01:41:36 | 00:00:00 | |
| DL1XH-west | 2026-09-03 00:38:07 | 56.46376 | 4.78841 | 100° | 24km/h | 21605m | 4.8m/s | -51.5°C | 0.6% | 45.2hPa | 2.4V | 18:12:15 | 01:41:35 | 00:00:00 | |
| DM0DOS-11 | 2026-09-03 00:38:04 | 56.46383 | 4.78719 | 83° | 27km/h | 21557m | 4.5m/s | -51.4°C | 4% | 45.5hPa | 2.4V | 08:30:00 | 01:41:25 | 00:00:00 | |
| BIOWL1-15 | 2026-09-03 00:38:02 | 56.46383 | 4.78781 | 95° | 27km/h | 21582m | 4.6m/s | -51.4°C | 0.7% | 45.4hPa | 2.4V | 18:12:15 | 01:41:30 | 00:00:00 | |
| DJ2DS-15 | 2026-09-03 00:37:58 | 56.46384 | 4.78731 | 84° | 29km/h | 21562m | 4.6m/s | -51.3°C | 4.0% | 45.5hPa | 2.5V | 00:00:00 | 01:41:26 | 00:00:00 | |
| DL1XH-15 | 2026-09-03 00:37:57 | 56.46383 | 4.78706 | 88° | 27km/h | 21552m | 5.8m/s | -51.3°C | 4.1% | 45.6hPa | 2.5V | 08:30:00 | 01:41:24 | 00:00:00 | |
| DL1XH-west | 2026-09-03 00:37:57 | 56.46382 | 4.78706 | 88° | 27km/h | 21552m | 5.8m/s | -51.3°C | 0.7% | 45.6hPa | 2.5V | 18:12:15 | 01:41:24 | 00:00:00 | |
| BIOWL1-15 | 2026-09-03 00:37:52 | 56.46385 | 4.78515 | 90° | 33km/h | 21484m | 3.6m/s | -51.1°C | 0.5% | 46hPa | 2.4V | 18:12:15 | 01:41:09 | 00:00:00 | |
| DM0DOS-11 | 2026-09-03 00:37:51 | 56.46385 | 4.78608 | 86° | 26km/h | 21514m | 5.3m/s | -51.1°C | 3.9% | 45.9hPa | 2.4V | 08:30:00 | 01:41:16 | 00:00:00 | |
| DL1XH-west | 2026-09-03 00:37:46 | 56.46384 | 4.78572 | 94° | 27km/h | 21501m | 4.6m/s | -51.1°C | 0.5% | 45.9hPa | 2.6V | 18:12:15 | 01:41:13 | 00:00:00 | |
| DM0DOS-11 | 2026-09-03 00:37:40 | 56.46387 | 4.78470 | 92° | 31km/h | 21469m | 5.2m/s | -51°C | 3.8% | 46.1hPa | 2.5V | 08:30:00 | 01:41:06 | 00:00:00 | |
| DL1XH-15 | 2026-09-03 00:37:39 | 56.46389 | 4.78423 | 107° | 22km/h | 21450m | 4.3m/s | -51.1°C | 3.9% | 46.3hPa | 2.4V | 08:30:00 | 01:41:02 | 00:00:00 | |
| DL1XH-west | 2026-09-03 00:37:34 | 56.46390 | 4.78423 | 108° | 22km/h | 21450m | 4.3m/s | -51.1°C | 0.5% | 46.3hPa | 2.4V | 18:12:15 | 01:41:02 | 00:00:00 | |
| GOEST3-10 | 2026-09-03 00:37:34 | 56.46390 | 4.78423 | 108° | 26km/h | 21451m | 4.2m/s | 0°C | 0% | 0hPa | 2.5V | 00:00:00 | 01:41:02 | 00:00:00 | |
| DM0DOS-11 | 2026-09-03 00:37:33 | 56.46400 | 4.78353 | 105° | 35km/h | 21423m | 4.7m/s | -51.2°C | 4% | 46.5hPa | 2.5V | 08:30:00 | 01:40:56 | 00:00:00 | |
| BIOWL1-15 | 2026-09-03 00:37:31 | 56.46400 | 4.78353 | 106° | 35km/h | 21423m | 4.7m/s | -51.2°C | 0.6% | 46.5hPa | 2.5V | 18:12:15 | 01:40:56 | 00:00:00 | |
| DL1XH-west | 2026-09-03 00:37:24 | 56.46409 | 4.78290 | 108° | 35km/h | 21403m | 5.3m/s | -51.2°C | 0.6% | 46.6hPa | 2.4V | 18:12:15 | 01:40:52 | 00:00:00 | |
| GOEST3-10 | 2026-09-03 00:37:23 | 56.46412 | 4.78275 | 114° | 31km/h | 21399m | 3.7m/s | 0°C | 0% | 0hPa | 2.4V | 00:00:00 | 01:40:51 | 00:00:00 | |
| DM0DOS-11 | 2026-09-03 00:37:21 | 56.46422 | 4.78212 | 102° | 29km/h | 21377m | 5m/s | -51.1°C | 3.9% | 46.8hPa | 2.4V | 08:30:00 | 01:40:46 | 00:00:00 | |
| BIOWL1-15 | 2026-09-03 00:37:19 | 56.46421 | 4.78225 | 101° | 27km/h | 21381m | 4.3m/s | -51.1°C | 0.6% | 46.8hPa | 2.4V | 18:12:15 | 01:40:47 | 00:00:00 | |
| DL1XH-west | 2026-09-03 00:37:13 | 56.46429 | 4.78136 | 95° | 35km/h | 21354m | 5m/s | -51.1°C | 0.5% | 47hPa | 2.4V | 18:12:15 | 01:40:41 | 00:00:00 | |
| BIOWL1-15 | 2026-09-03 00:37:09 | 56.46428 | 4.77917 | 79° | 31km/h | 21283m | 4.7m/s | -50.8°C | 0.5% | 47.5hPa | 2.4V | 18:12:15 | 01:40:26 | 00:00:00 | |
| DL1XH-15 | 2026-09-03 00:37:04 | 56.46430 | 4.77947 | 87° | 35km/h | 21292m | 4.5m/s | -50.8°C | 3.9% | 47.4hPa | 2.5V | 08:30:00 | 01:40:28 | 00:00:00 | |
| DL1XH-west | 2026-09-03 00:37:04 | 56.46432 | 4.77992 | 86° | 33km/h | 21306m | 4.6m/s | -50.9°C | 0.6% | 47.3hPa | 2.4V | 18:12:15 | 01:40:31 | 00:00:00 | |
| BIOWL1-15 | 2026-09-03 00:36:56 | 56.46425 | 4.77878 | 89° | 29km/h | 21270m | 4.4m/s | -50.7°C | 0.6% | 47.6hPa | 2.5V | 18:12:15 | 01:40:23 | 00:00:00 | |
| GOEST3-10 | 2026-09-03 00:36:56 | 56.46425 | 4.77890 | 82° | 29km/h | 21275m | 4.8m/s | 0°C | 0% | 0hPa | 2.4V | 00:00:00 | 01:40:24 | 00:00:00 | |
| DM0DOS-11 | 2026-09-03 00:36:53 | 56.46421 | 4.77771 | 85° | 27km/h | 21232m | 5m/s | -50.5°C | 3.8% | 47.8hPa | 2.4V | 08:30:00 | 01:40:15 | 00:00:00 | |
| DL1XH-west | 2026-09-03 00:36:53 | 56.46423 | 4.77838 | 82° | 29km/h | 21256m | 4.5m/s | -50.6°C | 0.5% | 47.7hPa | 2.4V | 18:12:15 | 01:40:20 | 00:00:00 | |
| BIOWL1-15 | 2026-09-03 00:36:47 | 56.46415 | 4.77707 | 72° | 26km/h | 21203m | 4m/s | -50.4°C | 0.5% | 48.1hPa | 2.4V | 18:12:15 | 01:40:09 | 00:00:00 | |
| DL1XH-west | 2026-09-03 00:36:43 | 56.46417 | 4.77717 | 74° | 24km/h | 21208m | 5.5m/s | -50.4°C | 0.5% | 48.1hPa | 2.5V | 18:12:15 | 01:40:10 | 00:00:00 | |
| DM0DOS-11 | 2026-09-03 00:36:42 | 56.46412 | 4.77657 | 88° | 31km/h | 21186m | 4.1m/s | -50.5°C | 3.8% | 48.2hPa | 2.6V | 08:30:00 | 01:40:05 | 00:00:00 | |
| DJ2DS-15 | 2026-09-03 00:36:38 | 56.46412 | 4.77671 | 91° | 22km/h | 21190m | 3.7m/s | -50.5°C | 3.8% | 48.1hPa | 2.4V | 00:00:00 | 01:40:06 | 00:00:00 | |
| DL1XH-15 | 2026-09-03 00:36:34 | 56.46404 | 4.77563 | 73° | 16km/h | 21143m | 4.8m/s | -50.4°C | 3.9% | 48.5hPa | 2.4V | 08:30:00 | 01:39:56 | 00:00:00 | |
| DL1XH-west | 2026-09-03 00:36:33 | 56.46408 | 4.77587 | 84° | 20km/h | 21158m | 3.8m/s | -50.5°C | 0.5% | 48.5hPa | 2.5V | 18:12:15 | 01:39:59 | 00:00:00 | |
| DM0DOS-11 | 2026-09-03 00:36:32 | 56.46404 | 4.77556 | 84° | 16km/h | 21138m | 5.3m/s | -50.3°C | 3.9% | 48.6hPa | 2.5V | 08:30:00 | 01:39:55 | 00:00:00 | |
| DL1XH-west | 2026-09-03 00:36:21 | 56.46410 | 4.77490 | 115° | 24km/h | 21104m | 4.3m/s | -50.1°C | 0.5% | 48.8hPa | 2.4V | 18:12:15 | 01:39:48 | 00:00:00 | |
| DM0DOS-11 | 2026-09-03 00:36:20 | 56.46416 | 4.77462 | 104° | 20km/h | 21090m | 3.5m/s | -50°C | 3.8% | 48.9hPa | 2.4V | 08:30:00 | 01:39:45 | 00:00:00 | |
| BIOWL1-15 | 2026-09-03 00:36:14 | 56.46421 | 4.77432 | 109° | 27km/h | 21075m | 4.1m/s | -49.9°C | 0.4% | 49hPa | 2.5V | 18:12:15 | 01:39:42 | 00:00:00 | |
| DL1XH-west | 2026-09-03 00:36:11 | 56.46427 | 4.77374 | 101° | 27km/h | 21050m | 5.4m/s | -49.7°C | 0.5% | 49.2hPa | 2.5V | 18:12:15 | 01:39:37 | 00:00:00 | |
| DM0DOS-11 | 2026-09-03 00:36:09 | 56.46430 | 4.77350 | 103° | 27km/h | 21040m | 5.4m/s | -49.7°C | 3.6% | 49.3hPa | 2.4V | 08:30:00 | 01:39:35 | 00:00:00 | |
| BIOWL1-15 | 2026-09-03 00:36:04 | 56.46436 | 4.77311 | 108° | 31km/h | 21025m | 5.5m/s | -49.7°C | 0.4% | 49.4hPa | 2.5V | 18:12:15 | 01:39:32 | 00:00:00 | |
| DL1XH-15 | 2026-09-03 00:36:03 | 56.46443 | 4.77262 | 101° | 24km/h | 21006m | 4.1m/s | -49.7°C | 3.5% | 49.5hPa | 2.4V | 08:30:00 | 01:39:28 | 00:00:00 | |
| DL1XH-west | 2026-09-03 00:35:58 | 56.46446 | 4.77241 | 112° | 24km/h | 20996m | 3.9m/s | -49.7°C | 0.3% | 49.6hPa | 2.5V | 18:12:15 | 01:39:26 | 00:00:00 | |
| DM0DOS-11 | 2026-09-03 00:35:58 | 56.46448 | 4.77230 | 108° | 26km/h | 20991m | 4.5m/s | -49.7°C | 3.5% | 49.7hPa | 2.4V | 08:30:00 | 01:39:25 | 00:00:00 | |
| BIOWL1-15 | 2026-09-03 00:35:54 | 56.46453 | 4.77194 | 103° | 29km/h | 20977m | 4.7m/s | -50°C | 0.5% | 49.8hPa | 2.5V | 18:12:15 | 01:39:22 | 00:00:00 | |
| GOEST3-10 | 2026-09-03 00:35:52 | 56.46458 | 4.77167 | 111° | 33km/h | 20967m | 4.5m/s | 0°C | 0% | 0hPa | 2.4V | 00:00:00 | 00:00:00 | 00:00:00 | |
| DM0DOS-11 | 2026-09-03 00:35:48 | 56.46473 | 4.77095 | 116° | 38km/h | 20942m | 5.1m/s | -50.7°C | 3.9% | 50hPa | 2.4V | 08:30:00 | 01:39:15 | 00:00:00 | |
| DL1XH-west | 2026-09-03 00:35:48 | 56.46478 | 4.77079 | 115° | 40km/h | 20937m | 4m/s | -50.7°C | 0.5% | 50.1hPa | 2.4V | 18:12:15 | 01:39:14 | 00:00:00 | |
| GOEST3-10 | 2026-09-03 00:35:47 | 56.46473 | 4.77095 | 117° | 40km/h | 20942m | 5.0m/s | 0°C | 0% | 0hPa | 2.4V | 00:00:00 | 01:39:15 | 00:00:00 | |
| DL1XH-15 | 2026-09-03 00:35:45 | 56.46496 | 4.76949 | 99° | 47km/h | 20903m | 5.5m/s | -50.8°C | 3.8% | 50.3hPa | 2.4V | 08:30:00 | 01:39:07 | 00:00:00 | |
| BIOWL1-15 | 2026-09-03 00:35:43 | 56.46487 | 4.77028 | 101° | 40km/h | 20923m | 4.2m/s | -50.7°C | 0.5% | 50.2hPa | 2.5V | 18:12:15 | 01:39:11 | 00:00:00 | |
| GOEST3-10 | 2026-09-03 00:35:42 | 56.46489 | 4.77009 | 104° | 46km/h | 20918m | 6.0m/s | 0°C | 0% | 0hPa | 2.4V | 00:00:00 | 00:00:00 | 00:00:00 | |
| DM0DOS-11 | 2026-09-03 00:35:38 | 56.46499 | 4.76905 | 97° | 49km/h | 20894m | 4.3m/s | -50.7°C | 3.8% | 50.4hPa | 2.4V | 08:30:00 | 01:39:05 | 00:00:00 | |
| DL1XH-west | 2026-09-03 00:35:36 | 56.46506 | 4.76840 | 101° | 49km/h | 20879m | 4m/s | -50.7°C | 0.4% | 50.5hPa | 2.4V | 18:12:15 | 01:39:02 | 00:00:00 | |
| DL1XH-15 | 2026-09-03 00:35:33 | 56.46513 | 4.76756 | 101° | 44km/h | 20859m | 4.7m/s | -50.6°C | 3.8% | 50.7hPa | 2.5V | 08:30:00 | 01:38:58 | 00:00:00 | |
| BIOWL1-15 | 2026-09-03 00:35:32 | 56.46509 | 4.76797 | 98° | 46km/h | 20870m | 4.5m/s | -50.7°C | 0.5% | 50.6hPa | 2.4V | 18:12:15 | 01:39:00 | 00:00:00 | |
| DM0DOS-11 | 2026-09-03 00:35:28 | 56.46517 | 4.76699 | 94° | 40km/h | 20845m | 4.2m/s | -50.6°C | 3.8% | 50.8hPa | 2.4V | 08:30:00 | 01:38:55 | 00:00:00 | |
| DL1XH-west | 2026-09-03 00:35:25 | 56.46519 | 4.76664 | 99° | 38km/h | 20834m | 5.7m/s | -50.7°C | 0.5% | 50.9hPa | 2.5V | 18:12:15 | 01:38:53 | 00:00:00 | |
| DM0DOS-11 | 2026-09-03 00:35:22 | 56.46531 | 4.76538 | 98° | 33km/h | 20794m | 5.6m/s | -51°C | 3.9% | 51.2hPa | 2.4V | 08:30:00 | 01:38:45 | 00:00:00 | |
| DJ2DS-15 | 2026-09-03 00:35:16 | 56.46532 | 4.76523 | 95° | 27km/h | 20789m | 4.5m/s | -51.0°C | 3.9% | 51.2hPa | 2.6V | 00:00:00 | 01:38:44 | 00:00:00 | |
| DL1XH-15 | 2026-09-03 00:35:15 | 56.46535 | 4.76428 | 96° | 27km/h | 20756m | 5.5m/s | 0°C | 0% | 0hPa | 2.4V | 08:30:00 | 01:38:37 | 00:00:00 | |
| DL1XH-west | 2026-09-03 00:35:14 | 56.46533 | 4.76480 | 93° | 29km/h | 20775m | 4.7m/s | -51.1°C | 0.6% | 51.4hPa | 2.4V | 18:12:15 | 01:38:41 | 00:00:00 | |
| DM0DOS-11 | 2026-09-03 00:35:11 | 56.46537 | 4.76406 | 101° | 22km/h | 20746m | 3.8m/s | -51.1°C | 3.9% | 51.6hPa | 2.4V | 08:30:00 | 01:38:35 | 00:00:00 | |
| BIOWL1-15 | 2026-09-03 00:35:06 | 56.46538 | 4.76374 | 90° | 26km/h | 20731m | 5m/s | -51.1°C | 0.6% | 51.7hPa | 2.5V | 18:12:15 | 01:38:32 | 00:00:00 | |
| DL1XH-west | 2026-09-03 00:35:04 | 56.46538 | 4.76349 | 88° | 29km/h | 20721m | 4.7m/s | -51.1°C | 0.5% | 51.8hPa | 2.4V | 18:12:15 | 01:38:30 | 00:00:00 | |
| DL1XH-15 | 2026-09-03 00:35:04 | 56.46537 | 4.76323 | 85° | 29km/h | 20710m | 4.5m/s | 0°C | 0% | 0hPa | 2.4V | 08:30:00 | 01:38:28 | 00:00:00 | |
| DM0DOS-11 | 2026-09-03 00:35:00 | 56.46538 | 4.76283 | 97° | 29km/h | 20695m | 4.7m/s | -51°C | 3.9% | 52hPa | 2.5V | 08:30:00 | 01:38:25 | 00:00:00 | |
| BIOWL1-15 | 2026-09-03 00:34:53 | 56.46548 | 4.76201 | 98° | 29km/h | 20660m | 4.6m/s | -51°C | 0.6% | 52.2hPa | 2.4V | 18:12:15 | 01:38:18 | 00:00:00 | |
| DL1XH-west | 2026-09-03 00:34:53 | 56.46545 | 4.76224 | 109° | 26km/h | 20670m | 3.9m/s | -51°C | 0.5% | 52.2hPa | 2.5V | 18:12:15 | 01:38:20 | 00:00:00 | |
| DL1XH-15 | 2026-09-03 00:34:52 | 56.46548 | 4.76200 | 97° | 29km/h | 20660m | 4.6m/s | 0°C | 0% | 0hPa | 2.4V | 08:30:00 | 01:38:18 | 00:00:00 | |
| DM0DOS-11 | 2026-09-03 00:34:49 | 56.46550 | 4.76158 | 95° | 35km/h | 20646m | 4m/s | -51.1°C | 3.9% | 52.4hPa | 2.5V | 08:30:00 | 01:38:15 | 00:00:00 | |
| DL1XH-15 | 2026-09-03 00:34:42 | 56.46550 | 4.76052 | 90° | 31km/h | 20611m | 5m/s | 0°C | 0% | 0hPa | 2.4V | 08:30:00 | 01:38:08 | 00:00:00 | |
| DL1XH-west | 2026-09-03 00:34:42 | 56.46550 | 4.76052 | 90° | 31km/h | 20611m | 5m/s | -51.3°C | 0.7% | 52.7hPa | 2.4V | 18:12:15 | 01:38:08 | 00:00:00 | |
| DM0DOS-11 | 2026-09-03 00:34:39 | 56.46550 | 4.76009 | 96° | 33km/h | 20597m | 4.9m/s | -51.3°C | 4.1% | 52.8hPa | 2.5V | 08:30:00 | 01:38:05 | 00:00:00 | |
| DJ2DS-15 | 2026-09-03 00:34:36 | 56.46551 | 4.75995 | 98° | 33km/h | 20592m | 4.3m/s | -51.2°C | 4.0% | 52.8hPa | 2.5V | 00:00:00 | 01:38:04 | 00:00:00 | |
| DL1XH-15 | 2026-09-03 00:34:32 | 56.46552 | 4.75899 | 88° | 37km/h | 20563m | 4m/s | 0°C | 0% | 0hPa | 2.5V | 08:30:00 | 01:37:58 | 00:00:00 | |
| BIOWL1-15 | 2026-09-03 00:34:31 | 56.46550 | 4.75739 | 89° | 37km/h | 20508m | 5m/s | -50.8°C | 0.6% | 53.5hPa | 2.5V | 18:12:15 | 01:37:47 | 00:00:00 | |
| DL1XH-west | 2026-09-03 00:34:31 | 56.46551 | 4.75882 | 85° | 37km/h | 20559m | 5.4m/s | -51°C | 0.6% | 53.1hPa | 2.4V | 18:12:15 | 01:37:57 | 00:00:00 | |
| DM0DOS-11 | 2026-09-03 00:34:28 | 56.46549 | 4.75850 | 84° | 33km/h | 20549m | 4.9m/s | -51°C | 4% | 53.1hPa | 2.4V | 08:30:00 | 01:37:55 | 00:00:00 | |
| BIOWL9-15 | 2026-09-03 00:34:27 | 56.46549 | 4.75836 | 89° | 29km/h | 20544m | 5.0m/s | -50.9°C | 1.1% | 53.2hPa | 2.6V | 00:00:00 | 00:00:00 | 00:00:00 | |
| DL1XH-15 | 2026-09-03 00:34:21 | 56.46550 | 4.75755 | 93° | 35km/h | 20513m | 4.5m/s | 0°C | 0% | 0hPa | 2.6V | 08:30:00 | 01:37:48 | 00:00:00 | |
| DL1XH-west | 2026-09-03 00:34:20 | 56.46550 | 4.75755 | 93° | 35km/h | 20513m | 4.6m/s | -50.9°C | 0.6% | 53.4hPa | 2.6V | 18:12:15 | 01:37:48 | 00:00:00 | |
| DM0DOS-11 | 2026-09-03 00:34:20 | 56.46549 | 4.75705 | 87° | 38km/h | 20500m | 4.9m/s | -50.8°C | 3.9% | 53.6hPa | 2.4V | 08:30:00 | 01:37:45 | 00:00:00 | |
| BIOWL1-15 | 2026-09-03 00:34:19 | 56.46549 | 4.75705 | 88° | 38km/h | 20500m | 4.9m/s | -50.8°C | 0.6% | 53.6hPa | 2.4V | 18:12:15 | 01:37:45 | 00:00:00 | |
| DJ2DS-15 | 2026-09-03 00:34:16 | 56.46549 | 4.75688 | 93° | 33km/h | 20495m | 4.8m/s | -50.7°C | 3.9% | 53.6hPa | 2.4V | 00:00:00 | 01:37:44 | 00:00:00 | |
| DL1XH-15 | 2026-09-03 00:34:12 | 56.46552 | 4.75603 | 101° | 31km/h | 20465m | 4.2m/s | 0°C | 0% | 0hPa | 2.6V | 00:00:00 | 01:37:38 | 00:00:00 | |
| DM0DOS-11 | 2026-09-03 00:34:10 | 56.46555 | 4.75559 | 96° | 35km/h | 20450m | 3.7m/s | -50.7°C | 3.9% | 54hPa | 2.4V | 08:30:00 | 01:37:35 | 00:00:00 | |
| DL1XH-west | 2026-09-03 00:34:10 | 56.46552 | 4.75603 | 101° | 31km/h | 20465m | 4.2m/s | -50.8°C | 0.5% | 53.9hPa | 2.6V | 18:12:15 | 01:37:38 | 00:00:00 | |
| BIOWL1-15 | 2026-09-03 00:34:06 | 56.46556 | 4.75543 | 99° | 35km/h | 20445m | 5.4m/s | -50.7°C | 0.6% | 54hPa | 2.4V | 18:12:15 | 01:37:34 | 00:00:00 | |
| DL1XH-15 | 2026-09-03 00:34:01 | 56.46574 | 4.75388 | 98° | 33km/h | 20398m | 4.1m/s | 0°C | 0% | 0hPa | 2.4V | 00:00:00 | 01:37:24 | 00:00:00 | |
| DL1XH-west | 2026-09-03 00:34:00 | 56.46566 | 4.75451 | 103° | 35km/h | 20416m | 5.2m/s | -50.7°C | 0.5% | 54.2hPa | 2.6V | 18:12:15 | 01:37:28 | 00:00:00 | |
| DM0DOS-11 | 2026-09-03 00:34:00 | 56.46572 | 4.75403 | 100° | 35km/h | 20402m | 5.2m/s | -50.6°C | 3.8% | 54.4hPa | 2.4V | 08:30:00 | 01:37:25 | 00:00:00 | |
| BIOWL1-15 | 2026-09-03 00:33:55 | 56.46575 | 4.75372 | 100° | 35km/h | 20393m | 4.6m/s | -50.6°C | 0.6% | 54.5hPa | 2.4V | 18:12:15 | 01:37:23 | 00:00:00 | |
| DM0DOS-11 | 2026-09-03 00:33:50 | 56.46587 | 4.75231 | 98° | 42km/h | 20353m | 5.1m/s | -50.8°C | 3.8% | 54.8hPa | 2.6V | 08:30:00 | 01:37:15 | 00:00:00 | |
| DL1XH-west | 2026-09-03 00:33:50 | 56.46584 | 4.75269 | 98° | 42km/h | 20363m | 5.5m/s | -50.7°C | 0.5% | 54.7hPa | 2.4V | 18:12:15 | 01:37:17 | 00:00:00 | |
| BIOWL1-15 | 2026-09-03 00:33:44 | 56.46596 | 4.75059 | 94° | 47km/h | 20308m | 3.8m/s | -51°C | 0.6% | 55.2hPa | 2.5V | 18:12:15 | 01:37:06 | 00:00:00 | |
| DL1XH-west | 2026-09-03 00:33:39 | 56.46595 | 4.75080 | 94° | 44km/h | 20312m | 4.7m/s | -51°C | 0.6% | 55.1hPa | 2.4V | 18:12:15 | 01:37:07 | 00:00:00 | |
| DM0DOS-11 | 2026-09-03 00:33:38 | 56.46596 | 4.75037 | 91° | 49km/h | 20303m | 5.4m/s | -51°C | 3.9% | 55.2hPa | 2.6V | 08:30:00 | 01:37:05 | 00:00:00 | |
| BIOWL1-15 | 2026-09-03 00:33:33 | 56.46592 | 4.74892 | 80° | 40km/h | 20268m | 4.7m/s | -51°C | 0.6% | 55.5hPa | 2.4V | 18:12:15 | 01:36:58 | 00:00:00 | |
| DM0DOS-11 | 2026-09-03 00:33:31 | 56.46588 | 4.74839 | 83° | 40km/h | 20252m | 3.6m/s | -50.9°C | 3.9% | 55.6hPa | 2.6V | 08:30:00 | 01:36:55 | 00:00:00 | |
| DL1XH-west | 2026-09-03 00:33:29 | 56.46589 | 4.74856 | 84° | 38km/h | 20257m | 4.8m/s | -50.9°C | 0.6% | 55.6hPa | 2.4V | 18:12:15 | 01:36:56 | 00:00:00 | |
| BIOWL1-15 | 2026-09-03 00:33:19 | 56.46564 | 4.74634 | 68° | 38km/h | 20202m | 4.5m/s | -50.7°C | 0.6% | 56.1hPa | 2.4V | 18:12:15 | 01:36:45 | 00:00:00 | |
| DM0DOS-11 | 2026-09-03 00:33:19 | 56.46564 | 4.74634 | 68° | 38km/h | 20202m | 4.5m/s | -50.7°C | 3.9% | 56.1hPa | 2.4V | 08:30:00 | 01:36:45 | 00:00:00 | |
| DL1XH-west | 2026-09-03 00:33:18 | 56.46568 | 4.74650 | 71° | 42km/h | 20208m | 5.4m/s | -50.7°C | 0.6% | 56hPa | 2.4V | 18:12:15 | 01:36:46 | 00:00:00 | |
| DJ2DS-15 | 2026-09-03 00:33:16 | 56.46560 | 4.74618 | 68° | 38km/h | 20197m | 5.7m/s | -50.6°C | 3.9% | 56.0hPa | 2.4V | 00:00:00 | 01:36:44 | 08:30:00 | |
| DM0DOS-11 | 2026-09-03 00:33:09 | 56.46542 | 4.74453 | 79° | 42km/h | 20153m | 4.6m/s | -50.6°C | 3.9% | 56.5hPa | 2.4V | 08:30:00 | 01:36:35 | 00:00:00 | |
| DL1XH-west | 2026-09-03 00:33:07 | 56.46542 | 4.74453 | 80° | 42km/h | 20153m | 4.6m/s | -50.6°C | 0.6% | 56.5hPa | 2.4V | 18:12:15 | 01:36:35 | 00:00:00 | |
| DM0DOS-11 | 2026-09-03 00:32:59 | 56.46515 | 4.74290 | 82° | 38km/h | 20103m | 5.6m/s | -50.5°C | 3.8% | 56.9hPa | 2.4V | 08:30:00 | 01:36:25 | 00:00:00 | |
| DL1XH-west | 2026-09-03 00:32:57 | 56.46513 | 4.74257 | 82° | 37km/h | 20093m | 4.2m/s | -50.4°C | 0.5% | 57hPa | 2.4V | 18:12:15 | 01:36:23 | 00:00:00 | |
| DL1XH-west | 2026-09-03 00:32:46 | 56.46483 | 4.74123 | 69° | 35km/h | 20049m | 5.5m/s | -50.5°C | 0.6% | 57.4hPa | 2.5V | 18:12:15 | 01:36:14 | 00:00:00 | |
| BIOWL1-15 | 2026-09-03 00:32:44 | 56.46478 | 4.74093 | 76° | 35km/h | 20039m | 5.4m/s | -50.6°C | 0.5% | 57.5hPa | 2.4V | 18:12:15 | 01:36:12 | 00:00:00 | |
| DL1XH-west | 2026-09-03 00:32:35 | 56.46442 | 4.73939 | 63° | 26km/h | 19988m | 5.4m/s | -50.5°C | 0.6% | 58hPa | 2.4V | 18:12:15 | 01:36:01 | 00:00:00 | |
| BIOWL1-15 | 2026-09-03 00:32:34 | 56.46437 | 4.73918 | 69° | 26km/h | 19978m | 5m/s | -50.5°C | 0.6% | 58.1hPa | 2.6V | 18:12:15 | 01:35:59 | 00:00:00 | |
| DM0DOS-11 | 2026-09-03 00:32:29 | 56.46427 | 4.73871 | 71° | 33km/h | 19958m | 3.8m/s | -50.4°C | 3.9% | 58.2hPa | 2.5V | 08:30:00 | 01:35:55 | 00:00:00 | |
| DL1XH-west | 2026-09-03 00:32:24 | 56.46420 | 4.73831 | 72° | 26km/h | 19944m | 4.3m/s | -50.3°C | 0.5% | 58.4hPa | 2.4V | 18:12:15 | 01:35:52 | 00:00:00 | |
| BIOWL1-15 | 2026-09-03 00:32:21 | 56.46415 | 4.73800 | 80° | 22km/h | 19929m | 4.9m/s | -50.2°C | 0.6% | 58.5hPa | 2.6V | 18:12:15 | 01:35:49 | 00:00:00 | |
| DM0DOS-11 | 2026-09-03 00:32:18 | 56.46415 | 4.73764 | 94° | 22km/h | 19909m | 5.6m/s | -50.1°C | 3.9% | 58.7hPa | 2.4V | 08:30:00 | 01:35:45 | 00:00:00 | |
| DL1XH-west | 2026-09-03 00:32:14 | 56.46416 | 4.73723 | 87° | 20km/h | 19889m | 4.5m/s | -50°C | 0.6% | 58.9hPa | 2.4V | 18:12:15 | 01:35:41 | 00:00:00 | |
| DL1XH-west | 2026-09-03 00:32:03 | 56.46415 | 4.73611 | 102° | 24km/h | 19837m | 5m/s | -49.9°C | 0.5% | 59.3hPa | 2.6V | 18:12:15 | 01:35:30 | 00:00:00 | |
| DM0DOS-11 | 2026-09-03 00:31:59 | 56.46424 | 4.73559 | 105° | 24km/h | 19812m | 5.2m/s | -49.8°C | 3.8% | 59.5hPa | 2.6V | 08:30:00 | 01:35:25 | 00:00:00 | |
| DL1XH-west | 2026-09-03 00:31:52 | 56.46433 | 4.73484 | 98° | 29km/h | 19784m | 4.7m/s | -49.7°C | 0.5% | 59.8hPa | 2.4V | 18:12:15 | 01:35:19 | 00:00:00 | |
| DM0DOS-11 | 2026-09-03 00:31:48 | 56.46437 | 4.73425 | 100° | 33km/h | 19764m | 5.8m/s | -49.7°C | 3.7% | 60hPa | 2.6V | 08:30:00 | 01:35:15 | 00:00:00 | |
| DM0DOS-11 | 2026-09-03 00:31:43 | 56.46469 | 4.73269 | 101° | 40km/h | 19718m | 4.7m/s | -49.7°C | 3.7% | 60.4hPa | 2.6V | 08:30:00 | 01:35:05 | 00:00:00 | |
| DL1XH-west | 2026-09-03 00:31:41 | 56.46462 | 4.73321 | 108° | 37km/h | 19731m | 3.8m/s | -49.6°C | 0.5% | 60.3hPa | 2.4V | 18:12:15 | 01:35:08 | 00:00:00 | |
| DL1XH-west | 2026-09-03 00:31:31 | 56.46489 | 4.73152 | 113° | 38km/h | 19683m | 4.3m/s | -49.6°C | 0.5% | 60.7hPa | 2.6V | 18:12:15 | 01:34:58 | 00:00:00 | |
| DM0DOS-11 | 2026-09-03 00:31:31 | 56.46500 | 4.73101 | 110° | 40km/h | 19669m | 4.7m/s | -49.6°C | 3.6% | 60.9hPa | 2.4V | 08:30:00 | 01:34:55 | 00:00:00 | |
| BIOWL1-15 | 2026-09-03 00:31:24 | 56.46541 | 4.72903 | 104° | 44km/h | 19618m | 4.2m/s | -49.7°C | 0.4% | 61.4hPa | 2.5V | 18:12:15 | 01:34:44 | 00:00:00 | |
| DL1XH-west | 2026-09-03 00:31:20 | 56.46528 | 4.72977 | 112° | 42km/h | 19637m | 5m/s | -49.7°C | 0.4% | 61.2hPa | 2.6V | 18:12:15 | 01:34:48 | 00:00:00 | |
| DM0DOS-11 | 2026-09-03 00:31:18 | 56.46538 | 4.72923 | 105° | 44km/h | 19623m | 5m/s | -49.7°C | 3.7% | 61.3hPa | 2.4V | 08:30:00 | 01:34:45 | 00:00:00 | |
| DJ2DS-15 | 2026-09-03 00:31:16 | 56.46540 | 4.72903 | 104° | 44km/h | 19618m | 4.2m/s | -49.7°C | 3.7% | 61.3hPa | 2.5V | 00:00:00 | 01:34:44 | 00:00:00 | |
| DM0DOS-11 | 2026-09-03 00:31:13 | 56.46564 | 4.72732 | 106° | 40km/h | 19576m | 3.7m/s | -49.8°C | 3.7% | 61.7hPa | 2.5V | 08:30:00 | 01:34:35 | 00:00:00 | |
| DL1XH-west | 2026-09-03 00:31:09 | 56.46561 | 4.72749 | 105° | 40km/h | 19580m | 4.5m/s | -49.7°C | 0.5% | 61.7hPa | 2.4V | 18:12:15 | 01:34:36 | 00:00:00 | |
| BIOWL1-15 | 2026-09-03 00:31:05 | 56.46570 | 4.72694 | 107° | 46km/h | 19567m | 3.5m/s | -49.9°C | 0.5% | 61.8hPa | 2.5V | 18:12:15 | 01:34:33 | 00:00:00 | |
| DM0DOS-11 | 2026-09-03 00:31:00 | 56.46586 | 4.72531 | 95° | 46km/h | 19529m | 5m/s | -49.9°C | 3.7% | 62.2hPa | 2.5V | 08:30:00 | 01:34:25 | 00:00:00 | |
| DL1XH-west | 2026-09-03 00:30:58 | 56.46585 | 4.72551 | 98° | 46km/h | 19534m | 5.3m/s | -49.9°C | 0.5% | 62.1hPa | 2.5V | 18:12:15 | 01:34:26 | 00:00:00 | |
| BIOWL1-15 | 2026-09-03 00:30:54 | 56.46589 | 4.72469 | 96° | 44km/h | 19515m | 4.9m/s | 0°C | 0% | 62.3hPa | 2.6V | 18:12:15 | 01:34:22 | 00:00:00 | |
| BIOWL9-15 | 2026-09-03 00:30:49 | 56.46597 | 4.72367 | 102° | 46km/h | 19490m | 4.3m/s | -50.2°C | 1.1% | 62.6hPa | 2.6V | 00:00:00 | 00:00:00 | 00:00:00 | |
| DM0DOS-11 | 2026-09-03 00:30:48 | 56.46601 | 4.72325 | 95° | 46km/h | 19481m | 4m/s | -50.3°C | 3.8% | 62.6hPa | 2.6V | 08:30:00 | 01:34:15 | 00:00:00 | |
| DL1XH-west | 2026-09-03 00:30:48 | 56.46600 | 4.72346 | 101° | 47km/h | 19486m | 4.5m/s | -50.2°C | 0.5% | 62.6hPa | 2.5V | 18:12:15 | 01:34:16 | 00:00:00 | |
| BIOWL1-15 | 2026-09-03 00:30:43 | 56.46608 | 4.72139 | 94° | 42km/h | 19435m | 5.2m/s | 0°C | 0% | 63.1hPa | 2.6V | 18:12:15 | 01:34:05 | 00:00:00 | |
| DM0DOS-11 | 2026-09-03 00:30:42 | 56.46609 | 4.72120 | 94° | 42km/h | 19430m | 4.1m/s | -50.3°C | 3.7% | 63.1hPa | 2.6V | 08:30:00 | 01:34:04 | 00:00:00 | |
| DL1XH-west | 2026-09-03 00:30:38 | 56.46607 | 4.72158 | 96° | 40km/h | 19440m | 4.2m/s | -50.3°C | 0.5% | 63hPa | 2.5V | 18:12:15 | 01:34:06 | 00:00:00 | |
| DJ2DS-15 | 2026-09-03 00:30:36 | 56.46608 | 4.72120 | 95° | 38km/h | 19430m | 4.1m/s | -50.3°C | 3.7% | 63.1hPa | 2.6V | 00:00:00 | 01:34:04 | 00:00:00 | |
| DM0DOS-11 | 2026-09-03 00:30:31 | 56.46622 | 4.71948 | 102° | 40km/h | 19383m | 4.6m/s | -50.6°C | 3.8% | 63.6hPa | 2.6V | 08:30:00 | 01:33:54 | 00:00:00 | |
| DL1XH-west | 2026-09-03 00:30:28 | 56.46618 | 4.71982 | 101° | 37km/h | 19393m | 4.6m/s | -50.6°C | 0.5% | 63.5hPa | 2.5V | 18:12:15 | 01:33:56 | 00:00:00 | |
| BIOWL1-15 | 2026-09-03 00:30:26 | 56.46648 | 4.71723 | 107° | 38km/h | 19322m | 5m/s | 0°C | 0% | 64.2hPa | 2.5V | 18:12:15 | 01:33:41 | 00:00:00 | |
| DM0DOS-11 | 2026-09-03 00:30:18 | 56.46642 | 4.71774 | 100° | 37km/h | 19336m | 4.4m/s | -50.7°C | 3.8% | 64hPa | 2.6V | 08:30:00 | 01:33:44 | 00:00:00 | |
| DL1XH-west | 2026-09-03 00:30:17 | 56.46646 | 4.71740 | 103° | 38km/h | 19327m | 4.2m/s | -50.7°C | 0.5% | 64.1hPa | 2.6V | 18:12:15 | 01:33:42 | 00:00:00 | |
| DJ2DS-15 | 2026-09-03 00:30:16 | 56.46642 | 4.71774 | 101° | 35km/h | 19336m | 4.4m/s | -50.7°C | 3.8% | 64.0hPa | 2.6V | 00:00:00 | 01:33:44 | 08:30:00 | |
| DM0DOS-11 | 2026-09-03 00:30:07 | 56.46666 | 4.71603 | 98° | 38km/h | 19290m | 4.3m/s | -50.7°C | 3.8% | 64.5hPa | 2.5V | 08:30:00 | 01:33:34 | 00:00:00 | |
| BIOWL1-15 | 2026-09-03 00:30:05 | 56.46670 | 4.71540 | 93° | 27km/h | 19272m | 4.3m/s | 0°C | 0% | 64.7hPa | 2.4V | 18:12:15 | 01:33:30 | 00:00:00 | |
| DL1XH-west | 2026-09-03 00:30:05 | 56.46668 | 4.71569 | 96° | 35km/h | 19282m | 5.3m/s | -50.8°C | 0.5% | 64.6hPa | 2.6V | 18:12:15 | 01:33:32 | 00:00:00 | |
| DM0DOS-11 | 2026-09-03 00:30:00 | 56.46678 | 4.71460 | 112° | 37km/h | 19244m | 5m/s | -51.1°C | 3.9% | 65hPa | 2.5V | 08:30:00 | 01:33:24 | 00:00:00 | |
| DL1XH-west | 2026-09-03 00:29:55 | 56.46689 | 4.71408 | 114° | 42km/h | 19230m | 5.4m/s | -51°C | 0.6% | 65.1hPa | 2.6V | 18:12:15 | 01:33:21 | 00:00:00 | |
| BIOWL1-15 | 2026-09-03 00:29:52 | 56.46698 | 4.71373 | 111° | 42km/h | 19221m | 3.8m/s | 0°C | 0% | 0hPa | 2.4V | 18:12:15 | 01:33:19 | 00:00:00 | |
| DM0DOS-11 | 2026-09-03 00:29:47 | 56.46710 | 4.71284 | 98° | 37km/h | 19198m | 3.3m/s | -50.8°C | 3.9% | 65.4hPa | 2.5V | 08:30:00 | 01:33:14 | 00:00:00 | |
| DL1XH-west | 2026-09-03 00:29:44 | 56.46714 | 4.71232 | 100° | 40km/h | 19184m | 3.8m/s | -50.8°C | 0.5% | 65.6hPa | 2.6V | 18:12:15 | 01:33:11 | 00:00:00 | |
| BIOWL1-15 | 2026-09-03 00:29:41 | 56.46728 | 4.71147 | 107° | 42km/h | 19161m | 4.2m/s | 0°C | 0% | 0hPa | 2.6V | 18:12:15 | 01:33:06 | 00:00:00 | |
| DM0DOS-11 | 2026-09-03 00:29:41 | 56.46733 | 4.71112 | 104° | 40km/h | 19151m | 5.2m/s | -50.8°C | 3.8% | 65.9hPa | 2.5V | 08:30:00 | 01:33:04 | 00:00:00 | |
| DL1XH-west | 2026-09-03 00:29:33 | 56.46739 | 4.71038 | 93° | 44km/h | 19133m | 4.1m/s | -50.9°C | 0.5% | 66.1hPa | 2.4V | 18:12:15 | 01:33:00 | 00:00:00 | |
| BIOWL1-15 | 2026-09-03 00:29:31 | 56.46740 | 4.71019 | 94° | 42km/h | 19128m | 5.5m/s | 0°C | 0% | 0hPa | 2.5V | 18:12:15 | 01:32:59 | 00:00:00 | |
| DL1XH-west | 2026-09-03 00:29:22 | 56.46757 | 4.70828 | 101° | 46km/h | 19082m | 5.1m/s | -50.9°C | 0.5% | 66.6hPa | 2.6V | 18:12:15 | 01:32:49 | 00:00:00 | |
| DL1XH-west | 2026-09-03 00:29:10 | 56.46775 | 4.70616 | 95° | 40km/h | 19030m | 5.2m/s | -51.1°C | 0.6% | 67.1hPa | 2.6V | 18:12:15 | 01:32:38 | 00:00:00 | |
| DM0DOS-11 | 2026-09-03 00:29:07 | 56.46778 | 4.70542 | 97° | 46km/h | 19011m | 4.1m/s | -51.1°C | 3.9% | 67.3hPa | 2.6V | 08:30:00 | 01:32:34 | 00:00:00 | |
| DL1XH-west | 2026-09-03 00:29:00 | 56.46783 | 4.70417 | 90° | 47km/h | 18983m | 4.1m/s | -51.1°C | 0.6% | 67.6hPa | 2.6V | 18:12:15 | 01:32:28 | 00:00:00 | |
| DM0DOS-11 | 2026-09-03 00:29:00 | 56.46784 | 4.70334 | 94° | 46km/h | 18965m | 4.5m/s | -51°C | 3.9% | 67.8hPa | 2.6V | 08:30:00 | 01:32:24 | 00:00:00 | |
| DL1XH-west | 2026-09-03 00:28:50 | 56.46792 | 4.70173 | 91° | 42km/h | 18928m | 4.2m/s | -51.1°C | 0.6% | 68.2hPa | 2.5V | 18:12:15 | 01:32:16 | 00:00:00 | |
| DM0DOS-11 | 2026-09-03 00:28:49 | 56.46792 | 4.70136 | 92° | 42km/h | 18920m | 5.3m/s | -51.1°C | 3.8% | 68.3hPa | 2.6V | 08:30:00 | 01:32:14 | 00:00:00 | |
| DL1XH-west | 2026-09-03 00:28:39 | 56.46794 | 4.70005 | 95° | 44km/h | 18887m | 4.5m/s | -51.2°C | 0.6% | 68.6hPa | 2.5V | 18:12:15 | 01:32:07 | 00:00:00 | |
| DM0DOS-11 | 2026-09-03 00:28:37 | 56.46798 | 4.69948 | 96° | 42km/h | 18873m | 5.3m/s | -51.2°C | 4% | 68.8hPa | 2.6V | 08:30:00 | 01:32:04 | 00:00:00 | |
| DJ2DS-15 | 2026-09-03 00:28:36 | 56.46797 | 4.69947 | 97° | 44km/h | 18874m | 5.2m/s | -51.2°C | 4.0% | 68.8hPa | 2.6V | 00:00:00 | 01:32:04 | 00:00:00 | |
| DM0DOS-11 | 2026-09-03 00:28:29 | 56.46811 | 4.69749 | 97° | 42km/h | 18827m | 3.8m/s | -51.4°C | 4% | 69.3hPa | 2.6V | 08:30:00 | 01:31:54 | 00:00:00 | |
| DL1XH-west | 2026-09-03 00:28:28 | 56.46810 | 4.69769 | 98° | 44km/h | 18831m | 5.3m/s | -51.3°C | 0.6% | 69.2hPa | 2.5V | 18:12:15 | 01:31:55 | 00:00:00 | |
| DM0DOS-11 | 2026-09-03 00:28:18 | 56.46831 | 4.69551 | 96° | 47km/h | 18781m | 4.1m/s | -51.3°C | 4% | 69.8hPa | 2.6V | 08:30:00 | 01:31:44 | 00:00:00 | |
| DL1XH-west | 2026-09-03 00:28:17 | 56.46831 | 4.69551 | 97° | 47km/h | 18781m | 4.1m/s | -51.3°C | 0.6% | 69.8hPa | 2.6V | 18:12:15 | 01:31:44 | 00:00:00 | |
| DJ2DS-15 | 2026-09-03 00:28:16 | 56.46830 | 4.69551 | 97° | 47km/h | 18781m | 4.1m/s | -51.3°C | 4.0% | 69.7hPa | 2.6V | 00:00:00 | 01:31:44 | 00:00:00 | |
| DJ2DS-15 | 2026-09-03 00:28:12 | 56.46836 | 4.69462 | 95° | 46km/h | 18763m | 4.8m/s | -51.3°C | 1.1% | 70.0hPa | 2.6V | 00:00:00 | 00:00:00 | 00:00:00 | |
| DM0DOS-11 | 2026-09-03 00:28:08 | 56.46844 | 4.69323 | 87° | 49km/h | 18731m | 4m/s | -51.5°C | 3.9% | 70.3hPa | 2.6V | 08:30:00 | 01:31:33 | 00:00:00 | |
| DL1XH-west | 2026-09-03 00:28:07 | 56.46844 | 4.69345 | 91° | 46km/h | 18735m | 4.1m/s | -51.5°C | 0.6% | 70.2hPa | 2.6V | 18:12:15 | 01:31:34 | 00:00:00 | |
| DM0DOS-11 | 2026-09-03 00:27:57 | 56.46836 | 4.69101 | 88° | 42km/h | 18684m | 4.9m/s | -51.7°C | 4% | 70.8hPa | 2.6V | 08:30:00 | 01:31:23 | 00:00:00 | |
| DL1XH-west | 2026-09-03 00:27:56 | 56.46836 | 4.69120 | 86° | 42km/h | 18689m | 4.3m/s | -51.7°C | 0.7% | 70.7hPa | 2.6V | 18:12:15 | 01:31:24 | 00:00:00 | |
| DJ2DS-15 | 2026-09-03 00:27:56 | 56.46836 | 4.69120 | 87° | 40km/h | 18689m | 4.2m/s | -51.6°C | 4.1% | 70.7hPa | 2.6V | 00:00:00 | 01:31:24 | 00:00:00 | |
| DM0DOS-11 | 2026-09-03 00:27:47 | 56.46829 | 4.68906 | 78° | 42km/h | 18640m | 3.8m/s | -51.6°C | 3.9% | 71.3hPa | 2.6V | 08:30:00 | 01:31:13 | 00:00:00 | |
| DL1XH-west | 2026-09-03 00:27:46 | 56.46831 | 4.68926 | 82° | 44km/h | 18644m | 5m/s | -51.6°C | 0.6% | 71.3hPa | 2.6V | 18:12:15 | 01:31:14 | 00:00:00 | |
| DM0DOS-11 | 2026-09-03 00:27:36 | 56.46822 | 4.68731 | 89° | 38km/h | 18594m | 5m/s | -51.9°C | 4% | 71.8hPa | 2.6V | 08:30:00 | 01:31:03 | 00:00:00 | |
| DL1XH-west | 2026-09-03 00:27:36 | 56.46822 | 4.68731 | 89° | 38km/h | 18594m | 5m/s | -51.9°C | 0.6% | 71.8hPa | 2.6V | 18:12:15 | 01:31:03 | 00:00:00 | |
| DM0DOS-11 | 2026-09-03 00:27:31 | 56.46825 | 4.68522 | 101° | 38km/h | 18542m | 4m/s | -52.1°C | 4% | 72.4hPa | 2.5V | 08:30:00 | 01:30:52 | 00:00:00 | |
| DL1XH-west | 2026-09-03 00:27:25 | 56.46825 | 4.68522 | 101° | 38km/h | 18543m | 4m/s | -52.1°C | 0.6% | 72.4hPa | 2.5V | 18:12:15 | 01:30:52 | 00:00:00 | |
| DM0DOS-11 | 2026-09-03 00:27:18 | 56.46839 | 4.68348 | 95° | 38km/h | 18496m | 3.7m/s | -52.3°C | 4% | 72.9hPa | 2.5V | 08:30:00 | 01:30:42 | 00:00:00 | |
| DL1XH-west | 2026-09-03 00:27:13 | 56.46840 | 4.68331 | 97° | 40km/h | 18491m | 5.3m/s | -52.3°C | 0.7% | 73hPa | 2.5V | 18:12:15 | 01:30:41 | 00:00:00 | |
| DM0DOS-11 | 2026-09-03 00:27:07 | 56.46845 | 4.68152 | 87° | 38km/h | 18449m | 3.5m/s | -52.5°C | 4.2% | 73.5hPa | 2.5V | 08:30:00 | 01:30:32 | 00:00:00 | |
| DL1XH-west | 2026-09-03 00:27:03 | 56.46844 | 4.68116 | 91° | 40km/h | 18440m | 4.3m/s | -52.6°C | 0.7% | 73.5hPa | 2.5V | 18:12:15 | 01:30:30 | 00:00:00 | |
| DM0DOS-11 | 2026-09-03 00:26:58 | 56.46844 | 4.67958 | 86° | 42km/h | 18404m | 4.7m/s | -52.5°C | 4.2% | 74hPa | 2.4V | 08:30:00 | 01:30:22 | 00:00:00 | |
| DL1XH-west | 2026-09-03 00:26:52 | 56.46842 | 4.67903 | 86° | 38km/h | 18389m | 4.4m/s | -52.4°C | 0.7% | 74.1hPa | 2.6V | 18:12:15 | 01:30:19 | 00:00:00 | |
| DM0DOS-11 | 2026-09-03 00:26:48 | 56.46840 | 4.67790 | 88° | 33km/h | 18356m | 4.7m/s | -52.1°C | 4.2% | 74.5hPa | 2.5V | 08:30:00 | 01:30:12 | 00:00:00 | |
| DL1XH-west | 2026-09-03 00:26:41 | 56.46839 | 4.67726 | 88° | 35km/h | 18338m | 4.3m/s | -52°C | 0.7% | 74.7hPa | 2.6V | 18:12:15 | 01:30:08 | 00:00:00 | |
| BIOWL1-15 | 2026-09-03 00:26:36 | 56.46837 | 4.67667 | 89° | 33km/h | 18319m | 4.5m/s | -51.9°C | 0.6% | 74.9hPa | 2.6V | 18:12:15 | 01:30:04 | 00:00:00 | |
| DL1XH-west | 2026-09-03 00:26:29 | 56.46846 | 4.67570 | 105° | 33km/h | 18286m | 5.7m/s | -51.7°C | 0.7% | 75.3hPa | 2.5V | 18:12:15 | 01:29:57 | 00:00:00 | |
| BIOWL1-15 | 2026-09-03 00:26:23 | 56.46893 | 4.67274 | 116° | 35km/h | 18187m | 5.2m/s | -51.4°C | 0.6% | 76.5hPa | 2.5V | 18:12:15 | 01:29:36 | 00:00:00 | |
| DL1XH-west | 2026-09-03 00:26:19 | 56.46864 | 4.67411 | 113° | 27km/h | 18233m | 5.1m/s | -51.5°C | 0.6% | 75.9hPa | 2.5V | 18:12:15 | 01:29:46 | 00:00:00 | |
| DM0DOS-11 | 2026-09-03 00:26:16 | 56.46875 | 4.67362 | 105° | 33km/h | 18215m | 3.4m/s | -51.5°C | 4% | 76.1hPa | 2.5V | 08:30:00 | 01:29:42 | 00:00:00 | |
| DJ2DS-15 | 2026-09-03 00:26:16 | 56.46869 | 4.67388 | 111° | 35km/h | 18224m | 4.7m/s | -51.4°C | 4.0% | 76.0hPa | 2.6V | 00:00:00 | 01:29:44 | 00:00:00 | |
| BIOWL9-15 | 2026-09-03 00:26:10 | 56.46889 | 4.67289 | 114° | 35km/h | 18191m | 3.7m/s | -51.4°C | 1.2% | 76.4hPa | 2.5V | 00:00:00 | 00:00:00 | 00:00:00 | |
| DM0DOS-11 | 2026-09-03 00:26:08 | 56.46908 | 4.67220 | 112° | 35km/h | 18169m | 4.5m/s | -51.3°C | 4% | 76.7hPa | 2.5V | 08:30:00 | 01:29:32 | 00:00:00 | |
| DL1XH-west | 2026-09-03 00:26:08 | 56.46897 | 4.67261 | 120° | 33km/h | 18182m | 3.8m/s | -51.4°C | 0.6% | 76.5hPa | 2.5V | 18:12:15 | 01:29:35 | 00:00:00 | |
| BIOWL1-15 | 2026-09-03 00:26:01 | 56.46917 | 4.67177 | 111° | 35km/h | 18155m | 3.3m/s | -51.2°C | 0.6% | 76.8hPa | 2.6V | 18:12:15 | 01:29:29 | 00:00:00 | |
| DL1XH-west | 2026-09-03 00:25:58 | 56.46932 | 4.67109 | 114° | 42km/h | 18135m | 5.5m/s | -51.2°C | 0.6% | 77.1hPa | 2.5V | 18:12:15 | 01:29:25 | 00:00:00 | |
| DM0DOS-11 | 2026-09-03 00:25:57 | 56.46959 | 4.67025 | 121° | 42km/h | 18112m | 5m/s | -51.1°C | 4% | 77.4hPa | 2.5V | 08:30:00 | 01:29:20 | 00:00:00 | |
| DL1XH-west | 2026-09-03 00:25:47 | 56.46980 | 4.66939 | 110° | 46km/h | 18089m | 4.6m/s | -51°C | 0.5% | 77.6hPa | 2.5V | 18:12:15 | 01:29:15 | 00:00:00 | |
| DM0DOS-11 | 2026-09-03 00:25:47 | 56.47002 | 4.66841 | 118° | 46km/h | 18065m | 4m/s | -51°C | 3.9% | 77.9hPa | 2.5V | 08:30:00 | 01:29:10 | 00:00:00 | |
| DL1XH-west | 2026-09-03 00:25:37 | 56.47029 | 4.66754 | 117° | 44km/h | 18041m | 3.6m/s | -50.8°C | 0.6% | 78.2hPa | 2.5V | 18:12:15 | 01:29:05 | 00:00:00 | |
| BIOWL1-15 | 2026-09-03 00:25:35 | 56.47041 | 4.66703 | 106° | 40km/h | 18027m | 4.4m/s | -50.7°C | 0.6% | 78.4hPa | 2.5V | 18:12:15 | 01:29:02 | 00:00:00 | |
| DL1XH-west | 2026-09-03 00:25:27 | 56.47061 | 4.66564 | 108° | 44km/h | 17994m | 4.2m/s | -50.5°C | 0.5% | 78.8hPa | 2.5V | 18:12:15 | 01:28:55 | 00:00:00 | |
| BIOWL1-15 | 2026-09-03 00:25:21 | 56.47087 | 4.66341 | 93° | 44km/h | 17939m | 4.9m/s | -50.4°C | 0.4% | 79.5hPa | 2.6V | 18:12:15 | 01:28:43 | 00:00:00 | |
| DL1XH-west | 2026-09-03 00:25:16 | 56.47086 | 4.66361 | 94° | 44km/h | 17944m | 5.2m/s | -50.5°C | 0.5% | 79.4hPa | 2.6V | 18:12:15 | 01:28:44 | 00:00:00 | |
| BIOWL1-15 | 2026-09-03 00:25:11 | 56.47097 | 4.66236 | 103° | 38km/h | 17911m | 5.5m/s | -50.6°C | 0.5% | 79.8hPa | 2.5V | 18:12:15 | 01:28:37 | 00:00:00 | |
| DL1XH-west | 2026-09-03 00:25:05 | 56.47105 | 4.66166 | 98° | 42km/h | 17894m | 3.8m/s | -50.9°C | 0.6% | 80hPa | 2.6V | 18:12:15 | 01:28:33 | 00:00:00 | |
| DL1XH-west | 2026-09-03 00:24:55 | 56.47138 | 4.65946 | 103° | 46km/h | 17842m | 4.4m/s | -50.7°C | 0.6% | 80.7hPa | 2.5V | 18:12:15 | 01:28:22 | 00:00:00 | |
| BIOWL1-15 | 2026-09-03 00:24:46 | 56.47166 | 4.65726 | 110° | 38km/h | 17787m | 4.1m/s | -50.3°C | 0.4% | 0hPa | 2.5V | 18:12:15 | 01:28:10 | 00:00:00 | |
| DL1XH-west | 2026-09-03 00:24:45 | 56.47161 | 4.65758 | 105° | 37km/h | 17796m | 3.9m/s | -50.3°C | 0.5% | 81.2hPa | 2.5V | 18:12:15 | 01:28:12 | 00:00:00 | |
| BIOWL1-15 | 2026-09-03 00:24:36 | 56.47183 | 4.65619 | 102° | 44km/h | 17759m | 4.7m/s | -50.3°C | 0.4% | 0hPa | 2.6V | 18:12:15 | 01:28:04 | 00:00:00 | |
| DL1XH-west | 2026-09-03 00:24:34 | 56.47190 | 4.65559 | 107° | 46km/h | 17745m | 4.5m/s | -50.3°C | 0.5% | 81.9hPa | 2.5V | 18:12:15 | 01:28:01 | 00:00:00 | |
| DM0DOS-11 | 2026-09-03 00:24:26 | 56.47238 | 4.65333 | 107° | 42km/h | 17682m | 5m/s | -50.3°C | 3.8% | 82.6hPa | 2.6V | 08:30:00 | 01:27:48 | 00:00:00 | |
| BIOWL1-15 | 2026-09-03 00:24:25 | 56.47221 | 4.65421 | 111° | 40km/h | 17706m | 5.7m/s | -50.3°C | 0.5% | 0hPa | 2.6V | 18:12:15 | 01:27:53 | 00:00:00 | |
| DL1XH-west | 2026-09-03 00:24:24 | 56.47224 | 4.65404 | 110° | 42km/h | 17701m | 4.3m/s | -50.3°C | 0.5% | 82.4hPa | 2.5V | 18:12:15 | 01:27:52 | 00:00:00 | |
| DJ2DS-15 | 2026-09-03 00:24:16 | 56.47248 | 4.65264 | 104° | 44km/h | 17665m | 4.1m/s | -50.3°C | 3.7% | 82.8hPa | 2.6V | 00:00:00 | 01:27:44 | 08:30:00 | |
| DM0DOS-11 | 2026-09-03 00:24:15 | 56.47256 | 4.65173 | 95° | 42km/h | 17642m | 3.8m/s | -50.4°C | 3.8% | 83.1hPa | 2.6V | 08:30:00 | 01:27:39 | 00:00:00 | |
| DL1XH-west | 2026-09-03 00:24:14 | 56.47252 | 4.65229 | 99° | 42km/h | 17656m | 4.1m/s | -50.3°C | 0.5% | 83hPa | 2.5V | 18:12:15 | 01:27:42 | 00:00:00 | |
| DL1XH-west | 2026-09-03 00:24:03 | 56.47276 | 4.65017 | 101° | 44km/h | 17604m | 5.4m/s | -50.6°C | 0.5% | 83.7hPa | 2.5V | 18:12:15 | 01:27:31 | 00:00:00 | |
| BIOWL1-15 | 2026-09-03 00:23:58 | 56.47282 | 4.64875 | 92° | 42km/h | 17573m | 4.7m/s | -50.5°C | 0.4% | 0hPa | 2.6V | 18:12:15 | 01:27:24 | 00:00:00 | |
| DL1XH-west | 2026-09-03 00:23:52 | 56.47286 | 4.64797 | 97° | 44km/h | 17553m | 3.9m/s | -50.5°C | 0.5% | 84.3hPa | 2.5V | 18:12:15 | 01:27:20 | 00:00:00 | |
| DM0DOS-11 | 2026-09-03 00:23:51 | 56.47292 | 4.64737 | 101° | 46km/h | 17540m | 3.5m/s | -50.5°C | 3.7% | 84.4hPa | 2.5V | 08:30:00 | 01:27:17 | 00:00:00 | |
| DL1XH-west | 2026-09-03 00:23:42 | 56.47301 | 4.64612 | 98° | 35km/h | 17508m | 4.2m/s | -50.7°C | 0.5% | 84.9hPa | 2.5V | 18:12:15 | 01:27:10 | 00:00:00 | |
| DM0DOS-11 | 2026-09-03 00:23:40 | 56.47316 | 4.64494 | 107° | 38km/h | 17476m | 3.4m/s | -51°C | 3.9% | 85.3hPa | 2.6V | 08:30:00 | 01:27:03 | 00:00:00 | |
| DL1XH-west | 2026-09-03 00:23:32 | 56.47323 | 4.64446 | 105° | 35km/h | 17463m | 4.3m/s | -51°C | 0.5% | 85.5hPa | 2.5V | 18:12:15 | 01:27:00 | 00:00:00 | |
| DM0DOS-11 | 2026-09-03 00:23:29 | 56.47341 | 4.64341 | 110° | 38km/h | 17431m | 5.4m/s | -51.1°C | 4% | 85.9hPa | 2.6V | 08:30:00 | 01:26:53 | 00:00:00 | |
| DL1XH-west | 2026-09-03 00:23:21 | 56.47357 | 4.64272 | 117° | 42km/h | 17413m | 4.7m/s | -51°C | 0.5% | 86.1hPa | 2.6V | 18:12:15 | 01:26:49 | 00:00:00 | |
| BIOWL1-15 | 2026-09-03 00:23:19 | 56.47371 | 4.64223 | 118° | 38km/h | 17399m | 4m/s | -51.1°C | 0.5% | 0hPa | 2.5V | 18:12:15 | 01:26:46 | 00:00:00 | |
| DL1XH-west | 2026-09-03 00:23:10 | 56.47409 | 4.64103 | 120° | 46km/h | 17363m | 4.7m/s | -51.1°C | 0.6% | 86.8hPa | 2.6V | 18:12:15 | 01:26:38 | 00:00:00 | |
| BIOWL1-15 | 2026-09-03 00:23:01 | 56.47499 | 4.63878 | 126° | 53km/h | 17305m | 4.2m/s | -51.1°C | 0.7% | 0hPa | 2.5V | 18:12:15 | 01:26:25 | 00:00:00 | |
| DL1XH-west | 2026-09-03 00:22:59 | 56.47484 | 4.63917 | 123° | 53km/h | 17314m | 4.2m/s | -51.1°C | 0.6% | 87.4hPa | 2.5V | 18:12:15 | 01:26:27 | 00:00:00 | |
| DJ2DS-15 | 2026-09-03 00:22:56 | 56.47507 | 4.63858 | 126° | 53km/h | 17300m | 5.2m/s | -51.1°C | 4.0% | 87.6hPa | 2.5V | 00:00:00 | 01:26:24 | 00:00:00 | |
| DM0DOS-11 | 2026-09-03 00:22:53 | 56.47577 | 4.63685 | 123° | 57km/h | 17260m | 4.5m/s | -50.9°C | 4% | 88.2hPa | 2.5V | 08:30:00 | 01:26:15 | 00:00:00 | |
| BIOWL1-15 | 2026-09-03 00:22:50 | 56.47585 | 4.63664 | 124° | 57km/h | 17255m | 4.2m/s | -50.8°C | 0.5% | 0hPa | 2.6V | 18:12:15 | 01:26:14 | 00:00:00 | |
| DL1XH-west | 2026-09-03 00:22:49 | 56.47562 | 4.63726 | 125° | 53km/h | 17269m | 4.1m/s | -50.9°C | 0.6% | 88.1hPa | 2.5V | 18:12:15 | 01:26:17 | 00:00:00 | |
| DM0DOS-11 | 2026-09-03 00:22:41 | 56.47639 | 4.63492 | 118° | 57km/h | 17217m | 4.8m/s | -50.6°C | 3.9% | 88.8hPa | 2.5V | 08:30:00 | 01:26:06 | 00:00:00 | |
| DL1XH-west | 2026-09-03 00:22:39 | 56.47639 | 4.63492 | 119° | 57km/h | 17217m | 4.8m/s | -50.6°C | 0.5% | 88.8hPa | 2.5V | 18:12:15 | 01:26:06 | 00:00:00 | |
| BIOWL1-15 | 2026-09-03 00:22:36 | 56.47653 | 4.63447 | 123° | 57km/h | 17209m | 3.8m/s | -50.6°C | 0.5% | 0hPa | 2.6V | 18:12:15 | 01:26:04 | 00:00:00 | |
| BIOWL9-15 | 2026-09-03 00:22:32 | 56.47682 | 4.63363 | 118° | 55km/h | 17190m | 4.2m/s | -50.6°C | -1.0% | 89.1hPa | 2.5V | 00:00:00 | 00:00:00 | 00:00:00 | |
| DM0DOS-11 | 2026-09-03 00:22:30 | 56.47707 | 4.63275 | 118° | 55km/h | 17173m | 4.5m/s | -50.6°C | 3.9% | 89.4hPa | 2.5V | 08:30:00 | 01:25:56 | 00:00:00 | |
| DL1XH-west | 2026-09-03 00:22:27 | 56.47714 | 4.63253 | 118° | 58km/h | 17168m | 4.5m/s | -50.6°C | 0.6% | 89.4hPa | 2.5V | 18:12:15 | 01:25:55 | 00:00:00 | |
| BIOWL1-15 | 2026-09-03 00:22:26 | 56.47721 | 4.63229 | 118° | 58km/h | 17164m | 3.9m/s | 0°C | 0% | 0hPa | 2.6V | 18:12:15 | 01:25:54 | 00:00:00 | |
| DM0DOS-11 | 2026-09-03 00:22:19 | 56.47775 | 4.63015 | 113° | 57km/h | 17122m | 5.5m/s | -50.5°C | 3.8% | 90.1hPa | 2.5V | 08:30:00 | 01:25:45 | 00:00:00 | |
| DL1XH-west | 2026-09-03 00:22:16 | 56.47781 | 4.62991 | 114° | 58km/h | 17117m | 3.9m/s | -50.4°C | 0.5% | 90.2hPa | 2.6V | 18:12:15 | 01:25:44 | 00:00:00 | |
| BIOWL1-15 | 2026-09-03 00:22:14 | 56.47792 | 4.62940 | 110° | 60km/h | 17107m | 5.1m/s | 0°C | 0% | 0hPa | 2.5V | 18:12:15 | 01:25:42 | 00:00:00 | |
| DM0DOS-11 | 2026-09-03 00:22:13 | 56.47828 | 4.62763 | 111° | 58km/h | 17075m | 5.1m/s | -50.4°C | 3.8% | 90.7hPa | 2.5V | 08:30:00 | 01:25:35 | 00:00:00 | |
| DL1XH-west | 2026-09-03 00:22:06 | 56.47834 | 4.62738 | 110° | 58km/h | 17070m | 3.9m/s | -50.3°C | 0.4% | 90.8hPa | 2.6V | 18:12:15 | 01:25:34 | 00:00:00 | |
| DM0DOS-11 | 2026-09-03 00:22:02 | 56.47869 | 4.62509 | 103° | 58km/h | 17029m | 4.5m/s | -50.4°C | 3.8% | 91.3hPa | 2.5V | 08:30:00 | 01:25:25 | 00:00:00 | |
| DL1XH-west | 2026-09-03 00:21:55 | 56.47876 | 4.62456 | 105° | 60km/h | 17020m | 4m/s | -50.4°C | 0.6% | 91.5hPa | 2.6V | 18:12:15 | 01:25:23 | 00:00:00 | |
| DM0DOS-11 | 2026-09-03 00:21:51 | 56.47895 | 4.62209 | 93° | 62km/h | 16979m | 3.7m/s | -50.2°C | 3.8% | 92hPa | 2.6V | 08:30:00 | 01:25:14 | 00:00:00 | |
| DL1XH-west | 2026-09-03 00:21:46 | 56.47899 | 4.62128 | 96° | 58km/h | 16966m | 3.7m/s | -50.1°C | 0.6% | 92.3hPa | 2.5V | 18:12:15 | 01:25:11 | 00:00:00 | |
| DM0DOS-11 | 2026-09-03 00:21:41 | 56.47914 | 4.61932 | 97° | 64km/h | 16934m | 5m/s | -50.1°C | 3.8% | 92.7hPa | 2.5V | 08:30:00 | 01:25:04 | 00:00:00 | |
| DL1XH-west | 2026-09-03 00:21:34 | 56.47918 | 4.61873 | 97° | 66km/h | 16925m | 5.2m/s | -50°C | 0.5% | 92.8hPa | 2.6V | 18:12:15 | 01:25:02 | 00:00:00 | |
| DM0DOS-11 | 2026-09-03 00:21:30 | 56.47941 | 4.61659 | 104° | 60km/h | 16887m | 4.3m/s | -50.3°C | 3.8% | 93.3hPa | 2.5V | 08:30:00 | 01:24:54 | 00:00:00 | |
| DL1XH-west | 2026-09-03 00:21:24 | 56.47951 | 4.61578 | 101° | 62km/h | 16874m | 4.9m/s | -50.3°C | 0.6% | 93.5hPa | 2.6V | 18:12:15 | 01:24:51 | 00:00:00 | |
| DM0DOS-11 | 2026-09-03 00:21:19 | 56.47969 | 4.61391 | 103° | 57km/h | 16841m | 4.1m/s | -50.2°C | 3.9% | 94hPa | 2.5V | 08:30:00 | 01:24:44 | 00:00:00 | |
| DL1XH-west | 2026-09-03 00:21:13 | 56.47982 | 4.61293 | 102° | 57km/h | 16822m | 5.2m/s | -50.2°C | 0.5% | 94.3hPa | 2.5V | 18:12:15 | 01:24:40 | 00:00:00 | |
| BIOWL1-15 | 2026-09-03 00:21:09 | 56.47989 | 4.61218 | 97° | 55km/h | 16808m | 4.1m/s | 0°C | 0% | 0hPa | 2.6V | 18:12:15 | 01:24:37 | 00:00:00 | |
| DL1XH-west | 2026-09-03 00:21:01 | 56.48009 | 4.61023 | 109° | 57km/h | 16772m | 4.1m/s | -50°C | 0.5% | 95hPa | 2.6V | 18:12:15 | 01:24:29 | 00:00:00 | |
| DL1XH-west | 2026-09-03 00:20:50 | 56.48053 | 4.60757 | 102° | 60km/h | 16721m | 3.8m/s | -49.8°C | 0.5% | 95.7hPa | 2.5V | 18:12:15 | 01:24:18 | 00:00:00 | |
| DM0DOS-11 | 2026-09-03 00:20:41 | 56.48109 | 4.60336 | 101° | 64km/h | 16652m | 4.5m/s | -49.8°C | 3.6% | 96.8hPa | 2.5V | 08:30:00 | 01:24:03 | 00:00:00 | |
| DL1XH-west | 2026-09-03 00:20:40 | 56.48095 | 4.60479 | 102° | 68km/h | 16674m | 4.2m/s | -49.6°C | 0.5% | 96.5hPa | 2.5V | 18:12:15 | 01:24:08 | 00:00:00 | |
| BIOWL1-15 | 2026-09-03 00:20:40 | 56.48104 | 4.60393 | 99° | 62km/h | 16662m | 4.7m/s | 0°C | 0% | 0hPa | 2.6V | 18:12:15 | 01:24:05 | 00:00:00 | |
| DJ2DS-15 | 2026-09-03 00:20:35 | 56.48109 | 4.60336 | 102° | 69km/h | 16652m | 4.4m/s | -49.7°C | 3.6% | 96.7hPa | 2.6V | 00:00:00 | 01:24:03 | 00:00:00 | |
| DM0DOS-11 | 2026-09-03 00:20:30 | 56.48145 | 4.60059 | 99° | 69km/h | 16613m | 5m/s | -50.4°C | 3.9% | 97.4hPa | 2.6V | 08:30:00 | 01:23:54 | 00:00:00 | |
| DL1XH-west | 2026-09-03 00:20:30 | 56.48130 | 4.60186 | 103° | 73km/h | 16629m | 3.5m/s | -50.1°C | 0.5% | 97.1hPa | 2.5V | 18:12:15 | 01:23:58 | 00:00:00 | |
| BIOWL1-15 | 2026-09-03 00:20:22 | 56.48163 | 4.59798 | 96° | 71km/h | 16575m | 4.6m/s | 0°C | 0% | 0hPa | 2.5V | 18:12:15 | 01:23:46 | 00:00:00 | |
| DL1XH-west | 2026-09-03 00:20:20 | 56.48161 | 4.59830 | 96° | 73km/h | 16579m | 4.1m/s | -50.5°C | 0.5% | 97.9hPa | 2.6V | 18:12:15 | 01:23:47 | 00:00:00 | |
| DM0DOS-11 | 2026-09-03 00:20:20 | 56.48166 | 4.59734 | 95° | 69km/h | 16566m | 4.6m/s | -50.6°C | 3.8% | 98.1hPa | 2.5V | 08:30:00 | 01:23:44 | 00:00:00 | |
| BIOWL1-15 | 2026-09-03 00:20:11 | 56.48202 | 4.59224 | 98° | 66km/h | 16491m | 5.1m/s | 0°C | 0% | 0hPa | 2.6V | 18:12:15 | 01:23:27 | 00:00:00 | |
| DL1XH-west | 2026-09-03 00:20:09 | 56.48179 | 4.59490 | 98° | 66km/h | 16531m | 4.2m/s | -50.7°C | 0.6% | 98.6hPa | 2.5V | 18:12:15 | 01:23:36 | 00:00:00 | |
| DM0DOS-11 | 2026-09-03 00:20:00 | 56.48206 | 4.59135 | 92° | 66km/h | 16477m | 4.3m/s | -50.7°C | 4% | 99.4hPa | 2.5V | 08:30:00 | 01:23:24 | 00:00:00 | |
| DL1XH-west | 2026-09-03 00:19:58 | 56.48204 | 4.59194 | 96° | 64km/h | 16486m | 4.4m/s | -50.7°C | 0.7% | 99.3hPa | 2.5V | 18:12:15 | 01:23:26 | 00:00:00 | |
| BIOWL1-15 | 2026-09-03 00:19:50 | 56.48210 | 4.58965 | 95° | 62km/h | 16451m | 4.7m/s | 0°C | 0% | 0hPa | 2.5V | 18:12:15 | 01:23:18 | 00:00:00 | |
| DM0DOS-11 | 2026-09-03 00:19:49 | 56.48217 | 4.58852 | 97° | 66km/h | 16433m | 4.5m/s | -50.6°C | 3.9% | 100.1hPa | 2.5V | 08:30:00 | 01:23:14 | 00:00:00 | |
| DL1XH-west | 2026-09-03 00:19:48 | 56.48217 | 4.58852 | 97° | 66km/h | 16433m | 4.5m/s | -50.6°C | 0.6% | 100.1hPa | 2.5V | 18:12:15 | 01:23:14 | 00:00:00 | |
| DM0DOS-11 | 2026-09-03 00:19:40 | 56.48230 | 4.58563 | 90° | 66km/h | 16389m | 4.4m/s | -50.5°C | 3.9% | 100.8hPa | 2.5V | 08:30:00 | 01:23:04 | 00:00:00 | |
| BIOWL1-15 | 2026-09-03 00:19:39 | 56.48230 | 4.58592 | 91° | 62km/h | 16394m | 5.1m/s | 0°C | 0% | 0hPa | 2.6V | 18:12:15 | 01:23:05 | 00:00:00 | |
| DL1XH-west | 2026-09-03 00:19:37 | 56.48230 | 4.58563 | 91° | 66km/h | 16389m | 4.4m/s | -50.5°C | 0.6% | 100.8hPa | 2.5V | 18:12:15 | 01:23:04 | 00:00:00 | |
| DJ2DS-15 | 2026-09-03 00:19:35 | 56.48230 | 4.58533 | 91° | 62km/h | 16385m | 3.7m/s | -50.4°C | 3.9% | 100.8hPa | 2.6V | 00:00:00 | 01:23:03 | 00:00:00 | |
| DM0DOS-11 | 2026-09-03 00:19:28 | 56.48235 | 4.58263 | 92° | 66km/h | 16344m | 3.9m/s | -50.5°C | 3.8% | 101.5hPa | 2.6V | 08:30:00 | 01:22:54 | 00:00:00 | |
| DL1XH-west | 2026-09-03 00:19:26 | 56.48236 | 4.58233 | 92° | 64km/h | 16339m | 4.1m/s | -50.5°C | 0.6% | 101.5hPa | 2.6V | 18:12:15 | 01:22:53 | 00:00:00 | |
| BIOWL9-15 | 2026-09-03 00:19:26 | 56.48235 | 4.58263 | 92° | 66km/h | 16344m | 3.9m/s | 0°C | -1.0% | -1.0hPa | 2.6V | 00:00:00 | 00:00:00 | 00:00:00 | |
| DM0DOS-11 | 2026-09-03 00:19:21 | 56.48241 | 4.57990 | 93° | 58km/h | 16299m | 4.2m/s | -50.2°C | 3.8% | 102.2hPa | 2.6V | 08:30:00 | 01:22:44 | 00:00:00 | |
| BIOWL1-15 | 2026-09-03 00:19:19 | 56.48239 | 4.58070 | 92° | 57km/h | 16312m | 4.2m/s | 0°C | 0% | 0hPa | 2.5V | 18:12:15 | 01:22:47 | 00:00:00 | |
| DL1XH-west | 2026-09-03 00:19:16 | 56.48243 | 4.57937 | 95° | 58km/h | 16290m | 4m/s | -50.3°C | 0.6% | 102.3hPa | 2.5V | 18:12:15 | 01:22:42 | 00:00:00 | |
| DJ2DS-15 | 2026-09-03 00:19:15 | 56.48242 | 4.57964 | 95° | 60km/h | 16295m | 4.5m/s | -50.2°C | 3.8% | 102.2hPa | 2.6V | 00:00:00 | 01:22:43 | 00:00:00 | |
| DM0DOS-11 | 2026-09-03 00:19:09 | 56.48253 | 4.57726 | 96° | 58km/h | 16255m | 5m/s | -50.3°C | 3.9% | 102.9hPa | 2.5V | 08:30:00 | 01:22:34 | 00:00:00 | |
| BIOWL1-15 | 2026-09-03 00:19:06 | 56.48255 | 4.57699 | 99° | 60km/h | 16250m | 4.1m/s | 0°C | 0% | 0hPa | 2.5V | 18:12:15 | 01:22:33 | 00:00:00 | |
| DL1XH-west | 2026-09-03 00:19:04 | 56.48260 | 4.57644 | 99° | 64km/h | 16241m | 4m/s | -50.3°C | 0.6% | 103.1hPa | 2.6V | 18:12:15 | 01:22:31 | 00:00:00 | |
| BIOWL1-15 | 2026-09-03 00:18:53 | 56.48286 | 4.57334 | 95° | 66km/h | 16195m | 4.7m/s | 0°C | 0% | 0hPa | 2.5V | 18:12:15 | 01:22:20 | 00:00:00 | |
| DL1XH-west | 2026-09-03 00:18:52 | 56.48288 | 4.57304 | 93° | 66km/h | 16191m | 4.2m/s | -50.1°C | 0.6% | 103.9hPa | 2.5V | 18:12:15 | 01:22:19 | 00:00:00 | |
| DL1XH-west | 2026-09-03 00:18:41 | 56.48304 | 4.56994 | 96° | 62km/h | 16142m | 3.4m/s | -50.4°C | 0.6% | 104.7hPa | 2.5V | 18:12:15 | 01:22:08 | 00:00:00 | |
| DM0DOS-11 | 2026-09-03 00:18:39 | 56.48309 | 4.56883 | 90° | 62km/h | 16126m | 5.1m/s | -50.6°C | 3.9% | 104.9hPa | 2.6V | 08:30:00 | 01:22:04 | 00:00:00 | |
| DL1XH-west | 2026-09-03 00:18:30 | 56.48305 | 4.56712 | 85° | 60km/h | 16097m | 4.8m/s | -50.6°C | 0.6% | 105.4hPa | 2.6V | 18:12:15 | 01:21:58 | 00:00:00 | |
| DL1XH-west | 2026-09-03 00:18:20 | 56.48305 | 4.56418 | 90° | 62km/h | 16049m | 4m/s | -51.1°C | 0.6% | 106.2hPa | 2.6V | 18:12:15 | 01:21:47 | 00:00:00 | |
| DL1XH-west | 2026-09-03 00:18:09 | 56.48311 | 4.56155 | 95° | 58km/h | 16004m | 3.8m/s | -51.3°C | 0.7% | 106.9hPa | 2.6V | 18:12:15 | 01:21:37 | 00:00:00 | |
| DL1XH-west | 2026-09-03 00:17:59 | 56.48325 | 4.55868 | 99° | 55km/h | 15957m | 4.3m/s | -51.3°C | 0.8% | 107.7hPa | 2.5V | 18:12:15 | 01:21:26 | 00:00:00 | |
| DL1XH-west | 2026-09-03 00:17:49 | 56.48346 | 4.55610 | 98° | 58km/h | 15913m | 4.3m/s | -51.6°C | 0.7% | 108.4hPa | 2.5V | 18:12:15 | 01:21:16 | 00:00:00 | |
| DM0DOS-11 | 2026-09-03 00:17:47 | 56.48365 | 4.55420 | 101° | 64km/h | 15883m | 3.9m/s | -51.8°C | 4.2% | 108.8hPa | 2.5V | 08:30:00 | 01:21:09 | 00:00:00 | |
| DL1XH-west | 2026-09-03 00:17:38 | 56.48379 | 4.55305 | 100° | 66km/h | 15866m | 4.5m/s | -51.9°C | 0.7% | 109.2hPa | 2.5V | 18:12:15 | 01:21:05 | 00:00:00 | |
| DJ2DS-15 | 2026-09-03 00:17:35 | 56.48385 | 4.55246 | 100° | 62km/h | 15857m | 5.2m/s | -51.9°C | 4.2% | 109.3hPa | 2.5V | 00:00:00 | 01:21:03 | 00:00:00 | |
| DM0DOS-11 | 2026-09-03 00:17:34 | 56.48394 | 4.55131 | 96° | 64km/h | 15840m | 3.8m/s | -51.9°C | 4.1% | 109.7hPa | 2.5V | 08:30:00 | 01:20:59 | 00:00:00 | |
| DL1XH-west | 2026-09-03 00:17:26 | 56.48401 | 4.54983 | 94° | 66km/h | 15817m | 4.6m/s | -51.9°C | 0.8% | 110hPa | 2.6V | 18:12:15 | 01:20:54 | 00:00:00 | |
| DM0DOS-11 | 2026-09-03 00:17:23 | 56.48406 | 4.54764 | 91° | 57km/h | 15782m | 3.5m/s | -51.7°C | 4.2% | 110.6hPa | 2.5V | 08:30:00 | 01:20:46 | 00:00:00 | |
| DL1XH-west | 2026-09-03 00:17:16 | 56.48407 | 4.54713 | 93° | 57km/h | 15772m | 4.5m/s | -51.7°C | 0.8% | 110.8hPa | 2.6V | 18:12:15 | 01:20:44 | 00:00:00 | |
| DL1XH-west | 2026-09-03 00:17:05 | 56.48419 | 4.54421 | 93° | 55km/h | 15725m | 3.5m/s | -51.6°C | 0.8% | 111.6hPa | 2.5V | 18:12:15 | 01:20:33 | 00:00:00 | |
| DL1XH-west | 2026-09-03 00:16:55 | 56.48430 | 4.54143 | 97° | 60km/h | 15676m | 4m/s | -51.2°C | 0.8% | 112.4hPa | 2.5V | 18:12:15 | 01:20:22 | 00:00:00 | |
| DL1XH-west | 2026-09-03 00:16:45 | 56.48452 | 4.53880 | 98° | 57km/h | 15632m | 5.2m/s | -50.8°C | 0.8% | 113.2hPa | 2.5V | 18:12:15 | 01:20:12 | 00:00:00 | |
| DL1XH-west | 2026-09-03 00:16:34 | 56.48478 | 4.53615 | 99° | 58km/h | 15587m | 5.2m/s | -50.5°C | 0.7% | 114hPa | 2.6V | 18:12:15 | 01:20:02 | 00:00:00 | |
| DM0DOS-11 | 2026-09-03 00:16:29 | 56.48492 | 4.53432 | 94° | 57km/h | 15557m | 4.7m/s | -50.7°C | 3.9% | 114.5hPa | 2.6V | 08:30:00 | 01:19:55 | 00:00:00 | |
| DL1XH-west | 2026-09-03 00:16:24 | 56.48500 | 4.53327 | 104° | 57km/h | 15540m | 4m/s | -51°C | 0.7% | 114.8hPa | 2.5V | 18:12:15 | 01:19:51 | 00:00:00 | |
| DL1XH-west | 2026-09-03 00:16:13 | 56.48543 | 4.53015 | 102° | 66km/h | 15491m | 3.3m/s | -51°C | 0.7% | 115.7hPa | 2.5V | 18:12:15 | 01:19:40 | 00:00:00 | |
| DL1XH-west | 2026-09-03 00:16:02 | 56.48582 | 4.52685 | 101° | 68km/h | 15445m | 4.4m/s | -50.9°C | 0.7% | 116.5hPa | 2.5V | 18:12:15 | 01:19:29 | 00:00:00 | |
| DM0DOS-11 | 2026-09-03 00:16:01 | 56.48596 | 4.52503 | 97° | 66km/h | 15417m | 5m/s | -50.8°C | 4% | 117hPa | 2.6V | 08:30:00 | 01:19:23 | 00:00:00 | |
| DL1XH-west | 2026-09-03 00:15:51 | 56.48607 | 4.52385 | 100° | 64km/h | 15398m | 4.7m/s | -50.8°C | 0.7% | 117.3hPa | 2.6V | 18:12:15 | 01:19:19 | 00:00:00 | |
| DL1XH-west | 2026-09-03 00:15:41 | 56.48626 | 4.52059 | 98° | 60km/h | 15352m | 4.1m/s | -51.3°C | 0.8% | 118.2hPa | 2.5V | 18:12:15 | 01:19:08 | 00:00:00 | |
| DM0DOS-11 | 2026-09-03 00:15:36 | 56.48636 | 4.51920 | 92° | 62km/h | 15329m | 3.6m/s | -51.3°C | 4.2% | 118.6hPa | 2.5V | 08:30:00 | 01:19:03 | 00:00:00 | |
| DJ2DS-15 | 2026-09-03 00:15:35 | 56.48636 | 4.51920 | 93° | 62km/h | 15329m | 3.6m/s | -51.2°C | 4.2% | 118.6hPa | 2.5V | 00:00:00 | 01:19:03 | 00:00:00 | |
| DM0DOS-11 | 2026-09-03 00:15:31 | 56.48637 | 4.51607 | 90° | 58km/h | 15282m | 5.1m/s | -51°C | 4.1% | 119.5hPa | 2.5V | 08:30:00 | 01:18:52 | 00:00:00 | |
| DL1XH-west | 2026-09-03 00:15:29 | 56.48636 | 4.51746 | 90° | 64km/h | 15304m | 4.3m/s | -51.1°C | 0.8% | 119.1hPa | 2.5V | 18:12:15 | 01:18:57 | 00:00:00 | |
| DM0DOS-11 | 2026-09-03 00:15:19 | 56.48643 | 4.51359 | 95° | 60km/h | 15241m | 4.9m/s | -50.8°C | 4% | 120.2hPa | 2.6V | 08:30:00 | 01:18:43 | 00:00:00 | |
| DL1XH-west | 2026-09-03 00:15:19 | 56.48640 | 4.51414 | 95° | 62km/h | 15250m | 5.3m/s | -50.8°C | 0.6% | 120.1hPa | 2.5V | 18:12:15 | 01:18:45 | 00:00:00 | |
| DJ2DS-15 | 2026-09-03 00:15:15 | 56.48643 | 4.51359 | 96° | 57km/h | 15241m | 4.9m/s | -50.7°C | 4.0% | 120.2hPa | 2.6V | 00:00:00 | 01:18:43 | 08:30:00 | |
| DM0DOS-11 | 2026-09-03 00:15:08 | 56.48661 | 4.51104 | 94° | 55km/h | 15197m | 4.9m/s | -50.8°C | 4.1% | 121hPa | 2.5V | 08:30:00 | 01:18:33 | 00:00:00 | |
| DL1XH-west | 2026-09-03 00:15:07 | 56.48659 | 4.51128 | 96° | 53km/h | 15202m | 3.5m/s | -50.8°C | 0.8% | 121hPa | 2.5V | 18:12:15 | 01:18:34 | 00:00:00 | |
| DM0DOS-11 | 2026-09-03 00:15:00 | 56.48685 | 4.50828 | 99° | 58km/h | 15149m | 4m/s | -50.6°C | 4% | 121.9hPa | 2.5V | 08:30:00 | 01:18:22 | 00:00:00 | |
| DL1XH-west | 2026-09-03 00:14:56 | 56.48680 | 4.50880 | 100° | 57km/h | 15158m | 5.5m/s | -50.6°C | 0.8% | 121.8hPa | 2.6V | 18:12:15 | 01:18:24 | 00:00:00 | |
| DJ2DS-15 | 2026-09-03 00:14:55 | 56.48682 | 4.50854 | 99° | 64km/h | 15153m | 4.3m/s | -50.5°C | 4.1% | 121.8hPa | 2.5V | 00:00:00 | 01:18:23 | 00:00:00 | |
| DM0DOS-11 | 2026-09-03 00:14:49 | 56.48715 | 4.50584 | 103° | 66km/h | 15109m | 3.9m/s | -50.2°C | 3.9% | 122.7hPa | 2.5V | 08:30:00 | 01:18:13 | 00:00:00 | |
| DL1XH-west | 2026-09-03 00:14:46 | 56.48715 | 4.50584 | 104° | 66km/h | 15109m | 3.9m/s | -50.3°C | 0.7% | 122.7hPa | 2.5V | 18:12:15 | 01:18:13 | 00:00:00 | |
| DM0DOS-11 | 2026-09-03 00:14:40 | 56.48753 | 4.50252 | 104° | 68km/h | 15059m | 4.7m/s | -49.9°C | 3.9% | 123.6hPa | 2.5V | 08:30:00 | 01:18:02 | 00:00:00 | |
| DL1XH-west | 2026-09-03 00:14:36 | 56.48745 | 4.50313 | 102° | 68km/h | 15068m | 5m/s | -50°C | 0.7% | 123.5hPa | 2.6V | 18:12:15 | 01:18:04 | 00:00:00 | |
| DJ2DS-15 | 2026-09-03 00:14:35 | 56.48749 | 4.50282 | 103° | 71km/h | 15064m | 4.5m/s | -49.9°C | 3.8% | 123.5hPa | 2.6V | 00:00:00 | 01:18:03 | 00:00:00 | |
| DM0DOS-11 | 2026-09-03 00:14:29 | 56.48795 | 4.49939 | 100° | 68km/h | 15015m | 4.9m/s | -50.3°C | 4% | 124.5hPa | 2.6V | 08:30:00 | 01:17:52 | 00:00:00 | |
| DL1XH-west | 2026-09-03 00:14:26 | 56.48789 | 4.50003 | 102° | 73km/h | 15025m | 4.7m/s | -50.1°C | 0.8% | 124.3hPa | 2.5V | 18:12:15 | 01:17:54 | 00:00:00 | |
| DJ2DS-15 | 2026-09-03 00:14:22 | 56.48801 | 4.49879 | 98° | 66km/h | 15007m | 4.4m/s | -50.3°C | 1.4% | 124.6hPa | 2.5V | 00:00:00 | 00:00:00 | 00:00:00 | |
| DM0DOS-11 | 2026-09-03 00:14:19 | 56.48830 | 4.49608 | 99° | 80km/h | 14972m | 5.2m/s | -50.2°C | 3.9% | 125.2hPa | 2.5V | 08:30:00 | 01:17:42 | 00:00:00 | |
| DL1XH-west | 2026-09-03 00:14:16 | 56.48823 | 4.49681 | 102° | 80km/h | 14981m | 4.8m/s | -50.3°C | 0.8% | 125.1hPa | 2.5V | 18:12:15 | 01:17:44 | 00:00:00 | |
| DJ2DS-15 | 2026-09-03 00:14:15 | 56.48827 | 4.49645 | 101° | 78km/h | 14977m | 3.8m/s | -50.2°C | 4.0% | 125.1hPa | 2.5V | 00:00:00 | 01:17:43 | 00:00:00 | |
| DM0DOS-11 | 2026-09-03 00:14:08 | 56.48866 | 4.49253 | 99° | 78km/h | 14929m | 4.1m/s | -50.2°C | 4.1% | 126.1hPa | 2.5V | 08:30:00 | 01:17:32 | 00:00:00 | |
| DL1XH-west | 2026-09-03 00:14:07 | 56.48859 | 4.49322 | 101° | 77km/h | 14937m | 4.6m/s | -50.3°C | 0.8% | 125.9hPa | 2.6V | 18:12:15 | 01:17:34 | 00:00:00 | |
| DL1XH-west | 2026-09-03 00:13:55 | 56.48896 | 4.48936 | 99° | 75km/h | 14891m | 4.1m/s | -50.4°C | 0.8% | 126.8hPa | 2.5V | 18:12:15 | 01:17:23 | 00:00:00 | |
| DJ2DS-15 | 2026-09-03 00:13:55 | 56.48895 | 4.48936 | 99° | 73km/h | 14892m | 4.1m/s | -50.3°C | 3.9% | 126.8hPa | 2.6V | 00:00:00 | 01:17:23 | 00:00:00 | |
| DM0DOS-11 | 2026-09-03 00:13:54 | 56.48900 | 4.48869 | 96° | 75km/h | 14882m | 4.3m/s | -50.5°C | 4% | 127hPa | 2.6V | 08:30:00 | 01:17:21 | 00:00:00 | |
| DM0DOS-11 | 2026-09-03 00:13:48 | 56.48923 | 4.48536 | 101° | 77km/h | 14840m | 3.9m/s | -50.5°C | 4.1% | 127.8hPa | 2.5V | 08:30:00 | 01:17:11 | 00:00:00 | |
| DL1XH-west | 2026-09-03 00:13:44 | 56.48919 | 4.48570 | 101° | 77km/h | 14844m | 4.6m/s | -50.5°C | 0.9% | 127.8hPa | 2.6V | 18:12:15 | 01:17:12 | 00:00:00 | |
| DM0DOS-11 | 2026-09-03 00:13:35 | 56.48959 | 4.48203 | 101° | 78km/h | 14797m | 3.9m/s | -50.8°C | 4.1% | 128.6hPa | 2.6V | 08:30:00 | 01:17:01 | 00:00:00 | |
| DL1XH-west | 2026-09-03 00:13:33 | 56.48959 | 4.48203 | 102° | 78km/h | 14797m | 3.9m/s | -50.8°C | 0.9% | 128.7hPa | 2.6V | 18:12:15 | 01:17:01 | 00:00:00 | |
| DM0DOS-11 | 2026-09-03 00:13:26 | 56.49005 | 4.47848 | 106° | 86km/h | 14755m | 4.7m/s | -51.1°C | 4.2% | 129.5hPa | 2.5V | 08:30:00 | 01:16:51 | 00:00:00 | |
| DL1XH-west | 2026-09-03 00:13:22 | 56.49011 | 4.47810 | 107° | 88km/h | 14751m | 3.9m/s | -51.1°C | 1% | 129.6hPa | 2.5V | 18:12:15 | 01:16:50 | 00:00:00 | |
| DJ2DS-15 | 2026-09-03 00:13:15 | 56.49054 | 4.47542 | 103° | 93km/h | 14720m | 4.0m/s | -51.0°C | 4.2% | 130.2hPa | 2.5V | 00:00:00 | 01:16:43 | 00:00:00 | |
| DM0DOS-11 | 2026-09-03 00:13:14 | 56.49068 | 4.47419 | 100° | 91km/h | 14706m | 4.8m/s | -51.3°C | 4.3% | 130.5hPa | 2.6V | 08:30:00 | 01:16:40 | 00:00:00 | |
| DL1XH-west | 2026-09-03 00:13:11 | 56.49072 | 4.47378 | 100° | 91km/h | 14701m | 4.2m/s | -51.3°C | 1.1% | 130.6hPa | 2.6V | 18:12:15 | 01:16:39 | 00:00:00 | |
| DM0DOS-11 | 2026-09-03 00:13:03 | 56.49112 | 4.47007 | 99° | 91km/h | 14662m | 4.2m/s | -51.3°C | 4.3% | 131.3hPa | 2.5V | 08:30:00 | 01:16:30 | 00:00:00 | |
| DL1XH-west | 2026-09-03 00:13:01 | 56.49118 | 4.46922 | 97° | 95km/h | 14654m | 4.3m/s | -51.4°C | 1.1% | 131.5hPa | 2.5V | 18:12:15 | 01:16:28 | 00:00:00 | |
| DJ2DS-15 | 2026-09-03 00:12:55 | 56.49127 | 4.46707 | 94° | 89km/h | 14633m | 4.2m/s | -51.5°C | 4.4% | 131.9hPa | 2.6V | 00:00:00 | 01:16:23 | 00:00:00 | |
| DM0DOS-11 | 2026-09-03 00:12:53 | 56.49134 | 4.46537 | 95° | 91km/h | 14615m | 4.7m/s | -51.6°C | 4.3% | 132.3hPa | 2.6V | 08:30:00 | 01:16:19 | 00:00:00 | |
| DL1XH-west | 2026-09-03 00:12:50 | 56.49137 | 4.46496 | 96° | 91km/h | 14611m | 4m/s | -51.6°C | 1.1% | 132.4hPa | 2.6V | 18:12:15 | 01:16:18 | 00:00:00 | |
| DM0DOS-11 | 2026-09-03 00:12:43 | 56.49151 | 4.46124 | 92° | 89km/h | 14572m | 4.5m/s | -51.5°C | 4.3% | 133.2hPa | 2.5V | 08:30:00 | 01:16:09 | 00:00:00 | |
| DL1XH-west | 2026-09-03 00:12:40 | 56.49153 | 4.46045 | 92° | 84km/h | 14563m | 4.1m/s | -51.6°C | 1.2% | 133.4hPa | 2.5V | 18:12:15 | 01:16:07 | 00:00:00 | |
| DL1XH-west | 2026-09-03 00:12:28 | 56.49162 | 4.45615 | 89° | 84km/h | 14518m | 3.9m/s | -51.8°C | 1.2% | 134.4hPa | 2.5V | 18:12:15 | 01:15:56 | 00:00:00 | |
| DM0DOS-11 | 2026-09-03 00:12:23 | 56.49162 | 4.45344 | 90° | 84km/h | 14487m | 3.7m/s | -51.7°C | 4.4% | 135hPa | 2.5V | 08:30:00 | 01:15:49 | 00:00:00 | |
| DL1XH-west | 2026-09-03 00:12:18 | 56.49163 | 4.45117 | 90° | 82km/h | 14461m | 4.7m/s | -51.6°C | 1.2% | 135.6hPa | 2.6V | 18:12:15 | 01:15:43 | 00:00:00 | |
| DL1XH-west | 2026-09-03 00:12:06 | 56.49172 | 4.44717 | 93° | 80km/h | 14414m | 4.2m/s | -51.7°C | 1.1% | 136.5hPa | 2.5V | 18:12:15 | 01:15:32 | 00:00:00 | |
| DM0DOS-11 | 2026-09-03 00:11:56 | 56.49206 | 4.44267 | 100° | 78km/h | 14358m | 4.1m/s | -51.7°C | 4.5% | 137.7hPa | 2.5V | 08:30:00 | 01:15:19 | 00:00:00 | |
| DL1XH-west | 2026-09-03 00:11:55 | 56.49191 | 4.44405 | 100° | 75km/h | 14375m | 4m/s | -51.7°C | 1.2% | 137.3hPa | 2.6V | 18:12:15 | 01:15:23 | 00:00:00 | |
| DM0DOS-11 | 2026-09-03 00:11:46 | 56.49241 | 4.43872 | 102° | 78km/h | 14312m | 4m/s | -51.6°C | 4.4% | 138.7hPa | 2.6V | 08:30:00 | 01:15:08 | 00:00:00 | |
| DL1XH-west | 2026-09-03 00:11:45 | 56.49225 | 4.44050 | 98° | 80km/h | 14333m | 4.5m/s | -51.8°C | 1.2% | 138.2hPa | 2.5V | 18:12:15 | 01:15:13 | 00:00:00 | |
| DL1XH-west | 2026-09-03 00:11:35 | 56.49279 | 4.43587 | 104° | 80km/h | 14277m | 4.9m/s | -51.3°C | 1.1% | 139.4hPa | 2.5V | 18:12:15 | 01:15:00 | 00:00:00 | |
| DM0DOS-11 | 2026-09-03 00:11:35 | 56.49289 | 4.43518 | 104° | 77km/h | 14268m | 4.3m/s | -51.2°C | 4.4% | 139.6hPa | 2.5V | 08:30:00 | 01:14:58 | 00:00:00 | |
| DJ2DS-15 | 2026-09-03 00:11:35 | 56.49264 | 4.43694 | 104° | 80km/h | 14290m | 5.1m/s | -51.4°C | 4.4% | 139.1hPa | 2.6V | 00:00:00 | 01:15:03 | 00:00:00 | |
| DM0DOS-11 | 2026-09-03 00:11:25 | 56.49340 | 4.43165 | 105° | 80km/h | 14227m | 4.7m/s | -50.9°C | 4.3% | 140.5hPa | 2.6V | 08:30:00 | 01:14:48 | 00:00:00 | |
| DL1XH-west | 2026-09-03 00:11:22 | 56.49328 | 4.43238 | 105° | 84km/h | 14235m | 3.8m/s | -50.9°C | 1.2% | 140.4hPa | 2.5V | 18:12:15 | 01:14:50 | 00:00:00 | |
| DJ2DS-15 | 2026-09-03 00:11:22 | 56.49334 | 4.43201 | 105° | 82km/h | 14231m | 3.2m/s | -50.9°C | 1.7% | 140.4hPa | 2.5V | 00:00:00 | 00:00:00 | 00:00:00 | |
| DM0DOS-11 | 2026-09-03 00:11:15 | 56.49398 | 4.42809 | 105° | 82km/h | 14186m | 4.7m/s | -50.5°C | 4.3% | 141.3hPa | 2.5V | 08:30:00 | 01:14:38 | 00:00:00 | |
| DL1XH-west | 2026-09-03 00:11:12 | 56.49386 | 4.42883 | 108° | 84km/h | 14194m | 4.5m/s | -50.6°C | 1.1% | 141.2hPa | 2.6V | 18:12:15 | 01:14:40 | 00:00:00 | |
| DM0DOS-11 | 2026-09-03 00:11:05 | 56.49456 | 4.42453 | 106° | 84km/h | 14143m | 4.3m/s | -50.2°C | 4.1% | 0hPa | 2.6V | 08:30:00 | 01:14:28 | 00:00:00 | |
| DL1XH-west | 2026-09-03 00:11:02 | 56.49445 | 4.42526 | 107° | 84km/h | 14152m | 3.3m/s | -50.3°C | 1% | 142.2hPa | 2.5V | 18:12:15 | 01:14:30 | 00:00:00 | |
| DJ2DS-15 | 2026-09-03 00:10:55 | 56.49489 | 4.42263 | 107° | 89km/h | 14120m | 4.3m/s | -50.2°C | 4.1% | 142.8hPa | 2.5V | 00:00:00 | 01:14:23 | 00:00:00 | |
| DM0DOS-11 | 2026-09-03 00:10:54 | 56.49522 | 4.42079 | 106° | 84km/h | 14099m | 4.7m/s | -50.3°C | 4.1% | 0hPa | 2.5V | 08:30:00 | 01:14:18 | 00:00:00 | |
| DL1XH-west | 2026-09-03 00:10:52 | 56.49508 | 4.42152 | 109° | 86km/h | 14107m | 2.9m/s | -50.3°C | 1% | 143.1hPa | 2.6V | 18:12:15 | 01:14:20 | 00:00:00 | |
| DJ2DS-15 | 2026-09-03 00:10:46 | 56.49549 | 4.41887 | 101° | 89km/h | 14078m | 4.0m/s | -50.6°C | 1.6% | 143.7hPa | 2.5V | 00:00:00 | 00:00:00 | 00:00:00 | |
| DM0DOS-11 | 2026-09-03 00:10:44 | 56.49574 | 4.41675 | 102° | 97km/h | 14058m | 3.1m/s | -50.7°C | 0% | 0hPa | 2.5V | 08:30:00 | 01:14:08 | 00:00:00 | |
| DL1XH-west | 2026-09-03 00:10:42 | 56.49563 | 4.41761 | 102° | 97km/h | 14066m | 3.7m/s | -50.7°C | 1% | 144hPa | 2.5V | 18:12:15 | 01:14:10 | 00:00:00 | |
| DJ2DS-15 | 2026-09-03 00:10:35 | 56.49604 | 4.41469 | 108° | 93km/h | 14039m | 4.9m/s | -50.6°C | 4.2% | 144.6hPa | 2.6V | 00:00:00 | 01:14:03 | 00:00:00 | |
| DM0DOS-11 | 2026-09-03 00:10:33 | 56.49636 | 4.41274 | 107° | 93km/h | 14018m | 3.4m/s | 0°C | 0% | 0hPa | 2.6V | 08:30:00 | 01:13:58 | 00:00:00 | |
| DL1XH-west | 2026-09-03 00:10:31 | 56.49629 | 4.41314 | 107° | 91km/h | 14022m | 4.4m/s | -50.6°C | 1% | 144.9hPa | 2.6V | 18:12:15 | 01:13:59 | 00:00:00 | |
| DM0DOS-11 | 2026-09-03 00:10:22 | 56.49713 | 4.40868 | 108° | 95km/h | 13979m | 4.2m/s | 0°C | 0% | 0hPa | 2.5V | 00:00:00 | 01:13:48 | 00:00:00 | |
| DL1XH-west | 2026-09-03 00:10:20 | 56.49713 | 4.40868 | 109° | 95km/h | 13979m | 4.2m/s | -50.3°C | 1% | 145.9hPa | 2.5V | 18:12:15 | 01:13:48 | 00:00:00 | |
| DM0DOS-11 | 2026-09-03 00:10:12 | 56.49805 | 4.40355 | 109° | 95km/h | 13930m | 3.2m/s | 0°C | 0% | 0hPa | 2.5V | 00:00:00 | 01:13:36 | 00:00:00 | |
| DL1XH-west | 2026-09-03 00:10:09 | 56.49798 | 4.40396 | 109° | 97km/h | 13934m | 3.5m/s | -49.9°C | 1% | 147hPa | 2.6V | 18:12:15 | 01:13:37 | 00:00:00 | |
| DL1XH-west | 2026-09-03 00:09:58 | 56.49884 | 4.39944 | 109° | 97km/h | 13890m | 3.9m/s | -50°C | 1% | 147.9hPa | 2.5V | 18:12:15 | 01:13:26 | 00:00:00 | |
| DL1XH-west | 2026-09-03 00:09:47 | 56.49967 | 4.39483 | 106° | 100km/h | 13845m | 4.7m/s | -50°C | 1.1% | 149hPa | 2.5V | 18:12:15 | 01:13:15 | 00:00:00 | |
| DL1XH-west | 2026-09-03 00:09:37 | 56.50035 | 4.39044 | 106° | 99km/h | 13804m | 3.6m/s | -49.9°C | 1.1% | 149.9hPa | 2.5V | 18:12:15 | 01:13:05 | 00:00:00 | |
| DL1XH-west | 2026-09-03 00:09:27 | 56.50115 | 4.38534 | 107° | 91km/h | 13754m | 4.5m/s | -49.9°C | 1% | 151hPa | 2.5V | 18:12:15 | 01:12:53 | 00:00:00 | |
| DL1XH-west | 2026-09-03 00:09:16 | 56.50175 | 4.38158 | 106° | 99km/h | 13719m | 2.5m/s | -49.8°C | 1.2% | 151.9hPa | 2.5V | 18:12:15 | 01:12:44 | 00:00:00 | |
| DL1XH-west | 2026-09-03 00:09:05 | 56.50246 | 4.37697 | 105° | 91km/h | 13674m | 4.2m/s | -50°C | 1.2% | 152.9hPa | 2.5V | 18:12:15 | 01:12:33 | 00:00:00 | |
| DL1XH-west | 2026-09-03 00:08:55 | 56.50303 | 4.37232 | 102° | 99km/h | 13630m | 3.9m/s | -50.1°C | 1.2% | 154hPa | 2.6V | 18:12:15 | 01:12:22 | 00:00:00 | |
| DL1XH-west | 2026-09-03 00:08:44 | 56.50354 | 4.36746 | 99° | 97km/h | 13586m | 4.6m/s | -50.4°C | 1.3% | 155hPa | 2.5V | 18:12:15 | 01:12:11 | 00:00:00 | |
| DL1XH-west | 2026-09-03 00:08:33 | 56.50397 | 4.36263 | 98° | 97km/h | 13542m | 3.2m/s | -50.4°C | 1.2% | 156.1hPa | 2.6V | 18:12:15 | 01:12:00 | 00:00:00 | |
| DL1XH-west | 2026-09-03 00:08:22 | 56.50428 | 4.35829 | 97° | 93km/h | 13504m | 3.6m/s | -50.6°C | 1.3% | 157hPa | 2.5V | 18:12:15 | 01:11:50 | 00:00:00 | |
| DL1XH-west | 2026-09-03 00:08:12 | 56.50454 | 4.35405 | 97° | 91km/h | 13463m | 4.6m/s | -50.9°C | 1.2% | 158hPa | 2.6V | 18:12:15 | 01:11:40 | 00:00:00 | |
| DL1XH-west | 2026-09-03 00:08:01 | 56.50489 | 4.34946 | 100° | 91km/h | 13418m | 4.8m/s | -51°C | 1.3% | 159.1hPa | 2.5V | 18:12:15 | 01:11:29 | 00:00:00 | |
| DL1XH-west | 2026-09-03 00:07:52 | 56.50530 | 4.34536 | 101° | 89km/h | 13378m | 3.8m/s | -50.8°C | 1.2% | 160.1hPa | 2.7V | 18:12:15 | 01:11:19 | 00:00:00 | |
| DJ2DS-15 | 2026-09-03 00:07:45 | 56.50558 | 4.34294 | 101° | 88km/h | 13354m | 3.1m/s | -50.7°C | 1.8% | 160.7hPa | 2.5V | 00:00:00 | 00:00:00 | 00:00:00 | |
| DL1XH-west | 2026-09-03 00:07:41 | 56.50582 | 4.34098 | 105° | 89km/h | 13332m | 4.4m/s | -50.6°C | 1.2% | 161.2hPa | 2.5V | 18:12:15 | 01:11:08 | 00:00:00 | |
| DL1XH-west | 2026-09-03 00:07:30 | 56.50644 | 4.33696 | 106° | 91km/h | 13290m | 4.1m/s | -50.5°C | 1.3% | 162.2hPa | 2.6V | 18:12:15 | 01:10:58 | 00:00:00 | |
| DL1XH-west | 2026-09-03 00:07:20 | 56.50730 | 4.33198 | 106° | 100km/h | 13240m | 3.6m/s | -50.1°C | 1.2% | 163.5hPa | 2.5V | 18:12:15 | 01:10:46 | 00:00:00 | |
| DL1XH-west | 2026-09-03 00:07:09 | 56.50808 | 4.32761 | 108° | 106km/h | 13195m | 3.7m/s | -50.8°C | 1.3% | 164.6hPa | 2.5V | 18:12:15 | 01:10:36 | 00:00:00 | |
| DL1XH-west | 2026-09-03 00:06:59 | 56.50872 | 4.32358 | 106° | 111km/h | 13152m | 4.6m/s | -51.1°C | 1.4% | 165.7hPa | 2.6V | 18:12:15 | 01:10:27 | 00:00:00 | |
| DL1XH-west | 2026-09-03 00:06:49 | 56.50956 | 4.31710 | 101° | 110km/h | 13099m | 3.5m/s | -51°C | 1.7% | 167.1hPa | 2.7V | 18:12:15 | 01:10:14 | 00:00:00 | |
| DL1XH-west | 2026-09-03 00:06:37 | 56.51015 | 4.31203 | 102° | 113km/h | 13060m | 3.4m/s | -50.9°C | 1.7% | 168hPa | 2.5V | 18:12:15 | 01:10:04 | 00:00:00 | |
| DL1XH-west | 2026-09-03 00:06:25 | 56.51073 | 4.30652 | 100° | 115km/h | 13017m | 3.5m/s | -51.1°C | 1.9% | 169.2hPa | 2.5V | 18:12:15 | 01:09:53 | 00:00:00 | |
| DL1XH-west | 2026-09-03 00:06:14 | 56.51123 | 4.30076 | 101° | 117km/h | 12974m | 4.1m/s | -51.2°C | 1.8% | 170.3hPa | 2.7V | 18:12:15 | 01:09:42 | 00:00:00 | |
| DL1XH-west | 2026-09-03 00:06:04 | 56.51169 | 4.29500 | 97° | 117km/h | 12932m | 3.2m/s | -51.1°C | 2% | 171.4hPa | 2.7V | 18:12:15 | 01:09:31 | 00:00:00 | |
| DL1XH-west | 2026-09-03 00:05:52 | 56.51202 | 4.28920 | 94° | 113km/h | 12888m | 4.1m/s | -51.1°C | 2.4% | 172.5hPa | 2.5V | 18:12:15 | 01:09:20 | 00:00:00 | |
| DL1XH-west | 2026-09-03 00:05:42 | 56.51224 | 4.28404 | 95° | 110km/h | 12848m | 3.9m/s | -51.4°C | 2.6% | 173.6hPa | 2.7V | 18:12:15 | 01:09:10 | 00:00:00 | |
| DL1XH-west | 2026-09-03 00:05:32 | 56.51246 | 4.27915 | 92° | 110km/h | 12808m | 4.2m/s | -51.7°C | 2.7% | 174.7hPa | 2.5V | 18:12:15 | 01:09:00 | 00:00:00 | |
| DL1XH-west | 2026-09-03 00:05:22 | 56.51266 | 4.26778 | 93° | 99km/h | 12712m | 4.1m/s | -52.4°C | 3.1% | 177.3hPa | 2.5V | 18:12:15 | 01:08:36 | 00:00:00 | |
| DL1XH-west | 2026-09-03 00:05:08 | 56.51267 | 4.26732 | 94° | 99km/h | 12708m | 3.1m/s | -52.4°C | 3.1% | 177.4hPa | 2.5V | 18:12:15 | 01:08:35 | 00:00:00 | |
| DL1XH-west | 2026-09-03 00:04:56 | 56.51302 | 4.26186 | 98° | 95km/h | 12660m | 3.9m/s | -52.6°C | 3.5% | 178.7hPa | 2.5V | 18:12:15 | 01:08:23 | 00:00:00 | |
| DL1XH-west | 2026-09-03 00:04:46 | 56.51343 | 4.25708 | 100° | 99km/h | 12616m | 3.6m/s | -53°C | 4% | 180hPa | 2.5V | 18:12:15 | 01:08:12 | 00:00:00 | |
| DL1XH-west | 2026-09-03 00:04:35 | 56.51392 | 4.25315 | 105° | 99km/h | 12579m | 5.1m/s | -53°C | 4.2% | 181hPa | 2.7V | 18:12:15 | 01:08:03 | 00:00:00 | |
| DL1XH-west | 2026-09-03 00:04:25 | 56.51455 | 4.24862 | 106° | 104km/h | 12536m | 4.7m/s | -52.8°C | 4.5% | 182.3hPa | 2.5V | 18:12:15 | 01:07:53 | 00:00:00 | |
| DL1XH-west | 2026-09-03 00:04:15 | 56.51552 | 4.24297 | 107° | 113km/h | 12485m | 4.4m/s | -52.4°C | 4.7% | 183.7hPa | 2.6V | 18:12:15 | 01:07:41 | 00:00:00 | |
| DL1XH-west | 2026-09-03 00:04:02 | 56.51648 | 4.23751 | 109° | 115km/h | 12440m | 4.6m/s | -52°C | 5.1% | 185hPa | 2.5V | 18:12:15 | 01:07:30 | 00:00:00 | |
| DL1XH-west | 2026-09-03 00:03:52 | 56.51749 | 4.23189 | 108° | 117km/h | 12394m | 4.5m/s | -51.8°C | 5.6% | 186.3hPa | 2.5V | 18:12:15 | 01:07:19 | 00:00:00 | |
| DL1XH-west | 2026-09-03 00:03:41 | 56.51905 | 4.22341 | 109° | 126km/h | 12324m | 4.4m/s | -51.4°C | 6.5% | 188.2hPa | 2.7V | 18:12:15 | 01:07:03 | 00:00:00 | |
| DL1XH-west | 2026-09-03 00:03:30 | 56.51957 | 4.22061 | 109° | 131km/h | 12303m | 3.5m/s | -51.5°C | 6.8% | 188.9hPa | 2.6V | 18:12:15 | 01:06:58 | 00:00:00 | |
| DL1XH-west | 2026-09-03 00:03:20 | 56.52065 | 4.21432 | 107° | 133km/h | 12256m | 4.1m/s | -51.7°C | 7.4% | 190.2hPa | 2.6V | 18:12:15 | 01:06:47 | 00:00:00 | |
| DL1XH-west | 2026-09-03 00:03:09 | 56.52165 | 4.20783 | 105° | 133km/h | 12210m | 3.5m/s | -51.8°C | 7.9% | 191.5hPa | 2.5V | 18:12:15 | 01:06:36 | 00:00:00 | |
| DL1XH-west | 2026-09-03 00:02:59 | 56.52243 | 4.20172 | 103° | 137km/h | 12170m | 3.9m/s | -51.9°C | 8% | 192.8hPa | 2.7V | 18:12:15 | 01:06:26 | 00:00:00 | |
| DL1XH-west | 2026-09-03 00:02:49 | 56.52317 | 4.19497 | 101° | 139km/h | 12127m | 3.5m/s | -52°C | 8.1% | 194hPa | 2.7V | 18:12:15 | 01:06:15 | 00:00:00 | |
| DL1XH-west | 2026-09-03 00:02:37 | 56.52376 | 4.18876 | 99° | 137km/h | 12088m | 4.4m/s | -51.9°C | 8.1% | 195.3hPa | 2.7V | 18:12:15 | 01:06:05 | 00:00:00 | |
| DJ2DS-15 | 2026-09-03 00:02:36 | 56.52498 | 4.17423 | 98° | 137km/h | 11998m | 3.3m/s | -51.7°C | 9.6% | 198.0hPa | 2.7V | 00:00:00 | 01:05:42 | 00:00:00 | |
| DL1XH-west | 2026-09-03 00:02:27 | 56.52433 | 4.18248 | 99° | 139km/h | 12048m | 4m/s | -52.1°C | 8% | 196.5hPa | 2.6V | 18:12:15 | 01:05:55 | 00:00:00 | |
| DL1XH-west | 2026-09-03 00:02:17 | 56.52489 | 4.17548 | 98° | 139km/h | 12005m | 3.3m/s | -51.8°C | 7.9% | 197.7hPa | 2.6V | 18:12:15 | 01:05:44 | 00:00:00 | |
| DJ2DS-15 | 2026-09-03 00:02:10 | 56.52599 | 4.16189 | 101° | 131km/h | 11918m | 3.3m/s | -51.3°C | 9.5% | 200.4hPa | 2.6V | 00:00:00 | 01:05:22 | 00:00:00 | |
| DL1XH-west | 2026-09-03 00:02:07 | 56.52540 | 4.16860 | 98° | 135km/h | 11962m | 3.7m/s | -51.5°C | 7.7% | 199.1hPa | 2.6V | 18:12:15 | 01:05:33 | 00:00:00 | |
| DJ2DS-15 | 2026-09-03 00:01:58 | 56.52657 | 4.15587 | 100° | 128km/h | 11878m | 3.2m/s | -51.0°C | 6.1% | 201.7hPa | 2.6V | 00:00:00 | 00:00:00 | 00:00:00 | |
| DL1XH-west | 2026-09-03 00:01:54 | 56.52600 | 4.16189 | 100° | 135km/h | 11917m | 3.4m/s | -51.4°C | 7.8% | 200.4hPa | 2.6V | 18:12:15 | 01:05:22 | 00:00:00 | |
| DJ2DS-15 | 2026-09-03 00:01:47 | 56.52715 | 4.15002 | 101° | 131km/h | 11839m | 4.0m/s | -50.7°C | 9.5% | 202.8hPa | 2.7V | 00:00:00 | 01:05:02 | 00:00:00 | |
| DL1XH-west | 2026-09-03 00:01:43 | 56.52663 | 4.15529 | 100° | 130km/h | 11874m | 4.8m/s | -51°C | 8.1% | 201.8hPa | 2.7V | 18:12:15 | 01:05:11 | 00:00:00 | |
| DL1XH-west | 2026-09-03 00:01:33 | 56.52734 | 4.14825 | 102° | 131km/h | 11827m | 3.7m/s | -50.9°C | 8.6% | 203.3hPa | 2.7V | 18:12:15 | 01:04:59 | 00:00:00 | |
| DJ2DS-15 | 2026-09-03 00:01:23 | 56.52834 | 4.13816 | 99° | 142km/h | 11761m | 4.3m/s | -52.5°C | 11.2% | 205.3hPa | 2.7V | 00:00:00 | 01:04:42 | 00:00:00 | |
| DL1XH-west | 2026-09-03 00:01:22 | 56.52785 | 4.14299 | 100° | 130km/h | 11792m | 3.2m/s | -51.4°C | 9.2% | 204.3hPa | 2.7V | 18:12:15 | 01:04:50 | 00:00:00 | |
| DJ2DS-15 | 2026-09-03 00:01:16 | 56.52859 | 4.13434 | 96° | 141km/h | 11736m | 4.4m/s | -52.3°C | 7.3% | 206.2hPa | 2.6V | 00:00:00 | 00:00:00 | 00:00:00 | |
| DL1XH-west | 2026-09-03 00:01:12 | 56.52843 | 4.13691 | 97° | 141km/h | 11752m | 5.1m/s | -52.5°C | 9.8% | 205.6hPa | 2.6V | 18:12:15 | 01:04:40 | 00:00:00 | |
| DL1XH-west | 2026-09-03 00:01:02 | 56.52900 | 4.12916 | 99° | 141km/h | 11702m | 3.7m/s | -52.2°C | 10.4% | 207.2hPa | 2.6V | 18:12:15 | 01:04:28 | 00:00:00 | |
| DJ2DS-15 | 2026-09-03 00:00:54 | 56.52934 | 4.12532 | 99° | 142km/h | 11678m | 3.9m/s | -52.7°C | 12.3% | 207.9hPa | 2.6V | 00:00:00 | 01:04:22 | 00:00:00 | |
| DL1XH-west | 2026-09-03 00:00:51 | 56.52950 | 4.12339 | 99° | 144km/h | 11665m | 4.4m/s | -52.9°C | 11.1% | 208.4hPa | 2.6V | 18:12:15 | 01:04:19 | 00:00:00 | |
| DL1XH-west | 2026-09-03 00:00:41 | 56.53035 | 4.11439 | 100° | 139km/h | 11609m | 3.4m/s | -53.1°C | 11.8% | 210.3hPa | 2.7V | 18:12:15 | 01:04:05 | 00:00:00 | |
| DJ2DS-15 | 2026-09-03 00:00:40 | 56.53051 | 4.11251 | 99° | 135km/h | 11597m | 3.6m/s | -53.1°C | 13.0% | 210.6hPa | 2.7V | 00:00:00 | 01:04:02 | 00:00:00 | |
| DJ2DS-15 | 2026-09-03 00:00:38 | 56.53062 | 4.11127 | 98° | 135km/h | 11589m | 4.1m/s | -53.4°C | 9.1% | 210.9hPa | 2.7V | 00:00:00 | 00:00:00 | 00:00:00 | |
| DL1XH-west | 2026-09-03 00:00:30 | 56.53104 | 4.10702 | 100° | 137km/h | 11561m | 3.7m/s | -53.9°C | 13.8% | 211.9hPa | 2.7V | 18:12:15 | 01:03:53 | 00:00:00 | |
| DL1XH-west | 2026-09-03 00:00:19 | 56.53146 | 4.10214 | 99° | 135km/h | 11528m | 4.7m/s | -54°C | 14.7% | 212.9hPa | 2.6V | 18:12:15 | 01:03:45 | 00:00:00 | |
| DJ2DS-15 | 2026-09-03 00:00:14 | 56.53161 | 4.10030 | 99° | 135km/h | 11516m | 4.0m/s | -54.0°C | 16.5% | 213.2hPa | 2.7V | 00:00:00 | 01:03:42 | 08:30:00 | |
| DL1XH-west | 2026-09-03 00:00:09 | 56.53210 | 4.09425 | 98° | 133km/h | 11475m | 3.2m/s | -53.8°C | 16.3% | 214.6hPa | 2.6V | 18:12:15 | 01:03:32 | 00:00:00 | |
| DL1XH-west | 2026-09-02 23:59:58 | 56.53247 | 4.08990 | 99° | 139km/h | 11446m | 4.6m/s | -53.9°C | 18.2% | 0hPa | 2.7V | 18:12:15 | 01:03:25 | 00:00:00 | |
| DJ2DS-15 | 2026-09-02 23:59:57 | 56.53252 | 4.08928 | 98° | 139km/h | 11442m | 3.7m/s | -54.0°C | 13.8% | 215.8hPa | 2.7V | 00:00:00 | 00:00:00 | 00:00:00 | |
| DJ2DS-15 | 2026-09-02 23:59:54 | 56.53262 | 4.08801 | 98° | 142km/h | 11433m | 3.7m/s | -53.9°C | 19.4% | 216.0hPa | 2.7V | 00:00:00 | 01:03:22 | 00:00:00 | |
| DL1XH-west | 2026-09-02 23:59:47 | 56.53306 | 4.08284 | 99° | 144km/h | 11399m | 5.1m/s | -54.1°C | 21% | 0hPa | 2.7V | 18:12:15 | 01:03:14 | 00:00:00 | |
| DL1XH-west | 2026-09-02 23:59:35 | 56.53365 | 4.07585 | 99° | 139km/h | 11354m | 4m/s | -54.7°C | 24.1% | 0hPa | 2.7V | 18:12:15 | 01:03:03 | 00:00:00 | |
| DJ2DS-15 | 2026-09-02 23:59:34 | 56.53370 | 4.07521 | 99° | 135km/h | 11350m | 3.8m/s | -54.6°C | 24.5% | 218.9hPa | 2.6V | 00:00:00 | 01:03:02 | 00:00:00 | |
| DL1XH-west | 2026-09-02 23:59:25 | 56.53427 | 4.06904 | 101° | 135km/h | 11309m | 5m/s | 0°C | 0% | 0hPa | 2.6V | 18:12:15 | 01:02:52 | 00:00:00 | |
| DL1XH-west | 2026-09-02 23:59:14 | 56.53497 | 4.06243 | 101° | 137km/h | 11265m | 4.6m/s | 0°C | 0% | 0hPa | 2.7V | 18:12:15 | 01:02:41 | 00:00:00 | |
| DJ2DS-15 | 2026-09-02 23:58:54 | 56.53629 | 4.05058 | 102° | 137km/h | 11191m | 2.8m/s | -56.1°C | 38.0% | 224.4hPa | 2.7V | 00:00:00 | 01:02:22 | 00:00:00 | |
| DJ2DS-15 | 2026-09-02 23:58:34 | 56.53756 | 4.03833 | 100° | 135km/h | 11115m | 3.4m/s | -56.3°C | 39.5% | 227.1hPa | 2.7V | 00:00:00 | 01:02:02 | 00:00:00 | |
| DJ2DS-15 | 2026-09-02 23:58:14 | 56.53889 | 4.02620 | 102° | 137km/h | 11041m | 3.7m/s | -56.0°C | 40.0% | 229.7hPa | 2.7V | 00:00:00 | 01:01:42 | 00:00:00 | |
| DJ2DS-15 | 2026-09-02 23:58:08 | 56.53927 | 4.02251 | 100° | 137km/h | 11019m | 4.5m/s | -55.9°C | 30.8% | 230.6hPa | 2.7V | 00:00:00 | 00:00:00 | 00:00:00 | |
| DJ2DS-15 | 2026-09-02 23:57:54 | 56.54009 | 4.01382 | 100° | 137km/h | 10966m | 3.3m/s | -55.7°C | 39.0% | 232.5hPa | 2.7V | 00:00:00 | 01:01:22 | 00:00:00 | |
| DJ2DS-15 | 2026-09-02 23:57:34 | 56.54111 | 4.00148 | 99° | 128km/h | 10893m | 3.2m/s | -55.5°C | 40.3% | 235.1hPa | 2.7V | 00:00:00 | 01:01:02 | 00:00:00 | |
| DJ2DS-15 | 2026-09-02 23:57:14 | 56.54222 | 3.98995 | 101° | 126km/h | 10817m | 3.7m/s | -55.3°C | 43.3% | 238.0hPa | 2.7V | 00:00:00 | 01:00:42 | 08:30:00 | |
| DJ2DS-15 | 2026-09-02 23:56:54 | 56.54339 | 3.97864 | 101° | 122km/h | 10739m | 3.7m/s | -54.9°C | 50.2% | 240.9hPa | 0V | 00:00:00 | 01:00:22 | 00:00:00 | |
| DJ2DS-15 | 2026-09-02 23:56:34 | 56.54458 | 3.96761 | 103° | 120km/h | 10653m | 4.3m/s | 0°C | 0% | 0hPa | 0V | 00:00:00 | 01:00:02 | 00:00:00 | |
| DJ2DS-15 | 2026-09-02 23:56:20 | 56.54552 | 3.96017 | 102° | 119km/h | 10597m | 3.2m/s | -54.3°C | 55.4% | -1.0hPa | 0V | 00:00:00 | 00:00:00 | 00:00:00 | |
| DJ2DS-15 | 2026-09-02 23:56:14 | 56.54590 | 3.95692 | 101° | 122km/h | 10573m | 4.3m/s | 0°C | 0% | 0hPa | 0V | 00:00:00 | 00:59:42 | 00:00:00 | |
| DJ2DS-15 | 2026-09-02 23:55:54 | 56.54697 | 3.94592 | 99° | 120km/h | 10495m | 3.9m/s | 0°C | 0% | 0hPa | 0V | 00:00:00 | 00:59:22 | 00:00:00 | |
| DJ2DS-15 | 2026-09-02 23:55:34 | 56.54808 | 3.93506 | 100° | 120km/h | 10418m | 2.6m/s | 0°C | 0% | 0hPa | 0V | 00:00:00 | 00:59:02 | 00:00:00 | |
| DJ2DS-15 | 2026-09-02 23:55:14 | 56.54907 | 3.92419 | 99° | 120km/h | 10341m | 3.6m/s | 0°C | 0% | 0hPa | 0V | 00:00:00 | 00:58:42 | 00:00:00 | |
| DJ2DS-15 | 2026-09-02 23:54:50 | 56.55008 | 3.91106 | 98° | 124km/h | 10249m | 4.7m/s | 0°C | 0% | 0hPa | 0V | 00:00:00 | 00:58:18 | 00:00:00 | |
| DJ2DS-15 | 2026-09-02 23:54:27 | 56.55093 | 3.89818 | 97° | 126km/h | 10160m | 2.8m/s | 0°C | 0% | 0hPa | 0V | 00:00:00 | 00:57:55 | 00:00:00 | |
| DJ2DS-15 | 2026-09-02 23:54:06 | 56.55149 | 3.88616 | 94° | 128km/h | 10080m | 4.6m/s | 0°C | 0% | 0hPa | 0V | 00:00:00 | 00:57:34 | 00:00:00 |